Time,TemperatureF,DewpointF,PressureIn,WindDirection,WindDirectionDegrees,WindSpeedMPH,WindSpeedGustMPH,Humidity,HourlyPrecipIn,Conditions,Clouds,dailyrainin,SoftwareType,DateUTC
2013-09-09 00:00:00,81.2,73.7,29.41,SSE,165,5.0,9.0,78,0.00,,CLR,0.00,VWS V14.01,2013-09-09 04:00:00,
2013-09-09 00:01:00,81.2,73.7,29.41,SSE,165,8.0,8.0,78,0.00,,CLR,0.00,VWS V14.01,2013-09-09 04:01:00,
2013-09-09 00:02:00,81.2,73.7,29.41,SSE,159,9.0,9.0,78,0.00,,CLR,0.00,VWS V14.01,2013-09-09 04:02:00,
2013-09-09 00:03:00,81.2,73.7,29.41,SSE,163,9.0,10.0,78,0.00,,CLR,0.00,VWS V14.01,2013-09-09 04:03:00,
2013-09-09 00:04:00,81.2,73.7,29.41,South,184,12.0,12.0,78,0.00,,CLR,0.00,VWS V14.01,2013-09-09 04:04:00,
2013-09-09 00:05:00,81.2,73.7,29.41,South,171,6.0,12.0,78,0.00,,CLR,0.00,VWS V14.01,2013-09-09 04:05:00,
2013-09-09 00:06:00,81.2,73.7,29.41,SSE,153,7.0,9.0,78,0.00,,CLR,0.00,VWS V14.01,2013-09-09 04:06:00,
2013-09-09 00:07:00,81.2,73.7,29.41,SSE,153,7.0,9.0,78,0.00,,CLR,0.00,VWS V14.01,2013-09-09 04:07:00,
2013-09-09 00:08:00,81.2,73.7,29.34,South,169,10.0,10.0,78,0.00,,CLR,0.00,VWS V14.01,2013-09-09 04:08:00,
2013-09-09 00:09:00,81.2,73.7,29.34,SSE,157,7.0,10.0,78,0.00,,CLR,0.00,VWS V14.01,2013-09-09 04:09:00,
2013-09-09 00:10:00,81.2,73.7,29.34,SSE,164,9.0,10.0,78,0.00,,CLR,0.00,VWS V14.01,2013-09-09 04:10:00,
2013-09-09 00:11:00,81.4,73.9,29.38,SSE,168,11.0,11.0,78,0.00,,CLR,0.00,VWS V14.01,2013-09-09 04:11:00,
2013-09-09 00:12:00,81.4,73.9,29.38,SSE,168,11.0,11.0,78,0.00,,CLR,0.00,VWS V14.01,2013-09-09 04:12:00,
2013-09-09 00:13:00,81.2,73.3,29.38,South,171,6.0,11.0,77,0.00,,CLR,0.00,VWS V14.01,2013-09-09 04:13:00,
2013-09-09 00:14:00,81.2,73.7,29.38,South,186,7.0,8.0,78,0.00,,CLR,0.00,VWS V14.01,2013-09-09 04:14:00,
2013-09-09 00:15:00,81.4,74.3,29.38,South,186,10.0,10.0,79,0.00,,CLR,0.00,VWS V14.01,2013-09-09 04:15:00,
2013-09-09 00:16:00,81.4,73.9,29.38,South,180,5.0,9.0,78,0.00,,CLR,0.00,VWS V14.01,2013-09-09 04:16:00,
2013-09-09 00:17:00,81.4,73.9,29.38,South,180,5.0,9.0,78,0.00,,CLR,0.00,VWS V14.01,2013-09-09 04:17:00,
2013-09-09 00:18:00,81.2,73.7,29.38,SSE,162,7.0,7.0,78,0.00,,CLR,0.00,VWS V14.01,2013-09-09 04:18:00,
2013-09-09 00:19:00,81.4,73.9,29.38,SSE,168,6.0,7.0,78,0.00,,CLR,0.00,VWS V14.01,2013-09-09 04:19:00,
2013-09-09 00:20:00,81.4,74.3,29.38,South,177,9.0,9.0,79,0.00,,CLR,0.00,VWS V14.01,2013-09-09 04:20:00,
2013-09-09 00:21:00,81.2,73.7,29.38,SSE,165,6.0,11.0,78,0.00,,CLR,0.00,VWS V14.01,2013-09-09 04:21:00,
2013-09-09 00:22:00,81.2,73.7,29.38,SSE,165,6.0,11.0,78,0.00,,CLR,0.00,VWS V14.01,2013-09-09 04:22:00,
2013-09-09 00:23:00,81.2,73.7,29.38,South,189,10.0,10.0,78,0.00,,CLR,0.00,VWS V14.01,2013-09-09 04:23:00,
2013-09-09 00:24:00,81.4,74.3,29.38,SSE,158,6.0,10.0,79,0.00,,CLR,0.00,VWS V14.01,2013-09-09 04:24:00,
2013-09-09 00:25:00,81.4,74.6,29.38,South,169,7.0,9.0,80,0.00,,CLR,0.00,VWS V14.01,2013-09-09 04:25:00,
2013-09-09 00:26:00,81.4,74.6,29.51,SSE,167,7.0,11.0,80,0.00,,CLR,0.00,VWS V14.01,2013-09-09 04:26:00,
2013-09-09 00:27:00,81.4,74.6,29.51,SSE,167,7.0,11.0,80,0.00,,CLR,0.00,VWS V14.01,2013-09-09 04:27:00,
2013-09-09 00:28:00,81.4,74.6,29.51,SSE,165,9.0,9.0,80,0.00,,CLR,0.00,VWS V14.01,2013-09-09 04:28:00,
2013-09-09 00:29:00,81.4,74.3,29.51,SSE,168,7.0,9.0,79,0.00,,CLR,0.00,VWS V14.01,2013-09-09 04:29:00,
2013-09-09 00:30:00,81.4,74.3,29.58,SSE,167,7.0,9.0,79,0.00,,CLR,0.00,VWS V14.01,2013-09-09 04:30:00,
2013-09-09 00:31:00,81.2,73.7,29.57,South,175,7.0,12.0,78,0.00,,CLR,0.00,VWS V14.01,2013-09-09 04:31:00,
2013-09-09 00:32:00,81.2,73.7,29.57,South,175,7.0,12.0,78,0.00,,CLR,0.00,VWS V14.01,2013-09-09 04:32:00,
2013-09-09 00:33:00,81.2,73.7,29.54,South,186,9.0,10.0,78,0.00,,CLR,0.00,VWS V14.01,2013-09-09 04:33:00,
2013-09-09 00:34:00,81.2,73.7,29.54,SSE,154,5.0,10.0,78,0.00,,CLR,0.00,VWS V14.01,2013-09-09 04:34:00,
2013-09-09 00:35:00,81.4,74.6,29.54,South,190,6.0,8.0,80,0.00,,CLR,0.00,VWS V14.01,2013-09-09 04:35:00,
2013-09-09 00:36:00,81.2,73.3,29.57,SSE,167,6.0,10.0,77,0.00,,CLR,0.00,VWS V14.01,2013-09-09 04:36:00,
2013-09-09 00:37:00,81.2,73.3,29.57,SSE,167,6.0,10.0,77,0.00,,CLR,0.00,VWS V14.01,2013-09-09 04:37:00,
2013-09-09 00:38:00,81.2,73.7,29.57,South,172,10.0,10.0,78,0.00,,CLR,0.00,VWS V14.01,2013-09-09 04:38:00,
2013-09-09 00:39:00,81.2,74.4,29.57,South,184,10.0,10.0,80,0.00,,CLR,0.00,VWS V14.01,2013-09-09 04:39:00,
2013-09-09 00:40:00,81.2,73.7,29.55,SSE,164,7.0,10.0,78,0.00,,CLR,0.00,VWS V14.01,2013-09-09 04:40:00,
2013-09-09 00:41:00,81.2,73.7,29.55,South,173,7.0,11.0,78,0.00,,CLR,0.00,VWS V14.01,2013-09-09 04:41:00,
2013-09-09 00:42:00,81.2,73.7,29.55,South,173,7.0,11.0,78,0.00,,CLR,0.00,VWS V14.01,2013-09-09 04:42:00,
2013-09-09 00:43:00,81.2,73.7,29.52,South,175,10.0,10.0,78,0.00,,CLR,0.00,VWS V14.01,2013-09-09 04:43:00,
2013-09-09 00:44:00,81.2,73.7,29.52,SSE,163,7.0,10.0,78,0.00,,CLR,0.00,VWS V14.01,2013-09-09 04:44:00,
2013-09-09 00:45:00,81.2,73.7,29.52,SSE,159,9.0,9.0,78,0.00,,CLR,0.00,VWS V14.01,2013-09-09 04:45:00,
2013-09-09 00:46:00,81.2,73.7,29.52,SSE,167,7.0,9.0,78,0.00,,CLR,0.00,VWS V14.01,2013-09-09 04:46:00,
2013-09-09 00:47:00,81.2,73.7,29.52,SSE,167,7.0,9.0,78,0.00,,CLR,0.00,VWS V14.01,2013-09-09 04:47:00,
2013-09-09 00:48:00,81.2,74.1,29.52,South,182,7.0,13.0,79,0.00,,CLR,0.00,VWS V14.01,2013-09-09 04:48:00,
2013-09-09 00:49:00,81.2,73.7,29.57,South,180,9.0,9.0,78,0.00,,CLR,0.00,VWS V14.01,2013-09-09 04:49:00,
2013-09-09 00:50:00,81.2,73.7,29.56,SSE,167,10.0,12.0,78,0.00,,CLR,0.00,VWS V14.01,2013-09-09 04:50:00,
2013-09-09 00:51:00,81.2,74.4,29.56,SSE,165,9.0,10.0,80,0.00,,CLR,0.00,VWS V14.01,2013-09-09 04:51:00,
2013-09-09 00:52:00,81.2,74.1,29.56,SSE,168,9.0,10.0,79,0.00,,CLR,0.00,VWS V14.01,2013-09-09 04:52:00,
2013-09-09 00:53:00,81.2,74.1,29.56,SSE,154,10.0,10.0,79,0.00,,CLR,0.00,VWS V14.01,2013-09-09 04:53:00,
2013-09-09 00:54:00,81.2,74.1,29.56,SSW,202,10.0,10.0,79,0.00,,CLR,0.00,VWS V14.01,2013-09-09 04:54:00,
2013-09-09 00:55:00,81.2,74.1,29.49,SSE,157,7.0,11.0,79,0.00,,CLR,0.00,VWS V14.01,2013-09-09 04:55:00,
2013-09-09 00:56:00,81.2,74.1,29.46,South,178,9.0,10.0,79,0.00,,CLR,0.00,VWS V14.01,2013-09-09 04:56:00,
2013-09-09 00:57:00,81.2,74.1,29.46,South,178,9.0,10.0,79,0.00,,CLR,0.00,VWS V14.01,2013-09-09 04:57:00,
2013-09-09 00:58:00,81.1,74.0,29.48,South,171,6.0,10.0,79,0.00,,CLR,0.00,VWS V14.01,2013-09-09 04:58:00,
2013-09-09 00:59:00,81.2,74.1,29.48,SSE,149,10.0,10.0,79,0.00,,CLR,0.00,VWS V14.01,2013-09-09 04:59:00,
2013-09-09 01:00:00,81.2,74.1,29.48,SSE,158,13.0,13.0,79,0.00,,CLR,0.00,VWS V14.01,2013-09-09 05:00:00,
2013-09-09 01:01:00,81.2,74.4,29.56,South,180,10.0,11.0,80,0.00,,CLR,0.00,VWS V14.01,2013-09-09 05:01:00,
2013-09-09 01:02:00,81.2,74.4,29.56,South,180,10.0,11.0,80,0.00,,CLR,0.00,VWS V14.01,2013-09-09 05:02:00,
2013-09-09 01:03:00,81.2,74.1,29.56,South,180,9.0,10.0,79,0.00,,CLR,0.00,VWS V14.01,2013-09-09 05:03:00,
2013-09-09 01:04:00,81.2,74.4,29.56,South,188,9.0,11.0,80,0.00,,CLR,0.00,VWS V14.01,2013-09-09 05:04:00,
2013-09-09 01:05:00,81.2,74.1,29.56,South,180,7.0,12.0,79,0.00,,CLR,0.00,VWS V14.01,2013-09-09 05:05:00,
2013-09-09 01:06:00,81.2,74.1,29.56,SSE,167,9.0,10.0,79,0.00,,CLR,0.00,VWS V14.01,2013-09-09 05:06:00,
2013-09-09 01:07:00,81.2,74.1,29.56,SSE,167,9.0,10.0,79,0.00,,CLR,0.00,VWS V14.01,2013-09-09 05:07:00,
2013-09-09 01:08:00,81.2,74.1,29.46,South,182,10.0,10.0,79,0.00,,CLR,0.00,VWS V14.01,2013-09-09 05:08:00,
2013-09-09 01:09:00,81.2,74.1,29.47,SSE,165,9.0,10.0,79,0.00,,CLR,0.00,VWS V14.01,2013-09-09 05:09:00,
2013-09-09 01:10:00,81.2,74.4,29.47,SSW,192,10.0,11.0,80,0.00,,CLR,0.00,VWS V14.01,2013-09-09 05:10:00,
2013-09-09 01:11:00,81.2,74.4,29.50,South,172,7.0,12.0,80,0.00,,CLR,0.00,VWS V14.01,2013-09-09 05:11:00,
2013-09-09 01:12:00,81.2,74.4,29.50,South,172,7.0,12.0,80,0.00,,CLR,0.00,VWS V14.01,2013-09-09 05:12:00,
2013-09-09 01:13:00,81.2,74.4,29.50,SSE,159,7.0,11.0,80,0.00,,CLR,0.00,VWS V14.01,2013-09-09 05:13:00,
2013-09-09 01:16:00,81.2,74.4,29.47,South,178,12.0,12.0,80,0.00,,CLR,0.00,VWS V14.01,2013-09-09 05:16:00,
2013-09-09 01:17:00,81.2,74.4,29.47,South,178,12.0,12.0,80,0.00,,CLR,0.00,VWS V14.01,2013-09-09 05:17:00,
2013-09-09 01:18:00,81.2,74.1,29.47,SSW,204,10.0,12.0,79,0.00,,CLR,0.00,VWS V14.01,2013-09-09 05:18:00,
2013-09-09 01:19:00,81.1,73.6,29.53,South,184,11.0,12.0,78,0.00,,CLR,0.00,VWS V14.01,2013-09-09 05:19:00,
2013-09-09 01:20:00,81.1,73.6,29.53,South,178,10.0,11.0,78,0.00,,CLR,0.00,VWS V14.01,2013-09-09 05:20:00,
2013-09-09 01:21:00,81.1,74.0,29.57,South,191,12.0,12.0,79,0.00,,CLR,0.00,VWS V14.01,2013-09-09 05:21:00,
2013-09-09 01:22:00,81.1,74.0,29.61,South,188,10.0,12.0,79,0.00,,CLR,0.00,VWS V14.01,2013-09-09 05:22:00,
2013-09-09 01:23:00,81.1,73.6,29.61,South,178,10.0,12.0,78,0.00,,CLR,0.00,VWS V14.01,2013-09-09 05:23:00,
2013-09-09 01:24:00,81.1,73.2,29.61,South,190,8.0,10.0,77,0.00,,CLR,0.00,VWS V14.01,2013-09-09 05:24:00,
2013-09-09 01:25:00,81.1,73.2,29.55,South,181,8.0,10.0,77,0.00,,CLR,0.00,VWS V14.01,2013-09-09 05:25:00,
2013-09-09 01:26:00,81.2,73.7,29.54,South,190,10.0,10.0,78,0.00,,CLR,0.00,VWS V14.01,2013-09-09 05:26:00,
2013-09-09 01:27:00,81.2,73.7,29.54,South,190,10.0,10.0,78,0.00,,CLR,0.00,VWS V14.01,2013-09-09 05:27:00,
2013-09-09 01:28:00,81.2,73.7,29.54,SSE,157,7.0,10.0,78,0.00,,CLR,0.00,VWS V14.01,2013-09-09 05:28:00,
2013-09-09 01:29:00,81.2,73.7,29.54,South,191,9.0,9.0,78,0.00,,CLR,0.00,VWS V14.01,2013-09-09 05:29:00,
2013-09-09 01:30:00,81.2,73.7,29.54,SSE,166,7.0,9.0,78,0.00,,CLR,0.00,VWS V14.01,2013-09-09 05:30:00,
2013-09-09 01:31:00,81.2,74.1,29.51,SSW,201,6.0,11.0,79,0.00,,CLR,0.00,VWS V14.01,2013-09-09 05:31:00,
2013-09-09 01:32:00,81.2,74.1,29.51,SSW,201,6.0,11.0,79,0.00,,CLR,0.00,VWS V14.01,2013-09-09 05:32:00,
2013-09-09 01:33:00,81.2,74.1,29.51,South,182,11.0,11.0,79,0.00,,CLR,0.00,VWS V14.01,2013-09-09 05:33:00,
2013-09-09 01:34:00,81.2,73.7,29.51,South,189,7.0,11.0,78,0.00,,CLR,0.00,VWS V14.01,2013-09-09 05:34:00,
2013-09-09 01:35:00,81.2,73.7,29.56,SSW,197,10.0,10.0,78,0.00,,CLR,0.00,VWS V14.01,2013-09-09 05:35:00,
2013-09-09 01:36:00,81.2,74.1,29.61,South,170,9.0,11.0,79,0.00,,FEW070,0.00,VWS V14.01,2013-09-09 05:36:00,
2013-09-09 01:37:00,81.2,74.1,29.61,South,170,9.0,11.0,79,0.00,,CLR,0.00,VWS V14.01,2013-09-09 05:37:00,
2013-09-09 01:38:00,81.2,73.7,29.61,South,180,12.0,12.0,78,0.00,,CLR,0.00,VWS V14.01,2013-09-09 05:38:00,
2013-09-09 01:39:00,81.2,73.7,29.61,SSE,165,5.0,12.0,78,0.00,,CLR,0.00,VWS V14.01,2013-09-09 05:39:00,
2013-09-09 01:40:00,81.2,73.7,29.61,SSE,160,7.0,10.0,78,0.00,,CLR,0.00,VWS V14.01,2013-09-09 05:40:00,
2013-09-09 01:41:00,81.2,73.7,29.56,South,188,11.0,11.0,78,0.00,,FEW070,0.00,VWS V14.01,2013-09-09 05:41:00,
2013-09-09 01:42:00,81.2,73.7,29.56,South,188,11.0,11.0,78,0.00,,CLR,0.00,VWS V14.01,2013-09-09 05:42:00,
2013-09-09 01:43:00,81.2,74.1,29.56,South,191,10.0,11.0,79,0.00,,CLR,0.00,VWS V14.01,2013-09-09 05:43:00,
2013-09-09 01:44:00,81.2,73.7,29.56,South,180,11.0,12.0,78,0.00,,CLR,0.00,VWS V14.01,2013-09-09 05:44:00,
2013-09-09 01:45:00,81.1,73.6,29.58,South,173,8.0,12.0,78,0.00,,CLR,0.00,VWS V14.01,2013-09-09 05:45:00,
2013-09-09 01:46:00,81.1,73.6,29.58,South,171,8.0,11.0,78,0.00,,FEW070,0.00,VWS V14.01,2013-09-09 05:46:00,
2013-09-09 01:47:00,81.1,73.6,29.58,South,171,8.0,11.0,78,0.00,,CLR,0.00,VWS V14.01,2013-09-09 05:47:00,
2013-09-09 01:48:00,81.2,74.4,29.58,SSE,158,7.0,9.0,80,0.00,,CLR,0.00,VWS V14.01,2013-09-09 05:48:00,
2013-09-09 01:49:00,81.2,74.1,29.58,South,171,10.0,10.0,79,0.00,,CLR,0.00,VWS V14.01,2013-09-09 05:49:00,
2013-09-09 01:50:00,81.4,74.6,29.58,South,184,10.0,10.0,80,0.00,,CLR,0.00,VWS V14.01,2013-09-09 05:50:00,
2013-09-09 01:51:00,81.2,74.4,29.53,South,173,9.0,9.0,80,0.00,,FEW070,0.00,VWS V14.01,2013-09-09 05:51:00,
2013-09-09 01:52:00,81.2,74.4,29.53,South,173,10.0,10.0,80,0.00,,CLR,0.00,VWS V14.01,2013-09-09 05:52:00,
2013-09-09 01:53:00,81.2,74.1,29.53,South,170,7.0,10.0,79,0.00,,CLR,0.00,VWS V14.01,2013-09-09 05:53:00,
2013-09-09 01:54:00,81.1,74.0,29.61,SSE,165,7.0,10.0,79,0.00,,CLR,0.00,VWS V14.01,2013-09-09 05:54:00,
2013-09-09 01:55:00,81.2,74.4,29.60,South,181,11.0,11.0,80,0.00,,CLR,0.00,VWS V14.01,2013-09-09 05:55:00,
2013-09-09 01:56:00,81.1,74.3,29.60,South,174,11.0,11.0,80,0.00,,FEW070,0.00,VWS V14.01,2013-09-09 05:56:00,
2013-09-09 01:58:00,81.1,74.3,29.60,South,176,11.0,12.0,80,0.00,,CLR,0.00,VWS V14.01,2013-09-09 05:58:00,
2013-09-09 01:59:00,81.1,74.3,29.62,South,176,11.0,12.0,80,0.00,,CLR,0.00,VWS V14.01,2013-09-09 05:59:00,
2013-09-09 02:00:00,81.1,74.3,29.62,South,171,11.0,11.0,80,0.00,,CLR,0.00,VWS V14.01,2013-09-09 06:00:00,
2013-09-09 02:01:00,81.1,74.3,29.62,South,173,6.0,9.0,80,0.00,,FEW070,0.00,VWS V14.01,2013-09-09 06:01:00,
2013-09-09 02:02:00,81.1,74.3,29.62,South,173,6.0,9.0,80,0.00,,CLR,0.00,VWS V14.01,2013-09-09 06:02:00,
2013-09-09 02:03:00,81.1,74.3,29.62,SSE,167,10.0,10.0,80,0.00,,CLR,0.00,VWS V14.01,2013-09-09 06:03:00,
2013-09-09 02:04:00,81.2,74.8,29.62,South,169,5.0,10.0,81,0.00,,CLR,0.00,VWS V14.01,2013-09-09 06:04:00,
2013-09-09 02:05:00,81.2,74.4,29.57,South,183,10.0,10.0,80,0.00,,CLR,0.00,VWS V14.01,2013-09-09 06:05:00,
2013-09-09 02:06:00,81.1,74.3,29.57,South,182,11.0,11.0,80,0.00,,FEW070,0.00,VWS V14.01,2013-09-09 06:06:00,
2013-09-09 02:07:00,81.1,74.3,29.57,South,182,11.0,11.0,80,0.00,,CLR,0.00,VWS V14.01,2013-09-09 06:07:00,
2013-09-09 02:08:00,80.9,73.8,29.52,SSW,207,5.0,11.0,79,0.00,,CLR,0.00,VWS V14.01,2013-09-09 06:08:00,
2013-09-09 02:09:00,80.9,73.8,29.53,South,169,9.0,9.0,79,0.00,,CLR,0.00,VWS V14.01,2013-09-09 06:09:00,
2013-09-09 02:10:00,81.1,74.3,29.53,South,180,9.0,10.0,80,0.00,,CLR,0.00,VWS V14.01,2013-09-09 06:10:00,
2013-09-09 02:11:00,81.1,74.3,29.57,SSE,165,7.0,10.0,80,0.00,,FEW070,0.00,VWS V14.01,2013-09-09 06:11:00,
2013-09-09 02:12:00,81.1,74.3,29.57,SSE,155,7.0,10.0,80,0.00,,CLR,0.00,VWS V14.01,2013-09-09 06:12:00,
2013-09-09 02:13:00,81.1,74.3,29.58,SW,227,7.0,8.0,80,0.00,,CLR,0.00,VWS V14.01,2013-09-09 06:13:00,
2013-09-09 02:14:00,81.1,74.3,29.58,South,169,7.0,7.0,80,0.00,,CLR,0.00,VWS V14.01,2013-09-09 06:14:00,
2013-09-09 02:15:00,81.1,74.3,29.58,South,176,9.0,9.0,80,0.00,,CLR,0.00,VWS V14.01,2013-09-09 06:15:00,
2013-09-09 02:16:00,81.1,74.3,29.43,SSE,167,8.0,12.0,80,0.00,,FEW070,0.00,VWS V14.01,2013-09-09 06:16:00,
2013-09-09 02:17:00,81.1,74.3,29.43,SSW,206,6.0,12.0,80,0.00,,CLR,0.00,VWS V14.01,2013-09-09 06:17:00,
2013-09-09 02:18:00,81.1,74.3,29.43,South,169,8.0,9.0,80,0.00,,CLR,0.00,VWS V14.01,2013-09-09 06:18:00,
2013-09-09 02:19:00,81.1,74.3,29.43,South,182,11.0,11.0,80,0.00,,CLR,0.00,VWS V14.01,2013-09-09 06:19:00,
2013-09-09 02:20:00,80.9,74.2,29.43,South,188,6.0,11.0,80,0.00,,CLR,0.00,VWS V14.01,2013-09-09 06:20:00,
2013-09-09 02:21:00,80.9,74.2,29.62,South,179,11.0,11.0,80,0.00,,FEW070,0.00,VWS V14.01,2013-09-09 06:21:00,
2013-09-09 02:22:00,80.9,73.8,29.62,South,183,10.0,11.0,79,0.00,,CLR,0.00,VWS V14.01,2013-09-09 06:22:00,
2013-09-09 02:23:00,80.9,74.2,29.62,South,178,9.0,10.0,80,0.00,,CLR,0.00,VWS V14.01,2013-09-09 06:23:00,
2013-09-09 02:24:00,81.1,74.3,29.53,South,173,11.0,11.0,80,0.00,,CLR,0.00,VWS V14.01,2013-09-09 06:24:00,
2013-09-09 02:25:00,80.9,74.2,29.53,South,182,9.0,11.0,80,0.00,,CLR,0.00,VWS V14.01,2013-09-09 06:25:00,
2013-09-09 02:26:00,80.9,74.2,29.60,South,178,8.0,9.0,80,0.00,,FEW070,0.00,VWS V14.01,2013-09-09 06:26:00,
2013-09-09 02:27:00,80.9,74.2,29.60,South,183,7.0,9.0,80,0.00,,CLR,0.00,VWS V14.01,2013-09-09 06:27:00,
2013-09-09 02:28:00,81.1,74.3,29.60,South,173,8.0,9.0,80,0.00,,CLR,0.00,VWS V14.01,2013-09-09 06:28:00,
2013-09-09 02:29:00,81.1,74.3,29.52,South,169,7.0,11.0,80,0.00,,CLR,0.00,VWS V14.01,2013-09-09 06:29:00,
2013-09-09 02:30:00,81.1,74.3,29.51,South,177,12.0,12.0,80,0.00,,CLR,0.00,VWS V14.01,2013-09-09 06:30:00,
2013-09-09 02:31:00,81.1,74.3,29.51,South,178,11.0,13.0,80,0.00,,FEW070,0.00,VWS V14.01,2013-09-09 06:31:00,
2013-09-09 02:32:00,81.1,74.3,29.55,South,170,10.0,13.0,80,0.00,,CLR,0.00,VWS V14.01,2013-09-09 06:32:00,
2013-09-09 02:33:00,81.1,74.3,29.55,South,173,9.0,10.0,80,0.00,,CLR,0.00,VWS V14.01,2013-09-09 06:33:00,
2013-09-09 02:34:00,81.1,74.3,29.59,South,178,13.0,13.0,80,0.00,,CLR,0.00,VWS V14.01,2013-09-09 06:34:00,
2013-09-09 02:35:00,81.1,74.3,29.59,SSE,167,9.0,13.0,80,0.00,,CLR,0.00,VWS V14.01,2013-09-09 06:35:00,
2013-09-09 02:36:00,81.1,74.3,29.59,SSE,164,9.0,12.0,80,0.00,,FEW070,0.00,VWS V14.01,2013-09-09 06:36:00,
2013-09-09 02:37:00,81.1,74.3,29.59,SSE,164,9.0,12.0,80,0.00,,CLR,0.00,VWS V14.01,2013-09-09 06:37:00,
2013-09-09 02:39:00,80.9,74.2,29.59,South,173,9.0,9.0,80,0.00,,CLR,0.00,VWS V14.01,2013-09-09 06:39:00,
2013-09-09 02:40:00,81.1,74.7,29.59,SSW,195,9.0,12.0,81,0.00,,CLR,0.00,VWS V14.01,2013-09-09 06:40:00,
2013-09-09 02:41:00,80.9,74.2,29.57,SSW,201,11.0,11.0,80,0.00,,FEW070,0.00,VWS V14.01,2013-09-09 06:41:00,
2013-09-09 02:42:00,80.9,74.2,29.57,SSW,201,11.0,11.0,80,0.00,,CLR,0.00,VWS V14.01,2013-09-09 06:42:00,
2013-09-09 02:43:00,81.1,74.3,29.57,South,182,11.0,11.0,80,0.00,,CLR,0.00,VWS V14.01,2013-09-09 06:43:00,
2013-09-09 02:44:00,81.1,74.7,29.57,South,184,13.0,13.0,81,0.00,,CLR,0.00,VWS V14.01,2013-09-09 06:44:00,
2013-09-09 02:45:00,81.1,74.3,29.57,South,184,10.0,13.0,80,0.00,,CLR,0.00,VWS V14.01,2013-09-09 06:45:00,
2013-09-09 02:46:00,81.1,74.7,29.57,South,171,12.0,12.0,81,0.00,,FEW070,0.00,VWS V14.01,2013-09-09 06:46:00,
2013-09-09 02:47:00,81.1,74.7,29.57,SSE,166,9.0,12.0,81,0.00,,CLR,0.00,VWS V14.01,2013-09-09 06:47:00,
2013-09-09 02:48:00,81.1,74.3,29.57,SSE,168,6.0,9.0,80,0.00,,CLR,0.00,VWS V14.01,2013-09-09 06:48:00,
2013-09-09 02:49:00,81.1,74.7,29.57,SSW,202,12.0,12.0,81,0.00,,CLR,0.00,VWS V14.01,2013-09-09 06:49:00,
2013-09-09 02:50:00,80.9,74.5,29.57,SSE,148,7.0,12.0,81,0.00,,CLR,0.00,VWS V14.01,2013-09-09 06:50:00,
2013-09-09 02:51:00,80.9,74.5,29.76,SSW,207,7.0,9.0,81,0.00,,FEW070,0.00,VWS V14.01,2013-09-09 06:51:00,
2013-09-09 02:52:00,81.1,74.7,29.76,SSW,209,11.0,11.0,81,0.00,,CLR,0.00,VWS V14.01,2013-09-09 06:52:00,
2013-09-09 02:53:00,80.9,74.5,29.76,South,188,9.0,11.0,81,0.00,,CLR,0.00,VWS V14.01,2013-09-09 06:53:00,
2013-09-09 02:54:00,80.9,74.5,29.76,SSW,196,10.0,12.0,81,0.00,,CLR,0.00,VWS V14.01,2013-09-09 06:54:00,
2013-09-09 02:55:00,80.9,74.5,29.76,SSW,201,10.0,10.0,81,0.00,,CLR,0.00,VWS V14.01,2013-09-09 06:55:00,
2013-09-09 02:56:00,80.9,74.5,29.76,South,185,11.0,11.0,81,0.00,,FEW070,0.00,VWS V14.01,2013-09-09 06:56:00,
2013-09-09 02:57:00,80.9,74.5,29.76,SSW,196,8.0,11.0,81,0.00,,CLR,0.00,VWS V14.01,2013-09-09 06:57:00,
2013-09-09 02:58:00,81.1,74.7,29.76,SSW,195,7.0,12.0,81,0.00,,CLR,0.00,VWS V14.01,2013-09-09 06:58:00,
2013-09-09 02:59:00,81.1,74.7,29.76,South,178,9.0,10.0,81,0.00,,CLR,0.00,VWS V14.01,2013-09-09 06:59:00,
2013-09-09 03:00:00,81.1,74.7,29.76,South,176,9.0,11.0,81,0.00,,CLR,0.00,VWS V14.01,2013-09-09 07:00:00,
2013-09-09 03:01:00,81.1,74.7,29.40,SSE,166,6.0,11.0,81,0.00,,FEW070,0.00,VWS V14.01,2013-09-09 07:01:00,
2013-09-09 03:02:00,81.1,74.7,29.40,South,181,11.0,11.0,81,0.00,,CLR,0.00,VWS V14.01,2013-09-09 07:02:00,
2013-09-09 03:03:00,81.1,74.7,29.40,South,178,9.0,11.0,81,0.00,,CLR,0.00,VWS V14.01,2013-09-09 07:03:00,
2013-09-09 03:04:00,81.1,75.1,29.40,SSW,213,10.0,10.0,82,0.00,,CLR,0.00,VWS V14.01,2013-09-09 07:04:00,
2013-09-09 03:05:00,81.1,74.7,29.40,South,183,11.0,12.0,81,0.00,,CLR,0.00,VWS V14.01,2013-09-09 07:05:00,
2013-09-09 03:06:00,81.1,74.7,29.40,South,184,10.0,10.0,81,0.00,,FEW070,0.00,VWS V14.01,2013-09-09 07:06:00,
2013-09-09 03:07:00,81.1,74.7,29.40,South,183,7.0,10.0,81,0.00,,CLR,0.00,VWS V14.01,2013-09-09 07:07:00,
2013-09-09 03:08:00,81.1,74.7,29.40,SSW,194,11.0,11.0,81,0.00,,CLR,0.00,VWS V14.01,2013-09-09 07:08:00,
2013-09-09 03:09:00,81.1,74.7,29.40,South,174,10.0,11.0,81,0.00,,CLR,0.00,VWS V14.01,2013-09-09 07:09:00,
2013-09-09 03:10:00,81.1,74.7,29.40,South,182,9.0,10.0,81,0.00,,CLR,0.00,VWS V14.01,2013-09-09 07:10:00,
2013-09-09 03:11:00,80.9,74.5,29.44,SSW,196,7.0,10.0,81,0.00,,FEW070,0.00,VWS V14.01,2013-09-09 07:11:00,
2013-09-09 03:12:00,80.9,74.5,29.44,SSW,211,9.0,10.0,81,0.00,,CLR,0.00,VWS V14.01,2013-09-09 07:12:00,
2013-09-09 03:13:00,80.9,74.5,29.44,SW,233,9.0,10.0,81,0.00,,CLR,0.00,VWS V14.01,2013-09-09 07:13:00,
2013-09-09 03:14:00,80.9,74.5,29.44,SSW,198,7.0,10.0,81,0.00,,CLR,0.00,VWS V14.01,2013-09-09 07:14:00,
2013-09-09 03:15:00,80.9,74.5,29.44,South,184,8.0,10.0,81,0.00,,CLR,0.00,VWS V14.01,2013-09-09 07:15:00,
2013-09-09 03:16:00,80.9,74.5,29.50,SSW,192,6.0,10.0,81,0.00,,FEW070,0.00,VWS V14.01,2013-09-09 07:16:00,
2013-09-09 03:17:00,80.9,74.5,29.50,South,188,10.0,10.0,81,0.00,,CLR,0.00,VWS V14.01,2013-09-09 07:17:00,
2013-09-09 03:18:00,80.9,74.9,29.50,SSE,166,9.0,11.0,82,0.00,,CLR,0.00,VWS V14.01,2013-09-09 07:18:00,
2013-09-09 03:19:00,80.9,74.5,29.50,SSW,194,7.0,9.0,81,0.00,,CLR,0.00,VWS V14.01,2013-09-09 07:19:00,
2013-09-09 03:21:00,80.9,74.5,29.42,SSW,193,6.0,7.0,81,0.00,,FEW070,0.00,VWS V14.01,2013-09-09 07:21:00,
2013-09-09 03:22:00,80.9,74.5,29.42,SSW,196,7.0,7.0,81,0.00,,CLR,0.00,VWS V14.01,2013-09-09 07:22:00,
2013-09-09 03:23:00,80.9,74.9,29.42,South,175,7.0,7.0,82,0.00,,CLR,0.00,VWS V14.01,2013-09-09 07:23:00,
2013-09-09 03:24:00,80.9,74.5,29.45,SSE,150,7.0,11.0,81,0.00,,CLR,0.00,VWS V14.01,2013-09-09 07:24:00,
2013-09-09 03:25:00,81.1,75.1,29.47,South,180,5.0,10.0,82,0.00,,CLR,0.00,VWS V14.01,2013-09-09 07:25:00,
2013-09-09 03:26:00,81.1,75.1,29.45,South,169,7.0,7.0,82,0.00,,FEW070,0.00,VWS V14.01,2013-09-09 07:26:00,
2013-09-09 03:27:00,81.1,75.1,29.45,SSE,162,7.0,7.0,82,0.00,,CLR,0.00,VWS V14.01,2013-09-09 07:27:00,
2013-09-09 03:28:00,80.9,74.9,29.45,South,172,10.0,10.0,82,0.00,,CLR,0.00,VWS V14.01,2013-09-09 07:28:00,
2013-09-09 03:29:00,80.9,74.9,29.52,South,184,10.0,10.0,82,0.00,,CLR,0.00,VWS V14.01,2013-09-09 07:29:00,
2013-09-09 03:30:00,81.1,75.1,29.52,South,190,10.0,11.0,82,0.00,,CLR,0.00,VWS V14.01,2013-09-09 07:30:00,
2013-09-09 03:31:00,81.1,75.1,29.52,South,182,9.0,10.0,82,0.00,,FEW070,0.00,VWS V14.01,2013-09-09 07:31:00,
2013-09-09 03:32:00,80.9,74.9,29.52,South,188,6.0,10.0,82,0.00,,CLR,0.00,VWS V14.01,2013-09-09 07:32:00,
2013-09-09 03:33:00,80.9,74.9,29.52,South,173,8.0,11.0,82,0.00,,CLR,0.00,VWS V14.01,2013-09-09 07:33:00,
2013-09-09 03:34:00,80.9,74.5,29.52,SSE,167,8.0,11.0,81,0.00,,CLR,0.00,VWS V14.01,2013-09-09 07:34:00,
2013-09-09 03:35:00,80.9,74.9,29.52,SW,217,7.0,10.0,82,0.00,,CLR,0.00,VWS V14.01,2013-09-09 07:35:00,
2013-09-09 03:36:00,80.9,74.9,29.52,SSE,168,6.0,10.0,82,0.00,,CLR,0.00,VWS V14.01,2013-09-09 07:36:00,
2013-09-09 03:37:00,80.9,74.9,29.52,SSE,165,7.0,10.0,82,0.00,,CLR,0.00,VWS V14.01,2013-09-09 07:37:00,
2013-09-09 03:38:00,80.9,74.9,29.52,SSE,161,6.0,7.0,82,0.00,,CLR,0.00,VWS V14.01,2013-09-09 07:38:00,
2013-09-09 03:39:00,80.9,74.9,29.52,South,188,9.0,9.0,82,0.00,,CLR,0.00,VWS V14.01,2013-09-09 07:39:00,
2013-09-09 03:40:00,80.9,74.9,29.47,SSW,204,8.0,9.0,82,0.00,,CLR,0.00,VWS V14.01,2013-09-09 07:40:00,
2013-09-09 03:41:00,80.7,74.7,29.47,SSW,192,9.0,9.0,82,0.00,,CLR,0.00,VWS V14.01,2013-09-09 07:41:00,
2013-09-09 03:42:00,80.7,74.7,29.47,South,175,6.0,9.0,82,0.00,,CLR,0.00,VWS V14.01,2013-09-09 07:42:00,
2013-09-09 03:43:00,80.7,74.3,29.47,South,186,7.0,7.0,81,0.00,,CLR,0.00,VWS V14.01,2013-09-09 07:43:00,
2013-09-09 03:45:00,80.7,74.7,29.49,SSW,202,6.0,8.0,82,0.00,,CLR,0.00,VWS V14.01,2013-09-09 07:45:00,
2013-09-09 03:46:00,80.7,74.7,29.49,SSW,199,7.0,10.0,82,0.00,,CLR,0.00,VWS V14.01,2013-09-09 07:46:00,
2013-09-09 03:47:00,80.7,74.7,29.49,SSW,203,8.0,10.0,82,0.00,,CLR,0.00,VWS V14.01,2013-09-09 07:47:00,
2013-09-09 03:48:00,80.7,74.7,29.49,SSW,196,5.0,9.0,82,0.00,,CLR,0.00,VWS V14.01,2013-09-09 07:48:00,
2013-09-09 03:49:00,80.7,74.3,29.49,SSW,200,7.0,7.0,81,0.00,,CLR,0.00,VWS V14.01,2013-09-09 07:49:00,
2013-09-09 03:50:00,80.7,74.3,29.49,South,184,9.0,11.0,81,0.00,,CLR,0.00,VWS V14.01,2013-09-09 07:50:00,
2013-09-09 03:51:00,80.7,74.3,29.49,South,188,9.0,9.0,81,0.00,,CLR,0.00,VWS V14.01,2013-09-09 07:51:00,
2013-09-09 03:52:00,80.7,74.3,29.49,South,175,11.0,11.0,81,0.00,,CLR,0.00,VWS V14.01,2013-09-09 07:52:00,
2013-09-09 03:53:00,80.7,74.3,29.49,South,188,9.0,11.0,81,0.00,,CLR,0.00,VWS V14.01,2013-09-09 07:53:00,
2013-09-09 03:54:00,80.7,74.3,29.49,SSW,199,7.0,9.0,81,0.00,,CLR,0.00,VWS V14.01,2013-09-09 07:54:00,
2013-09-09 03:56:00,80.7,74.7,29.66,South,185,8.0,10.0,82,0.00,,CLR,0.00,VWS V14.01,2013-09-09 07:56:00,
2013-09-09 03:57:00,80.9,74.9,29.66,SSW,194,8.0,10.0,82,0.00,,CLR,0.00,VWS V14.01,2013-09-09 07:57:00,
2013-09-09 03:58:00,80.7,74.3,29.66,SSW,192,5.0,10.0,81,0.00,,CLR,0.00,VWS V14.01,2013-09-09 07:58:00,
2013-09-09 03:59:00,80.9,74.9,29.66,SSW,200,6.0,7.0,82,0.00,,CLR,0.00,VWS V14.01,2013-09-09 07:59:00,
2013-09-09 04:00:00,80.9,74.5,29.66,South,180,6.0,7.0,81,0.00,,CLR,0.00,VWS V14.01,2013-09-09 08:00:00,
2013-09-09 04:01:00,80.9,74.5,29.66,SSE,164,6.0,10.0,81,0.00,,CLR,0.00,VWS V14.01,2013-09-09 08:01:00,
2013-09-09 04:02:00,80.7,74.3,29.66,South,184,8.0,8.0,81,0.00,,CLR,0.00,VWS V14.01,2013-09-09 08:02:00,
2013-09-09 04:03:00,80.7,74.3,29.66,South,187,7.0,8.0,81,0.00,,CLR,0.00,VWS V14.01,2013-09-09 08:03:00,
2013-09-09 04:04:00,80.9,74.9,29.66,South,187,7.0,10.0,82,0.00,,CLR,0.00,VWS V14.01,2013-09-09 08:04:00,
2013-09-09 04:05:00,80.9,74.9,29.66,SSW,209,9.0,9.0,82,0.00,,CLR,0.00,VWS V14.01,2013-09-09 08:05:00,
2013-09-09 04:06:00,80.9,74.5,29.66,South,182,7.0,9.0,81,0.00,,CLR,0.00,VWS V14.01,2013-09-09 08:06:00,
2013-09-09 04:07:00,80.9,74.9,29.66,South,190,7.0,9.0,82,0.00,,CLR,0.00,VWS V14.01,2013-09-09 08:07:00,
2013-09-09 04:09:00,80.9,74.9,29.69,South,189,5.0,6.0,82,0.00,,CLR,0.00,VWS V14.01,2013-09-09 08:09:00,
2013-09-09 04:10:00,80.9,74.5,29.69,SSW,211,9.0,10.0,81,0.00,,CLR,0.00,VWS V14.01,2013-09-09 08:10:00,
2013-09-09 04:11:00,80.9,74.9,29.69,South,190,10.0,11.0,82,0.00,,CLR,0.00,VWS V14.01,2013-09-09 08:11:00,
2013-09-09 04:12:00,80.7,74.3,29.69,SSE,159,8.0,10.0,81,0.00,,CLR,0.00,VWS V14.01,2013-09-09 08:12:00,
2013-09-09 04:13:00,80.7,74.3,29.69,South,176,7.0,8.0,81,0.00,,CLR,0.00,VWS V14.01,2013-09-09 08:13:00,
2013-09-09 04:14:00,80.7,74.3,29.73,SSW,211,6.0,9.0,81,0.00,,CLR,0.00,VWS V14.01,2013-09-09 08:14:00,
2013-09-09 04:15:00,80.7,74.3,29.71,SW,214,7.0,9.0,81,0.00,,CLR,0.00,VWS V14.01,2013-09-09 08:15:00,
2013-09-09 04:16:00,80.7,74.3,29.73,SSW,192,6.0,9.0,81,0.00,,CLR,0.00,VWS V14.01,2013-09-09 08:16:00,
2013-09-09 04:17:00,80.7,74.3,29.71,South,188,8.0,9.0,81,0.00,,CLR,0.00,VWS V14.01,2013-09-09 08:17:00,
2013-09-09 04:18:00,80.9,74.9,29.71,South,184,9.0,10.0,82,0.00,,CLR,0.00,VWS V14.01,2013-09-09 08:18:00,
2013-09-09 04:19:00,80.9,74.5,29.69,SSW,195,5.0,9.0,81,0.00,,CLR,0.00,VWS V14.01,2013-09-09 08:19:00,
2013-09-09 04:20:00,80.9,74.9,29.69,SSW,205,5.0,5.0,82,0.00,,CLR,0.00,VWS V14.01,2013-09-09 08:20:00,
2013-09-09 04:21:00,80.9,74.9,29.69,SSW,204,5.0,9.0,82,0.00,,CLR,0.00,VWS V14.01,2013-09-09 08:21:00,
2013-09-09 04:22:00,80.9,74.9,29.69,SSE,161,6.0,6.0,82,0.00,,CLR,0.00,VWS V14.01,2013-09-09 08:22:00,
2013-09-09 04:23:00,80.9,74.9,29.69,SSW,204,8.0,9.0,82,0.00,,CLR,0.00,VWS V14.01,2013-09-09 08:23:00,
2013-09-09 04:24:00,80.9,74.9,29.69,SSW,201,6.0,8.0,82,0.00,,CLR,0.00,VWS V14.01,2013-09-09 08:24:00,
2013-09-09 04:25:00,80.9,74.5,29.69,SSW,211,3.0,6.0,81,0.00,,CLR,0.00,VWS V14.01,2013-09-09 08:25:00,
2013-09-09 04:26:00,80.9,74.9,29.69,SSW,201,4.0,8.0,82,0.00,,CLR,0.00,VWS V14.01,2013-09-09 08:26:00,
2013-09-09 04:27:00,80.9,74.5,29.69,SSW,197,6.0,6.0,81,0.00,,CLR,0.00,VWS V14.01,2013-09-09 08:27:00,
2013-09-09 04:28:00,80.7,74.7,29.69,SW,214,4.0,6.0,82,0.00,,CLR,0.00,VWS V14.01,2013-09-09 08:28:00,
2013-09-09 04:29:00,80.7,74.3,29.69,SW,221,6.0,7.0,81,0.00,,CLR,0.00,VWS V14.01,2013-09-09 08:29:00,
2013-09-09 04:30:00,80.7,74.3,29.57,South,190,7.0,7.0,81,0.00,,CLR,0.00,VWS V14.01,2013-09-09 08:30:00,
2013-09-09 04:31:00,80.7,74.7,29.69,SSW,200,5.0,7.0,82,0.00,,CLR,0.00,VWS V14.01,2013-09-09 08:31:00,
2013-09-09 04:32:00,80.7,74.3,29.57,SSW,195,5.0,7.0,81,0.00,,CLR,0.00,VWS V14.01,2013-09-09 08:32:00,
2013-09-09 04:33:00,80.7,74.3,29.57,SSW,209,9.0,9.0,81,0.00,,CLR,0.00,VWS V14.01,2013-09-09 08:33:00,
2013-09-09 04:34:00,80.7,74.7,29.57,SSW,200,6.0,9.0,82,0.00,,CLR,0.00,VWS V14.01,2013-09-09 08:34:00,
2013-09-09 04:35:00,80.7,74.3,29.57,SW,223,6.0,8.0,81,0.00,,CLR,0.00,VWS V14.01,2013-09-09 08:35:00,
2013-09-09 04:36:00,80.7,74.7,29.57,SSW,193,8.0,9.0,82,0.00,,CLR,0.00,VWS V14.01,2013-09-09 08:36:00,
2013-09-09 04:37:00,80.7,74.3,29.57,SW,214,6.0,8.0,81,0.00,,CLR,0.00,VWS V14.01,2013-09-09 08:37:00,
2013-09-09 04:38:00,80.7,74.3,29.57,SSW,208,6.0,6.0,81,0.00,,CLR,0.00,VWS V14.01,2013-09-09 08:38:00,
2013-09-09 04:39:00,80.7,74.7,29.57,SSW,213,6.0,6.0,82,0.00,,CLR,0.00,VWS V14.01,2013-09-09 08:39:00,
2013-09-09 04:40:00,80.7,74.3,29.57,South,178,9.0,9.0,81,0.00,,CLR,0.00,VWS V14.01,2013-09-09 08:40:00,
2013-09-09 04:41:00,80.7,74.7,29.57,South,188,6.0,9.0,82,0.00,,CLR,0.00,VWS V14.01,2013-09-09 08:41:00,
2013-09-09 04:42:00,80.7,74.7,29.57,South,174,4.0,9.0,82,0.00,,CLR,0.00,VWS V14.01,2013-09-09 08:42:00,
2013-09-09 04:43:00,80.9,74.9,29.57,SSW,204,5.0,7.0,82,0.00,,CLR,0.00,VWS V14.01,2013-09-09 08:43:00,
2013-09-09 04:44:00,80.9,74.5,29.57,SSW,203,7.0,9.0,81,0.00,,CLR,0.00,VWS V14.01,2013-09-09 08:44:00,
2013-09-09 04:45:00,80.7,74.3,29.52,SSW,197,6.0,6.0,81,0.00,,CLR,0.00,VWS V14.01,2013-09-09 08:45:00,
2013-09-09 04:46:00,80.7,74.3,29.57,SSW,203,4.0,7.0,81,0.00,,CLR,0.00,VWS V14.01,2013-09-09 08:46:00,
2013-09-09 04:47:00,80.7,74.3,29.52,South,183,5.0,6.0,81,0.00,,CLR,0.00,VWS V14.01,2013-09-09 08:47:00,
2013-09-09 04:48:00,80.9,74.9,29.52,SW,218,3.0,6.0,82,0.00,,CLR,0.00,VWS V14.01,2013-09-09 08:48:00,
2013-09-09 04:49:00,80.9,74.9,29.52,South,185,6.0,6.0,82,0.00,,CLR,0.00,VWS V14.01,2013-09-09 08:49:00,
2013-09-09 04:50:00,80.7,74.3,29.52,SSW,203,8.0,8.0,81,0.00,,CLR,0.00,VWS V14.01,2013-09-09 08:50:00,
2013-09-09 04:51:00,80.7,74.3,29.52,SW,217,4.0,8.0,81,0.00,,CLR,0.00,VWS V14.01,2013-09-09 08:51:00,
2013-09-09 04:52:00,80.7,74.7,29.52,SSW,196,9.0,9.0,82,0.00,,CLR,0.00,VWS V14.01,2013-09-09 08:52:00,
2013-09-09 04:53:00,80.7,74.7,29.52,SW,216,5.0,9.0,82,0.00,,CLR,0.00,VWS V14.01,2013-09-09 08:53:00,
2013-09-09 04:54:00,80.7,74.3,29.52,SSW,200,5.0,5.0,81,0.00,,CLR,0.00,VWS V14.01,2013-09-09 08:54:00,
2013-09-09 04:55:00,80.7,74.7,29.60,South,187,5.0,6.0,82,0.00,,CLR,0.00,VWS V14.01,2013-09-09 08:55:00,
2013-09-09 04:56:00,80.7,74.7,29.60,South,182,5.0,5.0,82,0.00,,CLR,0.00,VWS V14.01,2013-09-09 08:56:00,
2013-09-09 04:57:00,80.7,74.7,29.60,SSW,198,4.0,6.0,82,0.00,,CLR,0.00,VWS V14.01,2013-09-09 08:57:00,
2013-09-09 04:58:00,80.9,74.9,29.60,South,182,7.0,7.0,82,0.00,,CLR,0.00,VWS V14.01,2013-09-09 08:58:00,
2013-09-09 04:59:00,80.9,74.9,29.60,South,175,7.0,8.0,82,0.00,,CLR,0.00,VWS V14.01,2013-09-09 08:59:00,
2013-09-09 05:00:00,80.9,74.9,29.52,SSW,204,5.0,7.0,82,0.00,,CLR,0.00,VWS V14.01,2013-09-09 09:00:00,
2013-09-09 05:01:00,80.9,74.9,29.51,SSW,213,7.0,7.0,82,0.00,,CLR,0.00,VWS V14.01,2013-09-09 09:01:00,
2013-09-09 05:02:00,80.9,74.9,29.52,SSW,213,6.0,7.0,82,0.00,,CLR,0.00,VWS V14.01,2013-09-09 09:02:00,
2013-09-09 05:03:00,80.9,74.9,29.50,SSW,205,6.0,7.0,82,0.00,,CLR,0.00,VWS V14.01,2013-09-09 09:03:00,
2013-09-09 05:04:00,80.9,74.9,29.50,SW,225,7.0,7.0,82,0.00,,CLR,0.00,VWS V14.01,2013-09-09 09:04:00,
2013-09-09 05:05:00,80.9,74.9,29.45,South,185,5.0,5.0,82,0.00,,CLR,0.00,VWS V14.01,2013-09-09 09:05:00,
2013-09-09 05:06:00,80.9,74.9,29.45,South,190,4.0,7.0,82,0.00,,CLR,0.00,VWS V14.01,2013-09-09 09:06:00,
2013-09-09 05:07:00,80.9,74.9,29.45,South,183,3.0,5.0,82,0.00,,CLR,0.00,VWS V14.01,2013-09-09 09:07:00,
2013-09-09 05:08:00,80.7,74.7,29.45,SW,220,2.0,4.0,82,0.00,,CLR,0.00,VWS V14.01,2013-09-09 09:08:00,
2013-09-09 05:09:00,80.9,74.9,29.52,WSW,241,2.0,7.0,82,0.00,,CLR,0.00,VWS V14.01,2013-09-09 09:09:00,
2013-09-09 05:10:00,80.7,74.7,29.52,South,190,5.0,6.0,82,0.00,,CLR,0.00,VWS V14.01,2013-09-09 09:10:00,
2013-09-09 05:11:00,80.9,74.9,29.52,SW,227,1.0,3.0,82,0.00,,CLR,0.00,VWS V14.01,2013-09-09 09:11:00,
2013-09-09 05:13:00,80.7,74.7,29.56,SSE,168,5.0,6.0,82,0.00,,CLR,0.00,VWS V14.01,2013-09-09 09:13:00,
2013-09-09 05:14:00,80.7,74.7,29.56,SSW,196,4.0,6.0,82,0.00,,CLR,0.00,VWS V14.01,2013-09-09 09:14:00,
2013-09-09 05:15:00,80.7,74.7,29.56,SW,219,4.0,8.0,82,0.00,,CLR,0.00,VWS V14.01,2013-09-09 09:15:00,
2013-09-09 05:16:00,80.9,74.9,29.56,SSW,202,8.0,8.0,82,0.00,,CLR,0.00,VWS V14.01,2013-09-09 09:16:00,
2013-09-09 05:17:00,80.7,74.7,29.53,SW,217,5.0,8.0,82,0.00,,CLR,0.00,VWS V14.01,2013-09-09 09:17:00,
2013-09-09 05:18:00,80.7,74.7,29.53,SSW,212,4.0,7.0,82,0.00,,CLR,0.00,VWS V14.01,2013-09-09 09:18:00,
2013-09-09 05:19:00,80.7,74.7,29.53,SSW,207,2.0,5.0,82,0.00,,CLR,0.00,VWS V14.01,2013-09-09 09:19:00,
2013-09-09 05:20:00,80.7,74.7,29.49,SW,214,5.0,5.0,82,0.00,,CLR,0.00,VWS V14.01,2013-09-09 09:20:00,
2013-09-09 05:21:00,80.7,74.7,29.49,SSW,204,4.0,4.0,82,0.00,,CLR,0.00,VWS V14.01,2013-09-09 09:21:00,
2013-09-09 05:22:00,80.7,74.7,29.49,SSW,202,5.0,5.0,82,0.00,,CLR,0.00,VWS V14.01,2013-09-09 09:22:00,
2013-09-09 05:23:00,80.7,74.7,29.49,SW,222,3.0,7.0,82,0.00,,CLR,0.00,VWS V14.01,2013-09-09 09:23:00,
2013-09-09 05:24:00,80.7,74.7,29.49,SW,215,3.0,4.0,82,0.00,,CLR,0.00,VWS V14.01,2013-09-09 09:24:00,
2013-09-09 05:25:00,80.5,74.5,29.60,SW,221,2.0,2.0,82,0.00,,CLR,0.00,VWS V14.01,2013-09-09 09:25:00,
2013-09-09 05:26:00,80.7,74.7,29.60,SW,221,0.0,1.0,82,0.00,,CLR,0.00,VWS V14.01,2013-09-09 09:26:00,
2013-09-09 05:27:00,80.5,74.5,29.60,SW,222,2.0,3.0,82,0.00,,CLR,0.00,VWS V14.01,2013-09-09 09:27:00,
2013-09-09 05:28:00,80.5,74.5,29.60,SW,230,2.0,4.0,82,0.00,,CLR,0.00,VWS V14.01,2013-09-09 09:28:00,
2013-09-09 05:29:00,80.5,74.5,29.57,SW,235,1.0,4.0,82,0.00,,CLR,0.00,VWS V14.01,2013-09-09 09:29:00,
2013-09-09 05:30:00,80.5,74.5,29.61,SW,231,2.0,2.0,82,0.00,,CLR,0.00,VWS V14.01,2013-09-09 09:30:00,
2013-09-09 05:31:00,80.5,74.5,29.60,SW,231,0.0,0.0,82,0.00,,CLR,0.00,VWS V14.01,2013-09-09 09:31:00,
2013-09-09 05:32:00,80.3,74.3,29.61,SW,232,0.0,2.0,82,0.00,,CLR,0.00,VWS V14.01,2013-09-09 09:32:00,
2013-09-09 05:33:00,80.3,74.3,29.62,SW,235,3.0,3.0,82,0.00,,CLR,0.00,VWS V14.01,2013-09-09 09:33:00,
2013-09-09 05:34:00,80.3,74.3,29.60,SW,236,0.0,3.0,82,0.00,,CLR,0.00,VWS V14.01,2013-09-09 09:34:00,
2013-09-09 05:35:00,80.3,74.3,29.61,SW,236,1.0,1.0,82,0.00,,,0.00,VWS V14.01,2013-09-09 09:35:00,
2013-09-09 05:36:00,80.3,74.3,29.61,SW,236,0.0,2.0,82,0.00,,CLR,0.00,VWS V14.01,2013-09-09 09:36:00,
2013-09-09 05:37:00,80.3,74.3,29.61,SW,236,1.0,1.0,82,0.00,,CLR,0.00,VWS V14.01,2013-09-09 09:37:00,
2013-09-09 05:38:00,80.1,74.5,29.61,SW,236,2.0,2.0,83,0.00,,CLR,0.00,VWS V14.01,2013-09-09 09:38:00,
2013-09-09 05:39:00,80.1,74.5,29.61,SW,236,1.0,2.0,83,0.00,,CLR,0.00,VWS V14.01,2013-09-09 09:39:00,
2013-09-09 05:40:00,79.9,73.9,29.57,SW,236,1.0,2.0,82,0.00,,,0.00,VWS V14.01,2013-09-09 09:40:00,
2013-09-09 05:41:00,80.1,74.1,29.57,SW,236,1.0,1.0,82,0.00,,CLR,0.00,VWS V14.01,2013-09-09 09:41:00,
2013-09-09 05:42:00,79.9,74.3,29.57,WSW,237,2.0,2.0,83,0.00,,CLR,0.00,VWS V14.01,2013-09-09 09:42:00,
2013-09-09 05:43:00,79.9,74.3,29.55,WSW,237,2.0,2.0,83,0.00,,CLR,0.00,VWS V14.01,2013-09-09 09:43:00,
2013-09-09 05:44:00,79.9,74.3,29.55,WNW,284,3.0,3.0,83,0.00,,CLR,0.00,VWS V14.01,2013-09-09 09:44:00,
2013-09-09 05:45:00,79.8,74.2,29.49,NW,311,2.0,3.0,83,0.00,,,0.00,VWS V14.01,2013-09-09 09:45:00,
2013-09-09 05:46:00,79.8,74.2,29.49,NW,311,2.0,3.0,83,0.00,,CLR,0.00,VWS V14.01,2013-09-09 09:46:00,
2013-09-09 05:47:00,79.8,74.2,29.49,NW,311,2.0,3.0,83,0.00,,CLR,0.00,VWS V14.01,2013-09-09 09:47:00,
2013-09-09 05:48:00,79.8,74.2,29.40,NW,311,2.0,3.0,83,0.00,,CLR,0.00,VWS V14.01,2013-09-09 09:48:00,
2013-09-09 05:49:00,79.6,74.0,29.40,NW,311,2.0,2.0,83,0.00,,CLR,0.00,VWS V14.01,2013-09-09 09:49:00,
2013-09-09 05:50:00,79.6,74.3,29.40,NW,311,2.0,2.0,84,0.00,,,0.00,VWS V14.01,2013-09-09 09:50:00,
2013-09-09 05:51:00,79.6,74.3,29.40,NW,311,2.0,2.0,84,0.00,,CLR,0.00,VWS V14.01,2013-09-09 09:51:00,
2013-09-09 05:52:00,79.6,74.3,29.40,NW,311,2.0,3.0,84,0.00,,CLR,0.00,VWS V14.01,2013-09-09 09:52:00,
2013-09-09 05:53:00,79.4,74.2,29.40,NW,311,2.0,2.0,84,0.00,,CLR,0.00,VWS V14.01,2013-09-09 09:53:00,
2013-09-09 05:54:00,79.4,74.2,29.40,NW,311,2.0,3.0,84,0.00,,CLR,0.00,VWS V14.01,2013-09-09 09:54:00,
2013-09-09 05:55:00,79.2,73.9,29.40,NW,311,2.0,2.0,84,0.00,,,0.00,VWS V14.01,2013-09-09 09:55:00,
2013-09-09 05:56:00,79.2,73.9,29.40,NW,311,2.0,3.0,84,0.00,,CLR,0.00,VWS V14.01,2013-09-09 09:56:00,
2013-09-09 05:58:00,79.2,73.9,29.40,NW,311,3.0,3.0,84,0.00,,CLR,0.00,VWS V14.01,2013-09-09 09:58:00,
2013-09-09 05:59:00,79.0,74.1,29.40,NW,311,2.0,3.0,85,0.00,,CLR,0.00,VWS V14.01,2013-09-09 09:59:00,
2013-09-09 06:00:00,79.0,74.1,29.47,NW,311,2.0,2.0,85,0.00,,,0.00,VWS V14.01,2013-09-09 10:00:00,
2013-09-09 06:01:00,79.0,74.1,29.47,NW,311,2.0,2.0,85,0.00,,CLR,0.00,VWS V14.01,2013-09-09 10:01:00,
2013-09-09 06:02:00,79.0,74.1,29.47,NW,311,2.0,2.0,85,0.00,,CLR,0.00,VWS V14.01,2013-09-09 10:02:00,
2013-09-09 06:03:00,78.8,73.9,29.47,NW,311,2.0,2.0,85,0.00,,CLR,0.00,VWS V14.01,2013-09-09 10:03:00,
2013-09-09 06:04:00,78.8,73.9,29.47,NW,311,2.0,2.0,85,0.00,,CLR,0.00,VWS V14.01,2013-09-09 10:04:00,
2013-09-09 06:05:00,78.8,73.9,29.51,NW,311,2.0,2.0,85,0.00,,,0.00,VWS V14.01,2013-09-09 10:05:00,
2013-09-09 06:06:00,78.8,73.9,29.47,NW,311,2.0,2.0,85,0.00,,CLR,0.00,VWS V14.01,2013-09-09 10:06:00,
2013-09-09 06:07:00,78.8,73.9,29.51,NW,311,2.0,2.0,85,0.00,,CLR,0.00,VWS V14.01,2013-09-09 10:07:00,
2013-09-09 06:08:00,78.6,73.7,29.51,NW,311,2.0,2.0,85,0.00,,CLR,0.00,VWS V14.01,2013-09-09 10:08:00,
2013-09-09 06:09:00,78.6,73.7,29.51,NW,311,2.0,2.0,85,0.00,,CLR,0.00,VWS V14.01,2013-09-09 10:09:00,
2013-09-09 06:10:00,78.6,74.1,29.51,NW,311,2.0,2.0,86,0.00,,,0.00,VWS V14.01,2013-09-09 10:10:00,
2013-09-09 06:11:00,78.6,74.1,29.51,NW,311,2.0,2.0,86,0.00,,CLR,0.00,VWS V14.01,2013-09-09 10:11:00,
2013-09-09 06:12:00,78.6,74.1,29.49,NW,311,2.0,2.0,86,0.00,,CLR,0.00,VWS V14.01,2013-09-09 10:12:00,
2013-09-09 06:13:00,78.6,74.1,29.49,NW,311,2.0,2.0,86,0.00,,CLR,0.00,VWS V14.01,2013-09-09 10:13:00,
2013-09-09 06:14:00,78.6,74.1,29.49,NW,311,2.0,2.0,86,0.00,,CLR,0.00,VWS V14.01,2013-09-09 10:14:00,
2013-09-09 06:15:00,78.5,74.0,29.46,NW,311,2.0,2.0,86,0.00,,,0.00,VWS V14.01,2013-09-09 10:15:00,
2013-09-09 06:16:00,78.5,74.0,29.49,NW,311,2.0,2.0,86,0.00,,CLR,0.00,VWS V14.01,2013-09-09 10:16:00,
2013-09-09 06:17:00,78.5,74.0,29.46,NW,311,2.0,2.0,86,0.00,,CLR,0.00,VWS V14.01,2013-09-09 10:17:00,
2013-09-09 06:18:00,78.5,74.0,29.46,NW,311,1.0,2.0,86,0.00,,CLR,0.00,VWS V14.01,2013-09-09 10:18:00,
2013-09-09 06:19:00,78.5,74.0,29.46,NW,311,1.0,2.0,86,0.00,,CLR,0.00,VWS V14.01,2013-09-09 10:19:00,
2013-09-09 06:20:00,78.3,73.8,29.45,NW,311,2.0,2.0,86,0.00,,,0.00,VWS V14.01,2013-09-09 10:20:00,
2013-09-09 06:21:00,78.3,73.8,29.43,NW,311,1.0,2.0,86,0.00,,CLR,0.00,VWS V14.01,2013-09-09 10:21:00,
2013-09-09 06:22:00,78.3,74.1,29.45,NW,311,2.0,2.0,87,0.00,,CLR,0.00,VWS V14.01,2013-09-09 10:22:00,
2013-09-09 06:23:00,78.3,74.1,29.45,NW,311,2.0,2.0,87,0.00,,CLR,0.00,VWS V14.01,2013-09-09 10:23:00,
2013-09-09 06:24:00,78.3,74.1,29.45,NW,311,1.0,2.0,87,0.00,,CLR,0.00,VWS V14.01,2013-09-09 10:24:00,
2013-09-09 06:25:00,78.3,74.1,29.57,NW,311,2.0,2.0,87,0.00,,,0.00,VWS V14.01,2013-09-09 10:25:00,
2013-09-09 06:26:00,78.3,74.1,29.57,NW,311,1.0,2.0,87,0.00,,CLR,0.00,VWS V14.01,2013-09-09 10:26:00,
2013-09-09 06:27:00,78.1,73.9,29.57,NW,311,1.0,2.0,87,0.00,,CLR,0.00,VWS V14.01,2013-09-09 10:27:00,
2013-09-09 06:28:00,78.1,73.9,29.57,NW,311,1.0,2.0,87,0.00,,CLR,0.00,VWS V14.01,2013-09-09 10:28:00,
2013-09-09 06:29:00,78.1,73.9,29.57,NW,311,2.0,2.0,87,0.00,,CLR,0.00,VWS V14.01,2013-09-09 10:29:00,
2013-09-09 06:30:00,78.1,74.3,29.59,NW,311,3.0,3.0,88,0.00,,,0.00,VWS V14.01,2013-09-09 10:30:00,
2013-09-09 06:31:00,78.1,74.3,29.59,NW,311,2.0,2.0,88,0.00,,CLR,0.00,VWS V14.01,2013-09-09 10:31:00,
2013-09-09 06:32:00,78.1,74.3,29.52,NW,311,3.0,3.0,88,0.00,,CLR,0.00,VWS V14.01,2013-09-09 10:32:00,
2013-09-09 06:33:00,78.1,74.3,29.54,NW,311,2.0,3.0,88,0.00,,CLR,0.00,VWS V14.01,2013-09-09 10:33:00,
2013-09-09 06:34:00,78.1,74.3,29.54,NW,311,2.0,2.0,88,0.00,,CLR,0.00,VWS V14.01,2013-09-09 10:34:00,
2013-09-09 06:35:00,77.9,74.1,29.55,NW,311,3.0,3.0,88,0.00,,,0.00,VWS V14.01,2013-09-09 10:35:00,
2013-09-09 06:36:00,78.1,74.3,29.55,NW,311,2.0,3.0,88,0.00,,CLR,0.00,VWS V14.01,2013-09-09 10:36:00,
2013-09-09 06:37:00,77.9,74.1,29.55,NW,311,3.0,3.0,88,0.00,,CLR,0.00,VWS V14.01,2013-09-09 10:37:00,
2013-09-09 06:38:00,77.9,74.1,29.51,NW,311,3.0,3.0,88,0.00,,CLR,0.00,VWS V14.01,2013-09-09 10:38:00,
2013-09-09 06:39:00,77.9,74.1,29.51,NW,311,1.0,3.0,88,0.00,,CLR,0.00,VWS V14.01,2013-09-09 10:39:00,
2013-09-09 06:40:00,77.9,74.4,29.51,NW,311,2.0,2.0,89,0.00,,,0.00,VWS V14.01,2013-09-09 10:40:00,
2013-09-09 06:41:00,77.9,74.4,29.51,NW,311,1.0,2.0,89,0.00,,CLR,0.00,VWS V14.01,2013-09-09 10:41:00,
2013-09-09 06:42:00,77.9,74.4,29.51,NW,311,2.0,2.0,89,0.00,,CLR,0.00,VWS V14.01,2013-09-09 10:42:00,
2013-09-09 06:43:00,77.9,74.4,29.52,NW,311,2.0,2.0,89,0.00,,CLR,0.00,VWS V14.01,2013-09-09 10:43:00,
2013-09-09 06:44:00,77.9,74.4,29.52,NW,311,2.0,2.0,89,0.00,,CLR,0.00,VWS V14.01,2013-09-09 10:44:00,
2013-09-09 06:45:00,77.7,74.2,29.64,NW,311,1.0,2.0,89,0.00,,,0.00,VWS V14.01,2013-09-09 10:45:00,
2013-09-09 06:46:00,77.7,74.2,29.59,NW,311,2.0,2.0,89,0.00,,CLR,0.00,VWS V14.01,2013-09-09 10:46:00,
2013-09-09 06:47:00,77.7,74.2,29.64,NW,311,1.0,2.0,89,0.00,,CLR,0.00,VWS V14.01,2013-09-09 10:47:00,
2013-09-09 06:48:00,77.7,74.2,29.64,NW,311,2.0,2.0,89,0.00,,CLR,0.00,VWS V14.01,2013-09-09 10:48:00,
2013-09-09 06:49:00,77.7,74.2,29.56,NW,311,1.0,2.0,89,0.00,,CLR,0.00,VWS V14.01,2013-09-09 10:49:00,
2013-09-09 06:50:00,77.7,74.5,29.57,NW,311,2.0,2.0,90,0.00,,,0.00,VWS V14.01,2013-09-09 10:50:00,
2013-09-09 06:51:00,77.7,74.5,29.57,NW,311,2.0,2.0,90,0.00,,CLR,0.00,VWS V14.01,2013-09-09 10:51:00,
2013-09-09 06:52:00,77.7,74.5,29.57,NW,311,1.0,2.0,90,0.00,,CLR,0.00,VWS V14.01,2013-09-09 10:52:00,
2013-09-09 06:53:00,77.7,74.5,29.56,NW,311,2.0,2.0,90,0.00,,CLR,0.00,VWS V14.01,2013-09-09 10:53:00,
2013-09-09 06:54:00,77.7,74.5,29.56,NW,311,1.0,2.0,90,0.00,,CLR,0.00,VWS V14.01,2013-09-09 10:54:00,
2013-09-09 06:55:00,77.6,74.4,29.56,NW,311,2.0,2.0,90,0.00,,,0.00,VWS V14.01,2013-09-09 10:55:00,
2013-09-09 06:56:00,77.7,74.5,29.56,NW,311,1.0,2.0,90,0.00,,CLR,0.00,VWS V14.01,2013-09-09 10:56:00,
2013-09-09 06:57:00,77.6,74.4,29.56,NW,311,2.0,2.0,90,0.00,,CLR,0.00,VWS V14.01,2013-09-09 10:57:00,
2013-09-09 06:58:00,77.6,74.4,29.57,NW,311,2.0,2.0,90,0.00,,CLR,0.00,VWS V14.01,2013-09-09 10:58:00,
2013-09-09 06:59:00,77.6,74.8,29.57,NW,311,1.0,2.0,91,0.00,,CLR,0.00,VWS V14.01,2013-09-09 10:59:00,
2013-09-09 07:00:00,77.6,74.8,29.57,NW,311,2.0,2.0,91,0.00,,,0.00,VWS V14.01,2013-09-09 11:00:00,
2013-09-09 07:01:00,77.6,74.8,29.57,NW,311,2.0,2.0,91,0.00,,CLR,0.00,VWS V14.01,2013-09-09 11:01:00,
2013-09-09 07:02:00,77.6,74.8,29.57,NW,311,2.0,2.0,91,0.00,,CLR,0.00,VWS V14.01,2013-09-09 11:02:00,
2013-09-09 07:03:00,77.6,74.8,29.56,NW,311,2.0,2.0,91,0.00,,CLR,0.00,VWS V14.01,2013-09-09 11:03:00,
2013-09-09 07:04:00,77.4,74.6,29.56,NW,311,2.0,2.0,91,0.00,,CLR,0.00,VWS V14.01,2013-09-09 11:04:00,
2013-09-09 07:05:00,77.4,74.6,29.56,NW,311,2.0,2.0,91,0.00,,,0.00,VWS V14.01,2013-09-09 11:05:00,
2013-09-09 07:06:00,77.4,74.6,29.56,NW,311,1.0,2.0,91,0.00,,CLR,0.00,VWS V14.01,2013-09-09 11:06:00,
2013-09-09 07:07:00,77.4,74.6,29.56,NW,311,2.0,2.0,91,0.00,,CLR,0.00,VWS V14.01,2013-09-09 11:07:00,
2013-09-09 07:08:00,77.4,74.6,29.56,NW,311,1.0,2.0,91,0.00,,CLR,0.00,VWS V14.01,2013-09-09 11:08:00,
2013-09-09 07:09:00,77.4,74.6,29.56,NW,311,1.0,2.0,91,0.00,,CLR,0.00,VWS V14.01,2013-09-09 11:09:00,
2013-09-09 07:10:00,77.2,74.7,29.27,NW,311,2.0,2.0,92,0.00,,,0.00,VWS V14.01,2013-09-09 11:10:00,
2013-09-09 07:11:00,77.2,74.7,29.27,NW,311,1.0,2.0,92,0.00,,CLR,0.00,VWS V14.01,2013-09-09 11:11:00,
2013-09-09 07:12:00,77.2,74.7,29.27,NW,311,2.0,3.0,92,0.00,,CLR,0.00,VWS V14.01,2013-09-09 11:12:00,
2013-09-09 07:13:00,77.2,74.7,29.27,NW,311,2.0,3.0,92,0.00,,CLR,0.00,VWS V14.01,2013-09-09 11:13:00,
2013-09-09 07:14:00,77.2,74.7,29.48,NW,311,2.0,2.0,92,0.00,,CLR,0.00,VWS V14.01,2013-09-09 11:14:00,
2013-09-09 07:15:00,77.2,74.7,29.48,NW,311,2.0,2.0,92,0.00,,,0.00,VWS V14.01,2013-09-09 11:15:00,
2013-09-09 07:17:00,77.2,74.7,29.48,NW,311,1.0,2.0,92,0.00,,CLR,0.00,VWS V14.01,2013-09-09 11:17:00,
2013-09-09 07:18:00,77.2,74.7,29.48,NW,311,1.0,2.0,92,0.00,,CLR,0.00,VWS V14.01,2013-09-09 11:18:00,
2013-09-09 07:19:00,77.2,75.0,29.48,NW,311,0.0,2.0,93,0.00,,CLR,0.00,VWS V14.01,2013-09-09 11:19:00,
2013-09-09 07:20:00,77.0,74.8,29.48,NW,311,2.0,2.0,93,0.00,,,0.00,VWS V14.01,2013-09-09 11:20:00,
2013-09-09 07:21:00,77.0,74.8,29.48,NW,311,2.0,2.0,93,0.00,,CLR,0.00,VWS V14.01,2013-09-09 11:21:00,
2013-09-09 07:22:00,77.0,74.8,29.48,NW,311,2.0,2.0,93,0.00,,CLR,0.00,VWS V14.01,2013-09-09 11:22:00,
2013-09-09 07:23:00,77.0,74.8,29.48,NW,311,2.0,2.0,93,0.00,,CLR,0.00,VWS V14.01,2013-09-09 11:23:00,
2013-09-09 07:24:00,77.0,74.8,29.49,NW,311,2.0,3.0,93,0.00,,CLR,0.00,VWS V14.01,2013-09-09 11:24:00,
2013-09-09 07:25:00,77.0,74.8,29.49,NW,311,2.0,2.0,93,0.00,,,0.00,VWS V14.01,2013-09-09 11:25:00,
2013-09-09 07:26:00,77.0,74.8,29.49,NW,311,2.0,2.0,93,0.00,,CLR,0.00,VWS V14.01,2013-09-09 11:26:00,
2013-09-09 07:27:00,77.0,74.8,29.49,NW,311,1.0,2.0,93,0.00,,CLR,0.00,VWS V14.01,2013-09-09 11:27:00,
2013-09-09 07:28:00,77.0,74.8,29.49,NW,317,3.0,3.0,93,0.00,,CLR,0.00,VWS V14.01,2013-09-09 11:28:00,
2013-09-09 07:29:00,77.0,74.8,29.49,NW,319,3.0,3.0,93,0.00,,CLR,0.00,VWS V14.01,2013-09-09 11:29:00,
2013-09-09 07:30:00,77.0,75.1,29.49,NNW,327,4.0,4.0,94,0.00,,,0.00,VWS V14.01,2013-09-09 11:30:00,
2013-09-09 07:31:00,77.0,75.1,29.49,NNW,327,4.0,4.0,94,0.00,,CLR,0.00,VWS V14.01,2013-09-09 11:31:00,
2013-09-09 07:32:00,77.0,75.1,29.49,NNW,327,3.0,4.0,94,0.00,,CLR,0.00,VWS V14.01,2013-09-09 11:32:00,
2013-09-09 07:33:00,77.0,75.1,29.49,NNW,329,4.0,4.0,94,0.00,,CLR,0.00,VWS V14.01,2013-09-09 11:33:00,
2013-09-09 07:34:00,77.0,75.1,29.05,NNW,329,2.0,4.0,94,0.00,,CLR,0.00,VWS V14.01,2013-09-09 11:34:00,
2013-09-09 07:35:00,77.0,75.1,29.05,NNW,335,3.0,3.0,94,0.00,,,0.00,VWS V14.01,2013-09-09 11:35:00,
2013-09-09 07:36:00,77.0,75.1,29.05,NNW,336,3.0,3.0,94,0.00,,CLR,0.00,VWS V14.01,2013-09-09 11:36:00,
2013-09-09 07:37:00,77.0,75.1,29.05,NNW,336,4.0,4.0,94,0.00,,CLR,0.00,VWS V14.01,2013-09-09 11:37:00,
2013-09-09 07:38:00,77.0,75.1,29.05,NNW,335,1.0,4.0,94,0.00,,CLR,0.00,VWS V14.01,2013-09-09 11:38:00,
2013-09-09 07:39:00,77.0,75.1,29.05,NNW,335,3.0,4.0,94,0.00,,CLR,0.00,VWS V14.01,2013-09-09 11:39:00,
2013-09-09 07:40:00,77.0,75.1,29.05,NNW,335,3.0,3.0,94,0.00,,,0.00,VWS V14.01,2013-09-09 11:40:00,
2013-09-09 07:41:00,77.0,75.1,29.05,NNW,335,3.0,3.0,94,0.00,,CLR,0.00,VWS V14.01,2013-09-09 11:41:00,
2013-09-09 07:42:00,77.0,75.1,29.05,NNW,335,3.0,4.0,94,0.00,,CLR,0.00,VWS V14.01,2013-09-09 11:42:00,
2013-09-09 07:43:00,77.0,75.1,29.05,NNW,335,3.0,3.0,94,0.00,,CLR,0.00,VWS V14.01,2013-09-09 11:43:00,
2013-09-09 07:44:00,77.0,75.1,29.05,NNW,336,3.0,4.0,94,0.00,,CLR,0.00,VWS V14.01,2013-09-09 11:44:00,
2013-09-09 07:45:00,77.0,75.5,29.05,NNW,335,4.0,4.0,95,0.00,,,0.00,VWS V14.01,2013-09-09 11:45:00,
2013-09-09 07:46:00,77.0,75.5,29.05,NNW,336,1.0,3.0,95,0.00,,CLR,0.00,VWS V14.01,2013-09-09 11:46:00,
2013-09-09 07:47:00,77.0,75.5,29.05,NNW,335,3.0,4.0,95,0.00,,CLR,0.00,VWS V14.01,2013-09-09 11:47:00,
2013-09-09 07:48:00,77.0,75.5,29.05,NNW,335,2.0,3.0,95,0.00,,CLR,0.00,VWS V14.01,2013-09-09 11:48:00,
2013-09-09 07:49:00,77.0,75.5,28.85,NNW,335,2.0,4.0,95,0.00,,CLR,0.00,VWS V14.01,2013-09-09 11:49:00,
2013-09-09 07:50:00,77.0,75.5,28.85,North,355,1.0,2.0,95,0.00,,,0.00,VWS V14.01,2013-09-09 11:50:00,
2013-09-09 07:51:00,77.0,75.5,28.85,North,355,2.0,3.0,95,0.00,,CLR,0.00,VWS V14.01,2013-09-09 11:51:00,
2013-09-09 07:52:00,77.0,75.5,28.85,North,355,2.0,3.0,95,0.00,,CLR,0.00,VWS V14.01,2013-09-09 11:52:00,
2013-09-09 07:53:00,77.2,75.7,28.85,NNW,342,4.0,4.0,95,0.00,,CLR,0.00,VWS V14.01,2013-09-09 11:53:00,
2013-09-09 07:54:00,77.2,75.7,28.85,NNW,334,3.0,4.0,95,0.00,,CLR,0.00,VWS V14.01,2013-09-09 11:54:00,
2013-09-09 07:55:00,77.2,75.7,28.85,NNW,336,3.0,3.0,95,0.00,,,0.00,VWS V14.01,2013-09-09 11:55:00,
2013-09-09 07:56:00,77.2,75.7,28.85,NNW,336,2.0,4.0,95,0.00,,CLR,0.00,VWS V14.01,2013-09-09 11:56:00,
2013-09-09 07:57:00,77.2,75.7,28.85,NNW,336,3.0,3.0,95,0.00,,CLR,0.00,VWS V14.01,2013-09-09 11:57:00,
2013-09-09 07:58:00,77.2,75.7,28.85,NNW,334,3.0,4.0,95,0.00,,CLR,0.00,VWS V14.01,2013-09-09 11:58:00,
2013-09-09 07:59:00,77.2,75.7,28.85,NNW,334,3.0,3.0,95,0.00,,CLR,0.00,VWS V14.01,2013-09-09 11:59:00,
2013-09-09 08:00:00,77.4,75.9,28.85,NW,325,2.0,2.0,95,0.00,,,0.00,VWS V14.01,2013-09-09 12:00:00,
2013-09-09 08:01:00,77.4,75.9,28.85,NW,325,2.0,3.0,95,0.00,,CLR,0.00,VWS V14.01,2013-09-09 12:01:00,
2013-09-09 08:02:00,77.4,76.2,28.85,NW,325,4.0,4.0,96,0.00,,CLR,0.00,VWS V14.01,2013-09-09 12:02:00,
2013-09-09 08:03:00,77.4,76.2,28.85,NW,323,3.0,4.0,96,0.00,,CLR,0.00,VWS V14.01,2013-09-09 12:03:00,
2013-09-09 08:04:00,77.4,76.2,28.85,NW,321,5.0,5.0,96,0.00,,CLR,0.00,VWS V14.01,2013-09-09 12:04:00,
2013-09-09 08:05:00,77.6,76.4,29.47,NW,324,3.0,3.0,96,0.00,,,0.00,VWS V14.01,2013-09-09 12:05:00,
2013-09-09 08:06:00,77.6,76.4,29.47,NW,324,3.0,4.0,96,0.00,,CLR,0.00,VWS V14.01,2013-09-09 12:06:00,
2013-09-09 08:07:00,77.6,76.4,29.47,NW,310,2.0,4.0,96,0.00,,CLR,0.00,VWS V14.01,2013-09-09 12:07:00,
2013-09-09 08:08:00,77.6,76.4,29.47,NW,312,3.0,3.0,96,0.00,,CLR,0.00,VWS V14.01,2013-09-09 12:08:00,
2013-09-09 08:09:00,77.6,76.4,29.47,NW,325,3.0,3.0,96,0.00,,CLR,0.00,VWS V14.01,2013-09-09 12:09:00,
2013-09-09 08:10:00,77.7,76.5,29.47,NNW,346,5.0,5.0,96,0.00,,,0.00,VWS V14.01,2013-09-09 12:10:00,
2013-09-09 08:11:00,77.7,76.5,29.47,North,355,4.0,4.0,96,0.00,,CLR,0.00,VWS V14.01,2013-09-09 12:11:00,
2013-09-09 08:12:00,77.7,76.5,29.47,NNW,346,2.0,5.0,96,0.00,,CLR,0.00,VWS V14.01,2013-09-09 12:12:00,
2013-09-09 08:13:00,77.7,76.5,29.47,NW,313,2.0,4.0,96,0.00,,CLR,0.00,VWS V14.01,2013-09-09 12:13:00,
2013-09-09 08:14:00,77.7,76.5,29.47,NW,322,4.0,4.0,96,0.00,,CLR,0.00,VWS V14.01,2013-09-09 12:14:00,
2013-09-09 08:15:00,77.9,76.7,29.47,NW,319,4.0,4.0,96,0.00,,,0.00,VWS V14.01,2013-09-09 12:15:00,
2013-09-09 08:16:00,77.9,76.7,29.47,NW,315,3.0,4.0,96,0.00,,CLR,0.00,VWS V14.01,2013-09-09 12:16:00,
2013-09-09 08:17:00,77.9,76.7,29.47,NW,322,3.0,4.0,96,0.00,,CLR,0.00,VWS V14.01,2013-09-09 12:17:00,
2013-09-09 08:18:00,77.9,76.7,29.43,NNW,348,3.0,4.0,96,0.00,,CLR,0.00,VWS V14.01,2013-09-09 12:18:00,
2013-09-09 08:19:00,77.9,76.7,29.42,NNW,339,2.0,4.0,96,0.00,,CLR,0.00,VWS V14.01,2013-09-09 12:19:00,
2013-09-09 08:20:00,78.1,76.9,29.42,North,9,3.0,3.0,96,0.00,,,0.00,VWS V14.01,2013-09-09 12:20:00,
2013-09-09 08:21:00,78.1,76.9,29.42,North,9,3.0,5.0,96,0.00,,CLR,0.00,VWS V14.01,2013-09-09 12:21:00,
2013-09-09 08:22:00,78.1,76.9,29.42,North,9,2.0,3.0,96,0.00,,CLR,0.00,VWS V14.01,2013-09-09 12:22:00,
2013-09-09 08:23:00,78.1,76.9,29.42,North,350,3.0,5.0,96,0.00,,CLR,0.00,VWS V14.01,2013-09-09 12:23:00,
2013-09-09 08:24:00,78.1,76.9,29.42,North,350,2.0,3.0,96,0.00,,CLR,0.00,VWS V14.01,2013-09-09 12:24:00,
2013-09-09 08:25:00,78.3,77.1,29.42,NW,320,3.0,3.0,96,0.00,,,0.00,VWS V14.01,2013-09-09 12:25:00,
2013-09-09 08:26:00,78.3,77.1,29.42,NW,319,3.0,5.0,96,0.00,,CLR,0.00,VWS V14.01,2013-09-09 12:26:00,
2013-09-09 08:27:00,78.3,77.1,29.42,NNW,336,1.0,3.0,96,0.00,,CLR,0.00,VWS V14.01,2013-09-09 12:27:00,
2013-09-09 08:29:00,78.3,77.1,29.42,NNW,336,2.0,3.0,96,0.00,,CLR,0.00,VWS V14.01,2013-09-09 12:29:00,
2013-09-09 08:30:00,78.5,77.3,29.42,NNW,336,3.0,4.0,96,0.00,,,0.00,VWS V14.01,2013-09-09 12:30:00,
2013-09-09 08:31:00,78.5,77.3,29.42,NNW,336,4.0,4.0,96,0.00,,CLR,0.00,VWS V14.01,2013-09-09 12:31:00,
2013-09-09 08:32:00,78.5,77.3,29.42,NNW,336,2.0,4.0,96,0.00,,CLR,0.00,VWS V14.01,2013-09-09 12:32:00,
2013-09-09 08:33:00,78.5,77.3,29.42,NNW,336,2.0,2.0,96,0.00,,CLR,0.00,VWS V14.01,2013-09-09 12:33:00,
2013-09-09 08:34:00,78.5,76.9,29.42,NW,322,4.0,4.0,95,0.00,,CLR,0.00,VWS V14.01,2013-09-09 12:34:00,
2013-09-09 08:35:00,78.6,77.1,29.42,NW,322,1.0,2.0,95,0.00,,,0.00,VWS V14.01,2013-09-09 12:35:00,
2013-09-09 08:36:00,78.6,77.1,29.42,NW,322,2.0,3.0,95,0.00,,CLR,0.00,VWS V14.01,2013-09-09 12:36:00,
2013-09-09 08:37:00,78.6,77.1,29.42,NW,322,4.0,4.0,95,0.00,,CLR,0.00,VWS V14.01,2013-09-09 12:37:00,
2013-09-09 08:38:00,78.6,77.1,29.42,North,350,5.0,5.0,95,0.00,,CLR,0.00,VWS V14.01,2013-09-09 12:38:00,
2013-09-09 08:39:00,78.6,77.1,29.42,NNW,340,2.0,5.0,95,0.00,,CLR,0.00,VWS V14.01,2013-09-09 12:39:00,
2013-09-09 08:40:00,78.6,77.1,29.42,NW,322,4.0,4.0,95,0.00,,,0.00,VWS V14.01,2013-09-09 12:40:00,
2013-09-09 08:41:00,78.6,77.1,29.42,NW,322,4.0,4.0,95,0.00,,CLR,0.00,VWS V14.01,2013-09-09 12:41:00,
2013-09-09 08:42:00,78.6,77.1,29.42,North,360,3.0,5.0,95,0.00,,CLR,0.00,VWS V14.01,2013-09-09 12:42:00,
2013-09-09 08:43:00,78.6,77.1,29.42,North,360,4.0,4.0,95,0.00,,CLR,0.00,VWS V14.01,2013-09-09 12:43:00,
2013-09-09 08:44:00,78.8,77.2,29.42,NW,323,5.0,5.0,95,0.00,,CLR,0.00,VWS V14.01,2013-09-09 12:44:00,
2013-09-09 08:45:00,78.8,77.2,29.48,NW,315,2.0,2.0,95,0.00,,,0.00,VWS V14.01,2013-09-09 12:45:00,
2013-09-09 08:46:00,78.8,77.2,29.48,NW,315,1.0,4.0,95,0.00,,CLR,0.00,VWS V14.01,2013-09-09 12:46:00,
2013-09-09 08:48:00,79.0,77.4,29.48,NNW,329,3.0,4.0,95,0.00,,CLR,0.00,VWS V14.01,2013-09-09 12:48:00,
2013-09-09 08:49:00,79.0,77.1,29.48,NNW,329,0.0,3.0,94,0.00,,CLR,0.00,VWS V14.01,2013-09-09 12:49:00,
2013-09-09 08:50:00,79.2,77.7,29.48,NNW,329,2.0,4.0,95,0.00,,,0.00,VWS V14.01,2013-09-09 12:50:00,
2013-09-09 08:51:00,79.2,77.7,29.48,NNW,329,4.0,4.0,95,0.00,,CLR,0.00,VWS V14.01,2013-09-09 12:51:00,
2013-09-09 08:52:00,79.4,77.5,29.48,NNW,330,3.0,4.0,94,0.00,,CLR,0.00,VWS V14.01,2013-09-09 12:52:00,
2013-09-09 08:53:00,79.4,77.5,29.48,NW,326,1.0,3.0,94,0.00,,CLR,0.00,VWS V14.01,2013-09-09 12:53:00,
2013-09-09 08:54:00,79.4,77.5,29.48,NW,326,2.0,2.0,94,0.00,,CLR,0.00,VWS V14.01,2013-09-09 12:54:00,
2013-09-09 08:55:00,79.6,77.7,29.48,NW,325,2.0,4.0,94,0.00,,,0.00,VWS V14.01,2013-09-09 12:55:00,
2013-09-09 08:56:00,79.6,77.7,29.48,NW,325,4.0,4.0,94,0.00,,CLR,0.00,VWS V14.01,2013-09-09 12:56:00,
2013-09-09 08:57:00,79.6,77.7,29.48,NW,324,4.0,5.0,94,0.00,,CLR,0.00,VWS V14.01,2013-09-09 12:57:00,
2013-09-09 08:58:00,79.6,77.4,29.48,NNW,338,3.0,4.0,93,0.00,,CLR,0.00,VWS V14.01,2013-09-09 12:58:00,
2013-09-09 08:59:00,79.6,77.4,29.48,NNW,340,3.0,4.0,93,0.00,,CLR,0.00,VWS V14.01,2013-09-09 12:59:00,
2013-09-09 09:00:00,79.6,77.4,29.48,NNW,340,2.0,2.0,93,0.00,,,0.00,VWS V14.01,2013-09-09 13:00:00,
2013-09-09 09:01:00,79.6,77.4,29.48,NNW,340,2.0,3.0,93,0.00,,CLR,0.00,VWS V14.01,2013-09-09 13:01:00,
2013-09-09 09:02:00,79.6,77.4,29.48,NNW,327,2.0,5.0,93,0.00,,CLR,0.00,VWS V14.01,2013-09-09 13:02:00,
2013-09-09 09:03:00,79.6,77.4,29.48,NNW,329,4.0,4.0,93,0.00,,CLR,0.00,VWS V14.01,2013-09-09 13:03:00,
2013-09-09 09:04:00,79.6,77.4,29.48,NW,326,2.0,4.0,93,0.00,,CLR,0.00,VWS V14.01,2013-09-09 13:04:00,
2013-09-09 09:05:00,79.6,77.4,29.48,NW,313,3.0,4.0,93,0.00,,,0.00,VWS V14.01,2013-09-09 13:05:00,
2013-09-09 09:06:00,79.6,77.4,29.48,WNW,299,4.0,5.0,93,0.00,,CLR,0.00,VWS V14.01,2013-09-09 13:06:00,
2013-09-09 09:07:00,79.6,77.4,29.48,NW,323,3.0,4.0,93,0.00,,CLR,0.00,VWS V14.01,2013-09-09 13:07:00,
2013-09-09 09:08:00,79.6,77.4,29.48,NW,323,0.0,3.0,93,0.00,,CLR,0.00,VWS V14.01,2013-09-09 13:08:00,
2013-09-09 09:10:00,79.9,77.4,29.48,NW,304,3.0,4.0,92,0.00,,,0.00,VWS V14.01,2013-09-09 13:10:00,
2013-09-09 09:11:00,79.9,77.7,29.48,WNW,302,4.0,5.0,93,0.00,,CLR,0.00,VWS V14.01,2013-09-09 13:11:00,
2013-09-09 09:12:00,79.9,77.4,29.48,NW,304,3.0,4.0,92,0.00,,CLR,0.00,VWS V14.01,2013-09-09 13:12:00,
2013-09-09 09:13:00,79.9,77.4,29.33,NW,317,3.0,4.0,92,0.00,,CLR,0.00,VWS V14.01,2013-09-09 13:13:00,
2013-09-09 09:14:00,79.9,77.4,29.33,NW,315,4.0,5.0,92,0.00,,CLR,0.00,VWS V14.01,2013-09-09 13:14:00,
2013-09-09 09:15:00,79.9,77.4,29.33,NNW,328,3.0,3.0,92,0.00,,,0.00,VWS V14.01,2013-09-09 13:15:00,
2013-09-09 09:16:00,79.9,77.0,29.33,NW,320,2.0,5.0,91,0.00,,CLR,0.00,VWS V14.01,2013-09-09 13:16:00,
2013-09-09 09:17:00,79.9,77.0,29.33,NNW,329,3.0,3.0,91,0.00,,CLR,0.00,VWS V14.01,2013-09-09 13:17:00,
2013-09-09 09:18:00,79.9,77.0,29.33,NNW,330,3.0,3.0,91,0.00,,CLR,0.00,VWS V14.01,2013-09-09 13:18:00,
2013-09-09 09:19:00,79.9,77.0,29.33,NNW,330,1.0,3.0,91,0.00,,CLR,0.00,VWS V14.01,2013-09-09 13:19:00,
2013-09-09 09:20:00,80.1,77.2,29.33,NNW,330,3.0,3.0,91,0.00,,,0.00,VWS V14.01,2013-09-09 13:20:00,
2013-09-09 09:21:00,80.1,77.2,29.33,NNW,330,1.0,2.0,91,0.00,,CLR,0.00,VWS V14.01,2013-09-09 13:21:00,
2013-09-09 09:22:00,80.1,77.2,29.33,NNW,330,1.0,3.0,91,0.00,,CLR,0.00,VWS V14.01,2013-09-09 13:22:00,
2013-09-09 09:23:00,80.3,77.4,29.33,NNW,329,3.0,3.0,91,0.00,,CLR,0.00,VWS V14.01,2013-09-09 13:23:00,
2013-09-09 09:24:00,80.3,77.4,29.33,NNW,330,1.0,3.0,91,0.00,,CLR,0.00,VWS V14.01,2013-09-09 13:24:00,
2013-09-09 09:25:00,80.3,77.1,29.33,NNW,333,1.0,1.0,90,0.00,,,0.00,VWS V14.01,2013-09-09 13:25:00,
2013-09-09 09:26:00,80.3,77.1,29.33,NNW,333,1.0,3.0,90,0.00,,CLR,0.00,VWS V14.01,2013-09-09 13:26:00,
2013-09-09 09:27:00,80.5,77.6,29.33,NNW,333,1.0,1.0,91,0.00,,CLR,0.00,VWS V14.01,2013-09-09 13:27:00,
2013-09-09 09:28:00,80.7,77.8,29.33,NNW,333,0.0,1.0,91,0.00,,CLR,0.00,VWS V14.01,2013-09-09 13:28:00,
2013-09-09 09:29:00,80.7,77.5,29.33,NNW,333,3.0,4.0,90,0.00,,CLR,0.00,VWS V14.01,2013-09-09 13:29:00,
2013-09-09 09:30:00,80.9,77.7,29.27,NNE,21,0.0,1.0,90,0.00,,,0.00,VWS V14.01,2013-09-09 13:30:00,
2013-09-09 09:31:00,80.9,77.7,29.27,NNE,21,1.0,4.0,90,0.00,,CLR,0.00,VWS V14.01,2013-09-09 13:31:00,
2013-09-09 09:32:00,80.9,77.7,29.27,NNE,21,0.0,1.0,90,0.00,,CLR,0.00,VWS V14.01,2013-09-09 13:32:00,
2013-09-09 09:33:00,81.1,77.9,29.27,NNE,21,3.0,3.0,90,0.00,,CLR,0.00,VWS V14.01,2013-09-09 13:33:00,
2013-09-09 09:34:00,81.1,77.6,29.27,NNE,21,3.0,3.0,89,0.00,,CLR,0.00,VWS V14.01,2013-09-09 13:34:00,
2013-09-09 09:35:00,81.2,77.7,29.38,NNE,21,2.0,2.0,89,0.00,,SCT055,0.00,VWS V14.01,2013-09-09 13:35:00,
2013-09-09 09:36:00,81.2,77.7,29.38,NNE,21,0.0,0.0,89,0.00,,CLR,0.00,VWS V14.01,2013-09-09 13:36:00,
2013-09-09 09:37:00,81.4,77.5,29.38,NNE,21,0.0,2.0,88,0.00,,CLR,0.00,VWS V14.01,2013-09-09 13:37:00,
2013-09-09 09:38:00,81.6,78.1,29.38,NNE,21,0.0,1.0,89,0.00,,CLR,0.00,VWS V14.01,2013-09-09 13:38:00,
2013-09-09 09:39:00,81.6,77.7,29.38,NNE,21,1.0,1.0,88,0.00,,CLR,0.00,VWS V14.01,2013-09-09 13:39:00,
2013-09-09 09:40:00,81.8,77.6,29.38,NNE,20,2.0,2.0,87,0.00,,SCT055,0.00,VWS V14.01,2013-09-09 13:40:00,
2013-09-09 09:41:00,81.8,77.6,29.38,NNE,20,2.0,3.0,87,0.00,,CLR,0.00,VWS V14.01,2013-09-09 13:41:00,
2013-09-09 09:42:00,81.8,77.6,29.38,NNE,20,0.0,2.0,87,0.00,,CLR,0.00,VWS V14.01,2013-09-09 13:42:00,
2013-09-09 09:43:00,82.0,77.8,29.38,NNE,27,2.0,2.0,87,0.00,,CLR,0.00,VWS V14.01,2013-09-09 13:43:00,
2013-09-09 09:44:00,82.2,77.9,29.38,NNE,27,1.0,2.0,87,0.00,,CLR,0.00,VWS V14.01,2013-09-09 13:44:00,
2013-09-09 09:45:00,82.4,77.8,29.11,North,9,2.0,4.0,86,0.00,,SCT055,0.00,VWS V14.01,2013-09-09 13:45:00,
2013-09-09 09:46:00,82.4,77.8,29.12,North,9,4.0,4.0,86,0.00,,CLR,0.00,VWS V14.01,2013-09-09 13:46:00,
2013-09-09 09:47:00,82.2,77.6,29.11,North,9,3.0,4.0,86,0.00,,CLR,0.00,VWS V14.01,2013-09-09 13:47:00,
2013-09-09 09:48:00,82.2,77.2,29.11,North,9,0.0,3.0,85,0.00,,CLR,0.00,VWS V14.01,2013-09-09 13:48:00,
2013-09-09 09:49:00,82.2,77.2,29.11,North,9,0.0,1.0,85,0.00,,CLR,0.00,VWS V14.01,2013-09-09 13:49:00,
2013-09-09 09:50:00,82.4,77.4,29.11,North,9,0.0,2.0,85,0.00,,SCT055,0.00,VWS V14.01,2013-09-09 13:50:00,
2013-09-09 09:51:00,82.4,77.4,29.11,North,9,2.0,2.0,85,0.00,,CLR,0.00,VWS V14.01,2013-09-09 13:51:00,
2013-09-09 09:52:00,82.4,77.4,29.11,North,9,3.0,3.0,85,0.00,,CLR,0.00,VWS V14.01,2013-09-09 13:52:00,
2013-09-09 09:53:00,82.4,77.4,29.11,North,9,0.0,3.0,85,0.00,,CLR,0.00,VWS V14.01,2013-09-09 13:53:00,
2013-09-09 09:54:00,82.6,77.6,29.11,North,9,0.0,2.0,85,0.00,,CLR,0.00,VWS V14.01,2013-09-09 13:54:00,
2013-09-09 09:55:00,82.8,77.5,29.11,North,9,1.0,2.0,84,0.00,,SCT055,0.00,VWS V14.01,2013-09-09 13:55:00,
2013-09-09 09:56:00,82.8,77.5,29.11,North,9,2.0,3.0,84,0.00,,CLR,0.00,VWS V14.01,2013-09-09 13:56:00,
2013-09-09 09:57:00,83.0,77.7,29.11,North,9,1.0,2.0,84,0.00,,CLR,0.00,VWS V14.01,2013-09-09 13:57:00,
2013-09-09 09:58:00,83.0,77.7,28.92,North,9,2.0,2.0,84,0.00,,CLR,0.00,VWS V14.01,2013-09-09 13:58:00,
2013-09-09 09:59:00,83.2,77.9,28.92,NNE,26,1.0,2.0,84,0.00,,CLR,0.00,VWS V14.01,2013-09-09 13:59:00,
2013-09-09 10:00:00,83.6,77.9,28.92,NNE,33,1.0,3.0,83,0.00,,SCT055,0.00,VWS V14.01,2013-09-09 14:00:00,
2013-09-09 10:01:00,83.6,78.3,28.92,NNE,33,3.0,3.0,84,0.00,,CLR,0.00,VWS V14.01,2013-09-09 14:01:00,
2013-09-09 10:02:00,83.6,77.9,28.92,NE,40,0.0,3.0,83,0.00,,CLR,0.00,VWS V14.01,2013-09-09 14:02:00,
2013-09-09 10:03:00,83.8,78.1,28.92,NE,40,0.0,1.0,83,0.00,,CLR,0.00,VWS V14.01,2013-09-09 14:03:00,
2013-09-09 10:04:00,84.0,77.9,28.92,NE,40,1.0,1.0,82,0.00,,CLR,0.00,VWS V14.01,2013-09-09 14:04:00,
2013-09-09 10:05:00,84.1,78.0,28.92,NE,40,1.0,1.0,82,0.00,,SCT055,0.00,VWS V14.01,2013-09-09 14:05:00,
2013-09-09 10:06:00,84.0,77.9,28.92,NE,40,0.0,2.0,82,0.00,,CLR,0.00,VWS V14.01,2013-09-09 14:06:00,
2013-09-09 10:07:00,84.1,77.6,28.92,NE,40,3.0,3.0,81,0.00,,CLR,0.00,VWS V14.01,2013-09-09 14:07:00,
2013-09-09 10:08:00,84.0,77.5,28.92,NE,46,1.0,4.0,81,0.00,,CLR,0.00,VWS V14.01,2013-09-09 14:08:00,
2013-09-09 10:09:00,84.0,77.5,28.92,NE,47,0.0,3.0,81,0.00,,CLR,0.00,VWS V14.01,2013-09-09 14:09:00,
2013-09-09 10:10:00,84.0,77.5,28.92,NE,47,1.0,1.0,81,0.00,,SCT055,0.00,VWS V14.01,2013-09-09 14:10:00,
2013-09-09 10:11:00,84.0,77.5,28.92,NE,47,1.0,1.0,81,0.00,,CLR,0.00,VWS V14.01,2013-09-09 14:11:00,
2013-09-09 10:12:00,84.0,77.5,28.92,NE,50,0.0,2.0,81,0.00,,CLR,0.00,VWS V14.01,2013-09-09 14:12:00,
2013-09-09 10:13:00,84.0,77.5,28.92,NE,50,1.0,1.0,81,0.00,,CLR,0.00,VWS V14.01,2013-09-09 14:13:00,
2013-09-09 10:14:00,84.0,77.5,29.20,NE,50,0.0,1.0,81,0.00,,CLR,0.00,VWS V14.01,2013-09-09 14:14:00,
2013-09-09 10:15:00,84.1,77.6,29.18,NE,50,2.0,3.0,81,0.00,,SCT055,0.00,VWS V14.01,2013-09-09 14:15:00,
2013-09-09 10:16:00,84.1,77.6,29.20,NE,50,3.0,3.0,81,0.00,,CLR,0.00,VWS V14.01,2013-09-09 14:16:00,
2013-09-09 10:17:00,84.1,77.6,29.18,NE,50,1.0,3.0,81,0.00,,CLR,0.00,VWS V14.01,2013-09-09 14:17:00,
2013-09-09 10:18:00,84.3,77.8,29.18,NE,50,2.0,2.0,81,0.00,,CLR,0.00,VWS V14.01,2013-09-09 14:18:00,
2013-09-09 10:19:00,84.5,78.0,29.18,NE,50,2.0,2.0,81,0.00,,CLR,0.00,VWS V14.01,2013-09-09 14:19:00,
2013-09-09 10:20:00,84.5,77.3,29.18,ENE,76,3.0,3.0,79,0.00,,SCT055,0.00,VWS V14.01,2013-09-09 14:20:00,
2013-09-09 10:21:00,84.5,77.3,29.18,ENE,76,2.0,3.0,79,0.00,,CLR,0.00,VWS V14.01,2013-09-09 14:21:00,
2013-09-09 10:22:00,84.7,77.5,29.18,East,80,4.0,4.0,79,0.00,,CLR,0.00,VWS V14.01,2013-09-09 14:22:00,
2013-09-09 10:23:00,84.7,77.5,28.92,East,80,3.0,4.0,79,0.00,,CLR,0.00,VWS V14.01,2013-09-09 14:23:00,
2013-09-09 10:24:00,84.7,77.5,28.92,East,85,3.0,4.0,79,0.00,,CLR,0.00,VWS V14.01,2013-09-09 14:24:00,
2013-09-09 10:25:00,84.5,77.7,28.92,East,88,3.0,3.0,80,0.00,,SCT055,0.00,VWS V14.01,2013-09-09 14:25:00,
2013-09-09 10:26:00,84.5,77.7,28.92,East,88,3.0,3.0,80,0.00,,CLR,0.00,VWS V14.01,2013-09-09 14:26:00,
2013-09-09 10:27:00,84.5,77.7,28.92,East,88,3.0,3.0,80,0.00,,CLR,0.00,VWS V14.01,2013-09-09 14:27:00,
2013-09-09 10:28:00,84.5,77.7,28.92,East,88,3.0,3.0,80,0.00,,CLR,0.00,VWS V14.01,2013-09-09 14:28:00,
2013-09-09 10:29:00,84.5,77.3,28.92,East,88,3.0,3.0,79,0.00,,CLR,0.00,VWS V14.01,2013-09-09 14:29:00,
2013-09-09 10:30:00,84.5,77.7,28.92,ESE,102,4.0,5.0,80,0.00,,SCT055,0.00,VWS V14.01,2013-09-09 14:30:00,
2013-09-09 10:31:00,84.5,77.7,28.92,ESE,102,4.0,5.0,80,0.00,,CLR,0.00,VWS V14.01,2013-09-09 14:31:00,
2013-09-09 10:32:00,84.5,77.7,28.92,ESE,106,5.0,5.0,80,0.00,,CLR,0.00,VWS V14.01,2013-09-09 14:32:00,
2013-09-09 10:34:00,84.5,77.7,28.92,ESE,106,3.0,6.0,80,0.00,,CLR,0.00,VWS V14.01,2013-09-09 14:34:00,
2013-09-09 10:35:00,84.5,77.7,28.92,ESE,102,4.0,4.0,80,0.00,,FEW055,0.00,VWS V14.01,2013-09-09 14:35:00,
2013-09-09 10:36:00,84.5,77.7,28.92,ESE,102,3.0,4.0,80,0.00,,CLR,0.00,VWS V14.01,2013-09-09 14:36:00,
2013-09-09 10:37:00,84.5,77.7,28.92,ESE,102,4.0,5.0,80,0.00,,CLR,0.00,VWS V14.01,2013-09-09 14:37:00,
2013-09-09 10:38:00,84.5,77.3,28.92,ESE,103,4.0,4.0,79,0.00,,CLR,0.00,VWS V14.01,2013-09-09 14:38:00,
2013-09-09 10:39:00,84.5,77.3,28.92,ESE,107,5.0,5.0,79,0.00,,CLR,0.00,VWS V14.01,2013-09-09 14:39:00,
2013-09-09 10:40:00,84.5,76.9,28.92,East,101,3.0,4.0,78,0.00,,FEW055,0.00,VWS V14.01,2013-09-09 14:40:00,
2013-09-09 10:41:00,84.5,76.9,28.92,East,101,4.0,4.0,78,0.00,,CLR,0.00,VWS V14.01,2013-09-09 14:41:00,
2013-09-09 10:42:00,84.5,77.7,28.92,ESE,102,3.0,4.0,80,0.00,,CLR,0.00,VWS V14.01,2013-09-09 14:42:00,
2013-09-09 10:43:00,84.5,77.3,28.92,East,97,4.0,5.0,79,0.00,,CLR,0.00,VWS V14.01,2013-09-09 14:43:00,
2013-09-09 10:45:00,84.7,77.5,28.92,East,98,4.0,4.0,79,0.00,,FEW055,0.00,VWS V14.01,2013-09-09 14:45:00,
2013-09-09 10:46:00,84.7,77.5,28.92,East,98,4.0,4.0,79,0.00,,CLR,0.00,VWS V14.01,2013-09-09 14:46:00,
2013-09-09 10:47:00,84.7,77.1,28.92,East,100,5.0,5.0,78,0.00,,CLR,0.00,VWS V14.01,2013-09-09 14:47:00,
2013-09-09 10:48:00,84.7,77.1,28.92,East,98,4.0,5.0,78,0.00,,CLR,0.00,VWS V14.01,2013-09-09 14:48:00,
2013-09-09 10:49:00,84.7,77.5,28.92,East,98,2.0,4.0,79,0.00,,CLR,0.00,VWS V14.01,2013-09-09 14:49:00,
2013-09-09 10:50:00,85.1,78.2,28.92,ESE,111,2.0,3.0,80,0.00,,FEW055,0.00,VWS V14.01,2013-09-09 14:50:00,
2013-09-09 10:51:00,85.1,78.2,28.92,ESE,111,2.0,3.0,80,0.00,,CLR,0.00,VWS V14.01,2013-09-09 14:51:00,
2013-09-09 10:52:00,85.1,77.9,28.92,ESE,106,4.0,4.0,79,0.00,,CLR,0.00,VWS V14.01,2013-09-09 14:52:00,
2013-09-09 10:53:00,85.3,77.7,28.92,ESE,105,3.0,4.0,78,0.00,,CLR,0.00,VWS V14.01,2013-09-09 14:53:00,
2013-09-09 10:54:00,85.3,77.3,27.78,East,90,3.0,3.0,77,0.00,,CLR,0.00,VWS V14.01,2013-09-09 14:54:00,
2013-09-09 10:55:00,85.3,77.3,27.78,East,86,4.0,4.0,77,0.00,,FEW055,0.00,VWS V14.01,2013-09-09 14:55:00,
2013-09-09 10:56:00,85.3,77.3,27.78,East,86,4.0,4.0,77,0.00,,CLR,0.00,VWS V14.01,2013-09-09 14:56:00,
2013-09-09 10:57:00,85.3,76.9,27.78,East,92,3.0,4.0,76,0.00,,CLR,0.00,VWS V14.01,2013-09-09 14:57:00,
2013-09-09 10:58:00,85.5,77.5,27.78,ESE,102,3.0,5.0,77,0.00,,CLR,0.00,VWS V14.01,2013-09-09 14:58:00,
2013-09-09 10:59:00,85.5,77.5,27.78,East,87,3.0,4.0,77,0.00,,CLR,0.00,VWS V14.01,2013-09-09 14:59:00,
2013-09-09 11:00:00,85.5,77.1,27.78,ESE,102,4.0,4.0,76,0.00,,FEW055,0.00,VWS V14.01,2013-09-09 15:00:00,
2013-09-09 11:01:00,85.5,77.1,27.78,ESE,102,4.0,4.0,76,0.00,,CLR,0.00,VWS V14.01,2013-09-09 15:01:00,
2013-09-09 11:02:00,85.5,77.1,27.78,East,101,4.0,5.0,76,0.00,,CLR,0.00,VWS V14.01,2013-09-09 15:02:00,
2013-09-09 11:03:00,85.5,77.5,27.78,East,98,1.0,4.0,77,0.00,,CLR,0.00,VWS V14.01,2013-09-09 15:03:00,
2013-09-09 11:04:00,85.7,78.1,27.78,East,98,3.0,3.0,78,0.00,,CLR,0.00,VWS V14.01,2013-09-09 15:04:00,
2013-09-09 11:05:00,86.1,78.1,26.49,East,97,3.0,4.0,77,0.00,,FEW055,0.00,VWS V14.01,2013-09-09 15:05:00,
2013-09-09 11:06:00,86.1,78.1,26.49,East,97,3.0,4.0,77,0.00,,CLR,0.00,VWS V14.01,2013-09-09 15:06:00,
2013-09-09 11:07:00,86.1,78.1,26.49,East,88,4.0,4.0,77,0.00,,CLR,0.00,VWS V14.01,2013-09-09 15:07:00,
2013-09-09 11:09:00,86.3,77.8,26.49,East,91,2.0,3.0,76,0.00,,CLR,0.00,VWS V14.01,2013-09-09 15:09:00,
2013-09-09 11:10:00,86.5,78.4,26.49,East,95,2.0,3.0,77,0.00,,FEW055,0.00,VWS V14.01,2013-09-09 15:10:00,
2013-09-09 11:11:00,86.5,78.4,26.49,East,95,2.0,3.0,77,0.00,,CLR,0.00,VWS V14.01,2013-09-09 15:11:00,
2013-09-09 11:12:00,86.5,78.0,26.49,East,80,2.0,5.0,76,0.00,,CLR,0.00,VWS V14.01,2013-09-09 15:12:00,
2013-09-09 11:13:00,86.5,78.0,26.49,East,80,2.0,3.0,76,0.00,,CLR,0.00,VWS V14.01,2013-09-09 15:13:00,
2013-09-09 11:14:00,86.5,78.0,26.49,ENE,65,4.0,5.0,76,0.00,,CLR,0.00,VWS V14.01,2013-09-09 15:14:00,
2013-09-09 11:15:00,87.0,78.5,26.49,East,94,4.0,4.0,76,0.00,,FEW055,0.00,VWS V14.01,2013-09-09 15:15:00,
2013-09-09 11:16:00,87.0,78.5,26.49,East,94,4.0,4.0,76,0.00,,CLR,0.00,VWS V14.01,2013-09-09 15:16:00,
2013-09-09 11:17:00,87.0,78.5,26.49,ENE,76,0.0,4.0,76,0.00,,CLR,0.00,VWS V14.01,2013-09-09 15:17:00,
2013-09-09 11:18:00,87.2,78.7,26.49,ENE,67,4.0,4.0,76,0.00,,CLR,0.00,VWS V14.01,2013-09-09 15:18:00,
2013-09-09 11:19:00,87.0,78.1,26.49,East,82,3.0,4.0,75,0.00,,CLR,0.00,VWS V14.01,2013-09-09 15:19:00,
2013-09-09 11:20:00,87.0,78.1,26.49,East,98,4.0,5.0,75,0.00,,FEW055,0.00,VWS V14.01,2013-09-09 15:20:00,
2013-09-09 11:21:00,87.0,78.1,26.49,East,98,4.0,5.0,75,0.00,,CLR,0.00,VWS V14.01,2013-09-09 15:21:00,
2013-09-09 11:22:00,87.0,78.5,26.49,East,92,4.0,4.0,76,0.00,,CLR,0.00,VWS V14.01,2013-09-09 15:22:00,
2013-09-09 11:23:00,87.0,78.1,26.49,ENE,75,3.0,4.0,75,0.00,,CLR,0.00,VWS V14.01,2013-09-09 15:23:00,
2013-09-09 11:24:00,86.7,78.2,26.49,ENE,71,3.0,4.0,76,0.00,,CLR,0.00,VWS V14.01,2013-09-09 15:24:00,
2013-09-09 11:25:00,86.5,78.0,27.38,East,98,4.0,6.0,76,0.00,,FEW055,0.00,VWS V14.01,2013-09-09 15:25:00,
2013-09-09 11:26:00,86.5,78.0,27.38,East,98,4.0,6.0,76,0.00,,CLR,0.00,VWS V14.01,2013-09-09 15:26:00,
2013-09-09 11:27:00,86.5,78.0,27.38,East,99,3.0,4.0,76,0.00,,CLR,0.00,VWS V14.01,2013-09-09 15:27:00,
2013-09-09 11:28:00,86.3,78.2,27.38,East,92,4.0,4.0,77,0.00,,CLR,0.00,VWS V14.01,2013-09-09 15:28:00,
2013-09-09 11:29:00,86.3,78.2,27.38,East,101,2.0,4.0,77,0.00,,CLR,0.00,VWS V14.01,2013-09-09 15:29:00,
2013-09-09 11:30:00,86.5,78.8,27.38,East,84,4.0,4.0,78,0.00,,FEW055,0.00,VWS V14.01,2013-09-09 15:30:00,
2013-09-09 11:31:00,86.5,78.8,27.38,East,84,4.0,4.0,78,0.00,,CLR,0.00,VWS V14.01,2013-09-09 15:31:00,
2013-09-09 11:32:00,86.5,78.4,27.38,ESE,107,5.0,5.0,77,0.00,,CLR,0.00,VWS V14.01,2013-09-09 15:32:00,
2013-09-09 11:33:00,86.5,78.0,27.38,ENE,65,1.0,5.0,76,0.00,,CLR,0.00,VWS V14.01,2013-09-09 15:33:00,
2013-09-09 11:34:00,86.5,78.4,27.38,ENE,62,5.0,5.0,77,0.00,,CLR,0.00,VWS V14.01,2013-09-09 15:34:00,
2013-09-09 11:35:00,86.5,78.4,27.48,East,87,3.0,3.0,77,0.00,,SCT032,0.00,VWS V14.01,2013-09-09 15:35:00,
2013-09-09 11:36:00,86.5,78.4,27.48,East,87,3.0,3.0,77,0.00,,CLR,0.00,VWS V14.01,2013-09-09 15:36:00,
2013-09-09 11:37:00,86.7,78.6,27.48,East,84,2.0,4.0,77,0.00,,CLR,0.00,VWS V14.01,2013-09-09 15:37:00,
2013-09-09 11:38:00,86.7,78.2,27.48,East,80,3.0,4.0,76,0.00,,CLR,0.00,VWS V14.01,2013-09-09 15:38:00,
2013-09-09 11:39:00,86.7,78.2,27.48,East,79,2.0,4.0,76,0.00,,CLR,0.00,VWS V14.01,2013-09-09 15:39:00,
2013-09-09 11:40:00,86.5,78.0,27.48,ENE,65,2.0,4.0,76,0.00,,SCT032,0.00,VWS V14.01,2013-09-09 15:40:00,
2013-09-09 11:41:00,86.5,78.0,27.48,ENE,65,2.0,4.0,76,0.00,,CLR,0.00,VWS V14.01,2013-09-09 15:41:00,
2013-09-09 11:42:00,86.5,78.0,27.48,ENE,78,2.0,4.0,76,0.00,,CLR,0.00,VWS V14.01,2013-09-09 15:42:00,
2013-09-09 11:43:00,86.7,78.2,27.48,ESE,109,2.0,4.0,76,0.00,,CLR,0.00,VWS V14.01,2013-09-09 15:43:00,
2013-09-09 11:44:00,86.7,78.2,27.48,East,98,3.0,3.0,76,0.00,,CLR,0.00,VWS V14.01,2013-09-09 15:44:00,
2013-09-09 11:45:00,86.5,78.0,27.48,ENE,76,3.0,4.0,76,0.00,,SCT032,0.00,VWS V14.01,2013-09-09 15:45:00,
2013-09-09 11:46:00,86.5,78.0,27.48,ENE,76,3.0,4.0,76,0.00,,CLR,0.00,VWS V14.01,2013-09-09 15:46:00,
2013-09-09 11:47:00,86.5,78.0,27.48,East,100,3.0,4.0,76,0.00,,CLR,0.00,VWS V14.01,2013-09-09 15:47:00,
2013-09-09 11:50:00,86.5,78.0,27.48,East,95,3.0,5.0,76,0.00,,SCT032,0.00,VWS V14.01,2013-09-09 15:50:00,
2013-09-09 11:51:00,86.5,78.0,27.48,East,94,3.0,5.0,76,0.00,,CLR,0.00,VWS V14.01,2013-09-09 15:51:00,
2013-09-09 11:52:00,86.5,78.0,27.48,ENE,75,2.0,3.0,76,0.00,,CLR,0.00,VWS V14.01,2013-09-09 15:52:00,
2013-09-09 11:53:00,86.5,78.0,27.48,East,86,1.0,3.0,76,0.00,,CLR,0.00,VWS V14.01,2013-09-09 15:53:00,
2013-09-09 11:54:00,86.7,78.2,27.48,East,86,1.0,4.0,76,0.00,,CLR,0.00,VWS V14.01,2013-09-09 15:54:00,
2013-09-09 11:55:00,86.5,78.0,27.48,East,93,3.0,4.0,76,0.00,,SCT032,0.00,VWS V14.01,2013-09-09 15:55:00,
2013-09-09 11:56:00,86.5,78.0,27.48,East,93,3.0,4.0,76,0.00,,CLR,0.00,VWS V14.01,2013-09-09 15:56:00,
2013-09-09 11:57:00,86.5,77.6,27.48,East,101,4.0,4.0,75,0.00,,CLR,0.00,VWS V14.01,2013-09-09 15:57:00,
2013-09-09 11:58:00,86.3,77.8,27.48,East,91,2.0,4.0,76,0.00,,CLR,0.00,VWS V14.01,2013-09-09 15:58:00,
2013-09-09 11:59:00,86.3,77.8,27.48,ENE,61,4.0,4.0,76,0.00,,CLR,0.00,VWS V14.01,2013-09-09 15:59:00,
2013-09-09 12:00:00,86.5,78.0,27.48,ENE,70,3.0,4.0,76,0.00,,SCT032,0.00,VWS V14.01,2013-09-09 16:00:00,
2013-09-09 12:01:00,86.5,78.0,27.48,ENE,70,3.0,4.0,76,0.00,,CLR,0.00,VWS V14.01,2013-09-09 16:01:00,
2013-09-09 12:02:00,86.5,78.0,27.48,ENE,71,2.0,3.0,76,0.00,,CLR,0.00,VWS V14.01,2013-09-09 16:02:00,
2013-09-09 12:03:00,86.7,78.6,27.48,East,88,3.0,4.0,77,0.00,,CLR,0.00,VWS V14.01,2013-09-09 16:03:00,
2013-09-09 12:04:00,86.7,78.2,26.83,East,92,3.0,4.0,76,0.00,,CLR,0.00,VWS V14.01,2013-09-09 16:04:00,
2013-09-09 12:05:00,86.7,78.2,26.83,ESE,103,3.0,4.0,76,0.00,,SCT032,0.00,VWS V14.01,2013-09-09 16:05:00,
2013-09-09 12:06:00,86.7,78.2,26.83,ESE,103,3.0,4.0,76,0.00,,CLR,0.00,VWS V14.01,2013-09-09 16:06:00,
2013-09-09 12:07:00,86.7,77.8,26.83,East,100,3.0,4.0,75,0.00,,CLR,0.00,VWS V14.01,2013-09-09 16:07:00,
2013-09-09 12:08:00,86.7,78.2,26.83,ENE,77,3.0,4.0,76,0.00,,CLR,0.00,VWS V14.01,2013-09-09 16:08:00,
2013-09-09 12:09:00,86.5,78.0,26.83,ESE,108,2.0,4.0,76,0.00,,CLR,0.00,VWS V14.01,2013-09-09 16:09:00,
2013-09-09 12:10:00,86.7,78.2,26.83,East,90,3.0,4.0,76,0.00,,SCT032,0.00,VWS V14.01,2013-09-09 16:10:00,
2013-09-09 12:11:00,86.7,78.2,26.83,East,90,3.0,4.0,76,0.00,,CLR,0.00,VWS V14.01,2013-09-09 16:11:00,
2013-09-09 12:12:00,86.7,78.2,26.83,ENE,78,3.0,4.0,76,0.00,,CLR,0.00,VWS V14.01,2013-09-09 16:12:00,
2013-09-09 12:13:00,86.7,78.2,26.83,East,98,3.0,4.0,76,0.00,,CLR,0.00,VWS V14.01,2013-09-09 16:13:00,
2013-09-09 12:14:00,86.5,78.0,26.83,East,98,3.0,3.0,76,0.00,,CLR,0.00,VWS V14.01,2013-09-09 16:14:00,
2013-09-09 12:15:00,86.5,78.4,26.83,East,80,2.0,2.0,77,0.00,,SCT032,0.00,VWS V14.01,2013-09-09 16:15:00,
2013-09-09 12:16:00,86.5,78.4,26.83,East,80,2.0,2.0,77,0.00,,CLR,0.00,VWS V14.01,2013-09-09 16:16:00,
2013-09-09 12:17:00,86.5,78.4,26.83,East,96,4.0,4.0,77,0.00,,CLR,0.00,VWS V14.01,2013-09-09 16:17:00,
2013-09-09 12:18:00,86.5,78.0,26.83,ENE,69,5.0,5.0,76,0.00,,CLR,0.00,VWS V14.01,2013-09-09 16:18:00,
2013-09-09 12:19:00,86.3,78.2,26.83,East,81,0.0,5.0,77,0.00,,CLR,0.00,VWS V14.01,2013-09-09 16:19:00,
2013-09-09 12:20:00,86.3,78.2,26.83,ESE,103,3.0,5.0,77,0.00,,SCT032,0.00,VWS V14.01,2013-09-09 16:20:00,
2013-09-09 12:21:00,86.3,78.2,26.83,ESE,103,3.0,5.0,77,0.00,,CLR,0.00,VWS V14.01,2013-09-09 16:21:00,
2013-09-09 12:22:00,86.3,78.2,26.83,East,85,4.0,5.0,77,0.00,,CLR,0.00,VWS V14.01,2013-09-09 16:22:00,
2013-09-09 12:23:00,86.3,78.2,26.83,East,100,5.0,6.0,77,0.00,,CLR,0.00,VWS V14.01,2013-09-09 16:23:00,
2013-09-09 12:24:00,86.3,78.2,26.83,East,89,3.0,5.0,77,0.00,,CLR,0.00,VWS V14.01,2013-09-09 16:24:00,
2013-09-09 12:25:00,86.3,78.2,26.50,East,96,4.0,5.0,77,0.00,,SCT032,0.00,VWS V14.01,2013-09-09 16:25:00,
2013-09-09 12:26:00,86.3,78.2,26.50,East,96,4.0,5.0,77,0.00,,CLR,0.00,VWS V14.01,2013-09-09 16:26:00,
2013-09-09 12:27:00,86.1,78.1,26.50,East,97,3.0,4.0,77,0.00,,CLR,0.00,VWS V14.01,2013-09-09 16:27:00,
2013-09-09 12:28:00,86.1,77.7,26.50,ESE,104,6.0,6.0,76,0.00,,CLR,0.00,VWS V14.01,2013-09-09 16:28:00,
2013-09-09 12:29:00,85.9,77.9,26.50,ESE,103,3.0,6.0,77,0.00,,CLR,0.00,VWS V14.01,2013-09-09 16:29:00,
2013-09-09 12:30:00,85.9,78.2,26.50,East,94,5.0,5.0,78,0.00,,SCT032,0.00,VWS V14.01,2013-09-09 16:30:00,
2013-09-09 12:31:00,85.9,78.2,26.50,East,94,5.0,5.0,78,0.00,,CLR,0.00,VWS V14.01,2013-09-09 16:31:00,
2013-09-09 12:32:00,85.9,78.2,26.50,East,94,2.0,5.0,78,0.00,,CLR,0.00,VWS V14.01,2013-09-09 16:32:00,
2013-09-09 12:33:00,85.9,77.9,26.50,East,86,4.0,6.0,77,0.00,,CLR,0.00,VWS V14.01,2013-09-09 16:33:00,
2013-09-09 12:34:00,85.9,77.9,26.50,ENE,69,7.0,7.0,77,0.00,,CLR,0.00,VWS V14.01,2013-09-09 16:34:00,
2013-09-09 12:35:00,85.9,77.9,26.50,ENE,65,5.0,5.0,77,0.00,,BKN035,0.00,VWS V14.01,2013-09-09 16:35:00,
2013-09-09 12:36:00,85.9,77.9,26.50,ENE,65,5.0,5.0,77,0.00,,CLR,0.00,VWS V14.01,2013-09-09 16:36:00,
2013-09-09 12:37:00,85.9,77.9,26.72,East,84,2.0,5.0,77,0.00,,CLR,0.00,VWS V14.01,2013-09-09 16:37:00,
2013-09-09 12:38:00,86.1,78.1,26.72,ENE,78,5.0,5.0,77,0.00,,CLR,0.00,VWS V14.01,2013-09-09 16:38:00,
2013-09-09 12:39:00,86.3,78.2,26.72,East,83,1.0,5.0,77,0.00,,CLR,0.00,VWS V14.01,2013-09-09 16:39:00,
2013-09-09 12:40:00,86.3,77.4,26.72,East,92,6.0,9.0,75,0.00,,BKN035,0.00,VWS V14.01,2013-09-09 16:40:00,
2013-09-09 12:41:00,86.3,77.4,26.72,East,92,6.0,9.0,75,0.00,,CLR,0.00,VWS V14.01,2013-09-09 16:41:00,
2013-09-09 12:43:00,86.1,77.2,26.72,ESE,107,7.0,7.0,75,0.00,,CLR,0.00,VWS V14.01,2013-09-09 16:43:00,
2013-09-09 12:44:00,85.7,78.1,26.72,East,98,6.0,8.0,78,0.00,,CLR,0.00,VWS V14.01,2013-09-09 16:44:00,
2013-09-09 12:45:00,85.5,76.7,26.72,ESE,105,6.0,9.0,75,0.00,,BKN035,0.00,VWS V14.01,2013-09-09 16:45:00,
2013-09-09 12:46:00,85.5,76.7,26.72,ESE,105,6.0,9.0,75,0.00,,CLR,0.00,VWS V14.01,2013-09-09 16:46:00,
2013-09-09 12:47:00,85.5,77.1,26.72,ESE,105,4.0,6.0,76,0.00,,CLR,0.00,VWS V14.01,2013-09-09 16:47:00,
2013-09-09 12:48:00,85.5,77.1,26.72,East,87,5.0,5.0,76,0.00,,CLR,0.00,VWS V14.01,2013-09-09 16:48:00,
2013-09-09 12:49:00,85.5,76.7,26.72,ESE,105,9.0,9.0,75,0.00,,CLR,0.00,VWS V14.01,2013-09-09 16:49:00,
2013-09-09 12:50:00,85.5,77.1,26.72,East,97,4.0,7.0,76,0.00,,BKN035,0.00,VWS V14.01,2013-09-09 16:50:00,
2013-09-09 12:51:00,85.5,77.1,26.72,East,97,4.0,7.0,76,0.00,,CLR,0.00,VWS V14.01,2013-09-09 16:51:00,
2013-09-09 12:52:00,85.5,76.7,26.72,ESE,103,3.0,7.0,75,0.00,,CLR,0.00,VWS V14.01,2013-09-09 16:52:00,
2013-09-09 12:53:00,85.5,77.1,26.72,SE,124,4.0,6.0,76,0.00,,CLR,0.00,VWS V14.01,2013-09-09 16:53:00,
2013-09-09 12:54:00,85.3,76.5,26.72,East,101,6.0,6.0,75,0.00,,CLR,0.00,VWS V14.01,2013-09-09 16:54:00,
2013-09-09 12:55:00,85.5,77.1,26.72,East,94,4.0,5.0,76,0.00,,BKN035,0.00,VWS V14.01,2013-09-09 16:55:00,
2013-09-09 12:56:00,85.5,77.1,26.72,East,94,4.0,5.0,76,0.00,,CLR,0.00,VWS V14.01,2013-09-09 16:56:00,
2013-09-09 12:57:00,85.5,76.7,26.72,ENE,65,3.0,4.0,75,0.00,,CLR,0.00,VWS V14.01,2013-09-09 16:57:00,
2013-09-09 12:58:00,85.9,77.1,26.72,East,92,4.0,5.0,75,0.00,,CLR,0.00,VWS V14.01,2013-09-09 16:58:00,
2013-09-09 12:59:00,85.9,76.7,26.72,East,98,4.0,5.0,74,0.00,,CLR,0.00,VWS V14.01,2013-09-09 16:59:00,
2013-09-09 13:00:00,85.7,76.5,26.72,East,93,4.0,5.0,74,0.00,,BKN035,0.00,VWS V14.01,2013-09-09 17:00:00,
2013-09-09 13:01:00,85.7,76.5,26.72,East,93,4.0,5.0,74,0.00,,CLR,0.00,VWS V14.01,2013-09-09 17:01:00,
2013-09-09 13:02:00,85.7,76.5,27.35,East,88,4.0,6.0,74,0.00,,CLR,0.00,VWS V14.01,2013-09-09 17:02:00,
2013-09-09 13:03:00,85.7,76.5,27.35,ESE,103,7.0,9.0,74,0.00,,CLR,0.00,VWS V14.01,2013-09-09 17:03:00,
2013-09-09 13:04:00,85.5,76.3,27.35,ESE,106,7.0,8.0,74,0.00,,CLR,0.00,VWS V14.01,2013-09-09 17:04:00,
2013-09-09 13:05:00,85.1,75.9,27.35,ESE,108,7.0,9.0,74,0.00,,BKN035,0.00,VWS V14.01,2013-09-09 17:05:00,
2013-09-09 13:06:00,85.1,75.9,27.35,ESE,108,7.0,9.0,74,0.00,,CLR,0.00,VWS V14.01,2013-09-09 17:06:00,
2013-09-09 13:07:00,84.9,76.1,27.35,ESE,102,6.0,7.0,75,0.00,,CLR,0.00,VWS V14.01,2013-09-09 17:07:00,
2013-09-09 13:08:00,84.9,76.1,27.35,East,97,5.0,6.0,75,0.00,,CLR,0.00,VWS V14.01,2013-09-09 17:08:00,
2013-09-09 13:09:00,84.9,76.1,27.35,East,88,5.0,7.0,75,0.00,,CLR,0.00,VWS V14.01,2013-09-09 17:09:00,
2013-09-09 13:10:00,85.3,76.9,27.35,East,101,3.0,5.0,76,0.00,,BKN035,0.00,VWS V14.01,2013-09-09 17:10:00,
2013-09-09 13:11:00,85.3,76.9,27.35,East,101,3.0,5.0,76,0.00,,CLR,0.00,VWS V14.01,2013-09-09 17:11:00,
2013-09-09 13:12:00,85.3,76.5,27.35,ESE,109,4.0,5.0,75,0.00,,CLR,0.00,VWS V14.01,2013-09-09 17:12:00,
2013-09-09 13:13:00,85.5,76.7,27.35,East,96,3.0,5.0,75,0.00,,CLR,0.00,VWS V14.01,2013-09-09 17:13:00,
2013-09-09 13:14:00,85.7,76.9,27.35,East,98,3.0,5.0,75,0.00,,CLR,0.00,VWS V14.01,2013-09-09 17:14:00,
2013-09-09 13:15:00,85.9,76.2,27.35,East,96,5.0,5.0,73,0.00,,BKN035,0.00,VWS V14.01,2013-09-09 17:15:00,
2013-09-09 13:16:00,85.9,76.2,27.35,East,96,5.0,5.0,73,0.00,,CLR,0.00,VWS V14.01,2013-09-09 17:16:00,
2013-09-09 13:17:00,86.1,76.4,27.35,East,100,4.0,7.0,73,0.00,,CLR,0.00,VWS V14.01,2013-09-09 17:17:00,
2013-09-09 13:18:00,86.1,76.8,27.35,ESE,104,5.0,6.0,74,0.00,,CLR,0.00,VWS V14.01,2013-09-09 17:18:00,
2013-09-09 13:19:00,86.1,76.4,27.35,East,81,3.0,5.0,73,0.00,,CLR,0.00,VWS V14.01,2013-09-09 17:19:00,
2013-09-09 13:20:00,85.9,76.2,27.35,ESE,106,5.0,6.0,73,0.00,,BKN035,0.00,VWS V14.01,2013-09-09 17:20:00,
2013-09-09 13:21:00,85.9,76.2,27.35,ESE,103,6.0,7.0,73,0.00,,CLR,0.00,VWS V14.01,2013-09-09 17:21:00,
2013-09-09 13:22:00,85.9,76.7,27.35,East,85,3.0,6.0,74,0.00,,CLR,0.00,VWS V14.01,2013-09-09 17:22:00,
2013-09-09 13:23:00,86.1,76.8,27.35,East,96,4.0,5.0,74,0.00,,CLR,0.00,VWS V14.01,2013-09-09 17:23:00,
2013-09-09 13:24:00,86.1,76.8,27.35,East,101,4.0,6.0,74,0.00,,CLR,0.00,VWS V14.01,2013-09-09 17:24:00,
2013-09-09 13:25:00,86.5,76.8,27.35,ESE,105,5.0,5.0,73,0.00,,BKN035,0.00,VWS V14.01,2013-09-09 17:25:00,
2013-09-09 13:26:00,86.5,76.8,27.35,ESE,105,5.0,5.0,73,0.00,,CLR,0.00,VWS V14.01,2013-09-09 17:26:00,
2013-09-09 13:27:00,86.5,76.4,27.35,East,98,6.0,7.0,72,0.00,,CLR,0.00,VWS V14.01,2013-09-09 17:27:00,
2013-09-09 13:28:00,86.1,76.0,27.35,East,96,7.0,7.0,72,0.00,,CLR,0.00,VWS V14.01,2013-09-09 17:28:00,
2013-09-09 13:29:00,85.9,75.8,27.35,East,98,5.0,7.0,72,0.00,,CLR,0.00,VWS V14.01,2013-09-09 17:29:00,
2013-09-09 13:30:00,85.9,75.0,27.35,ENE,74,3.0,5.0,70,0.00,,BKN035,0.00,VWS V14.01,2013-09-09 17:30:00,
2013-09-09 13:31:00,85.9,75.0,27.35,ENE,74,3.0,5.0,70,0.00,,CLR,0.00,VWS V14.01,2013-09-09 17:31:00,
2013-09-09 13:32:00,85.9,76.7,27.35,ESE,107,4.0,4.0,74,0.00,,CLR,0.00,VWS V14.01,2013-09-09 17:32:00,
2013-09-09 13:33:00,85.9,76.2,27.35,East,86,4.0,5.0,73,0.00,,CLR,0.00,VWS V14.01,2013-09-09 17:33:00,
2013-09-09 13:34:00,85.9,76.2,27.35,ESE,107,5.0,5.0,73,0.00,,CLR,0.00,VWS V14.01,2013-09-09 17:34:00,
2013-09-09 13:35:00,85.7,76.1,27.35,East,101,5.0,10.0,73,0.00,,SCT034,0.00,VWS V14.01,2013-09-09 17:35:00,
2013-09-09 13:36:00,85.7,76.1,27.35,East,101,5.0,10.0,73,0.00,,CLR,0.00,VWS V14.01,2013-09-09 17:36:00,
2013-09-09 13:37:00,85.7,76.5,27.35,East,91,4.0,6.0,74,0.00,,CLR,0.00,VWS V14.01,2013-09-09 17:37:00,
2013-09-09 13:38:00,85.7,76.5,27.35,ESE,103,2.0,5.0,74,0.00,,CLR,0.00,VWS V14.01,2013-09-09 17:38:00,
2013-09-09 13:39:00,85.7,76.5,27.35,East,101,4.0,5.0,74,0.00,,CLR,0.00,VWS V14.01,2013-09-09 17:39:00,
2013-09-09 13:40:00,85.7,76.1,27.35,East,89,3.0,3.0,73,0.00,,SCT034,0.00,VWS V14.01,2013-09-09 17:40:00,
2013-09-09 13:41:00,85.7,76.1,27.35,ENE,76,3.0,4.0,73,0.00,,CLR,0.00,VWS V14.01,2013-09-09 17:41:00,
2013-09-09 13:42:00,85.9,76.2,27.35,ESE,106,7.0,7.0,73,0.00,,CLR,0.00,VWS V14.01,2013-09-09 17:42:00,
2013-09-09 13:43:00,85.9,76.7,27.35,East,97,5.0,8.0,74,0.00,,CLR,0.00,VWS V14.01,2013-09-09 17:43:00,
2013-09-09 13:44:00,85.7,76.1,27.35,ESE,106,10.0,10.0,73,0.00,,CLR,0.00,VWS V14.01,2013-09-09 17:44:00,
2013-09-09 13:45:00,85.5,76.3,27.35,ESE,103,6.0,6.0,74,0.00,,SCT034,0.00,VWS V14.01,2013-09-09 17:45:00,
2013-09-09 13:46:00,85.5,76.3,27.35,ESE,103,4.0,7.0,74,0.00,,CLR,0.00,VWS V14.01,2013-09-09 17:46:00,
2013-09-09 13:47:00,85.5,76.3,27.35,ESE,103,5.0,6.0,74,0.00,,CLR,0.00,VWS V14.01,2013-09-09 17:47:00,
2013-09-09 13:48:00,85.5,76.7,27.35,East,90,6.0,9.0,75,0.00,,CLR,0.00,VWS V14.01,2013-09-09 17:48:00,
2013-09-09 13:49:00,85.3,76.1,27.35,East,93,5.0,6.0,74,0.00,,CLR,0.00,VWS V14.01,2013-09-09 17:49:00,
2013-09-09 13:50:00,85.5,75.9,27.35,ESE,107,5.0,6.0,73,0.00,,SCT034,0.00,VWS V14.01,2013-09-09 17:50:00,
2013-09-09 13:51:00,85.5,75.9,27.35,ESE,107,5.0,6.0,73,0.00,,CLR,0.00,VWS V14.01,2013-09-09 17:51:00,
2013-09-09 13:52:00,85.5,75.9,27.35,East,98,4.0,6.0,73,0.00,,CLR,0.00,VWS V14.01,2013-09-09 17:52:00,
2013-09-09 13:53:00,85.5,76.3,27.35,ESE,107,5.0,5.0,74,0.00,,CLR,0.00,VWS V14.01,2013-09-09 17:53:00,
2013-09-09 13:54:00,85.5,76.3,27.35,East,99,5.0,5.0,74,0.00,,CLR,0.00,VWS V14.01,2013-09-09 17:54:00,
2013-09-09 13:55:00,85.5,76.7,27.35,ESE,109,4.0,6.0,75,0.00,,SCT034,0.00,VWS V14.01,2013-09-09 17:55:00,
2013-09-09 13:56:00,85.5,76.7,27.35,ESE,109,4.0,6.0,75,0.00,,CLR,0.00,VWS V14.01,2013-09-09 17:56:00,
2013-09-09 13:57:00,85.5,75.9,27.35,East,101,6.0,8.0,73,0.00,,CLR,0.00,VWS V14.01,2013-09-09 17:57:00,
2013-09-09 13:58:00,85.7,76.5,27.35,ESE,102,9.0,9.0,74,0.00,,CLR,0.00,VWS V14.01,2013-09-09 17:58:00,
2013-09-09 13:59:00,85.7,76.9,27.35,ESE,103,6.0,10.0,75,0.00,,CLR,0.00,VWS V14.01,2013-09-09 17:59:00,
2013-09-09 14:00:00,85.5,76.3,27.35,East,93,10.0,10.0,74,0.00,,SCT034,0.00,VWS V14.01,2013-09-09 18:00:00,
2013-09-09 14:01:00,85.5,76.3,27.35,East,93,10.0,10.0,74,0.00,,CLR,0.00,VWS V14.01,2013-09-09 18:01:00,
2013-09-09 14:02:00,85.3,76.1,27.35,East,93,4.0,10.0,74,0.00,,CLR,0.00,VWS V14.01,2013-09-09 18:02:00,
2013-09-09 14:03:00,85.5,76.7,27.35,ESE,103,4.0,5.0,75,0.00,,CLR,0.00,VWS V14.01,2013-09-09 18:03:00,
2013-09-09 14:04:00,85.5,76.3,27.35,East,96,5.0,6.0,74,0.00,,CLR,0.00,VWS V14.01,2013-09-09 18:04:00,
2013-09-09 14:05:00,85.3,76.1,27.35,ESE,105,11.0,11.0,74,0.00,,SCT034,0.00,VWS V14.01,2013-09-09 18:05:00,
2013-09-09 14:06:00,85.3,76.1,27.35,ESE,105,11.0,11.0,74,0.00,,CLR,0.00,VWS V14.01,2013-09-09 18:06:00,
2013-09-09 14:07:00,85.3,76.1,27.35,East,101,8.0,11.0,74,0.00,,CLR,0.00,VWS V14.01,2013-09-09 18:07:00,
2013-09-09 14:08:00,85.1,75.9,27.35,East,101,6.0,10.0,74,0.00,,CLR,0.00,VWS V14.01,2013-09-09 18:08:00,
2013-09-09 14:09:00,85.1,76.3,27.35,East,92,5.0,8.0,75,0.00,,CLR,0.00,VWS V14.01,2013-09-09 18:09:00,
2013-09-09 14:10:00,85.1,75.9,27.35,East,100,3.0,7.0,74,0.00,,SCT034,0.00,VWS V14.01,2013-09-09 18:10:00,
2013-09-09 14:11:00,85.1,75.9,27.35,East,100,3.0,7.0,74,0.00,,CLR,0.00,VWS V14.01,2013-09-09 18:11:00,
2013-09-09 14:12:00,85.3,76.1,27.35,ESE,104,9.0,11.0,74,0.00,,CLR,0.00,VWS V14.01,2013-09-09 18:12:00,
2013-09-09 14:13:00,85.3,76.1,27.35,East,99,6.0,11.0,74,0.00,,CLR,0.00,VWS V14.01,2013-09-09 18:13:00,
2013-09-09 14:14:00,85.3,76.5,27.35,ESE,108,9.0,9.0,75,0.00,,CLR,0.00,VWS V14.01,2013-09-09 18:14:00,
2013-09-09 14:15:00,85.3,76.1,27.35,East,87,5.0,5.0,74,0.00,,SCT034,0.00,VWS V14.01,2013-09-09 18:15:00,
2013-09-09 14:16:00,85.3,76.1,27.35,ESE,110,4.0,6.0,74,0.00,,CLR,0.00,VWS V14.01,2013-09-09 18:16:00,
2013-09-09 14:17:00,85.5,76.3,27.35,East,89,5.0,6.0,74,0.00,,CLR,0.00,VWS V14.01,2013-09-09 18:17:00,
2013-09-09 14:18:00,85.5,76.3,27.35,East,91,6.0,6.0,74,0.00,,CLR,0.00,VWS V14.01,2013-09-09 18:18:00,
2013-09-09 14:19:00,85.7,76.1,27.35,East,97,5.0,6.0,73,0.00,,CLR,0.00,VWS V14.01,2013-09-09 18:19:00,
2013-09-09 14:20:00,85.7,75.6,26.89,ESE,103,4.0,6.0,72,0.00,,SCT034,0.00,VWS V14.01,2013-09-09 18:20:00,
2013-09-09 14:21:00,85.7,75.6,26.89,ESE,103,6.0,6.0,72,0.00,,CLR,0.00,VWS V14.01,2013-09-09 18:21:00,
2013-09-09 14:22:00,85.7,75.6,26.89,East,90,5.0,6.0,72,0.00,,CLR,0.00,VWS V14.01,2013-09-09 18:22:00,
2013-09-09 14:23:00,85.9,75.8,26.89,East,95,10.0,10.0,72,0.00,,CLR,0.00,VWS V14.01,2013-09-09 18:23:00,
2013-09-09 14:24:00,85.7,75.6,26.89,East,101,6.0,10.0,72,0.00,,CLR,0.00,VWS V14.01,2013-09-09 18:24:00,
2013-09-09 14:25:00,85.5,75.4,26.89,East,93,5.0,9.0,72,0.00,,SCT034,0.00,VWS V14.01,2013-09-09 18:25:00,
2013-09-09 14:26:00,85.5,75.4,26.89,ESE,109,9.0,10.0,72,0.00,,CLR,0.00,VWS V14.01,2013-09-09 18:26:00,
2013-09-09 14:27:00,85.5,75.4,26.89,ESE,106,4.0,9.0,72,0.00,,CLR,0.00,VWS V14.01,2013-09-09 18:27:00,
2013-09-09 14:28:00,85.5,75.4,26.89,East,85,4.0,6.0,72,0.00,,CLR,0.00,VWS V14.01,2013-09-09 18:28:00,
2013-09-09 14:29:00,85.5,75.4,26.89,East,97,4.0,4.0,72,0.00,,CLR,0.00,VWS V14.01,2013-09-09 18:29:00,
2013-09-09 14:30:00,85.7,75.2,26.89,ESE,106,10.0,10.0,71,0.00,,SCT034,0.00,VWS V14.01,2013-09-09 18:30:00,
2013-09-09 14:31:00,85.7,75.2,26.89,ESE,106,10.0,10.0,71,0.00,,CLR,0.00,VWS V14.01,2013-09-09 18:31:00,
2013-09-09 14:32:00,85.7,75.2,26.89,East,92,6.0,10.0,71,0.00,,CLR,0.00,VWS V14.01,2013-09-09 18:32:00,
2013-09-09 14:33:00,85.7,75.6,26.89,ESE,105,8.0,8.0,72,0.00,,CLR,0.00,VWS V14.01,2013-09-09 18:33:00,
2013-09-09 14:34:00,85.7,75.6,26.89,ESE,103,6.0,9.0,72,0.00,,CLR,0.00,VWS V14.01,2013-09-09 18:34:00,
2013-09-09 14:35:00,85.5,75.4,26.89,East,98,6.0,7.0,72,0.00,,SCT090,0.00,VWS V14.01,2013-09-09 18:35:00,
2013-09-09 14:37:00,85.5,75.9,26.89,ESE,103,9.0,9.0,73,0.00,,CLR,0.00,VWS V14.01,2013-09-09 18:37:00,
2013-09-09 14:38:00,85.7,75.6,26.89,ESE,102,6.0,10.0,72,0.00,,CLR,0.00,VWS V14.01,2013-09-09 18:38:00,
2013-09-09 14:39:00,85.7,76.5,26.89,ESE,104,10.0,10.0,74,0.00,,CLR,0.00,VWS V14.01,2013-09-09 18:39:00,
2013-09-09 14:40:00,85.5,75.9,26.89,ESE,104,11.0,11.0,73,0.00,,SCT090,0.00,VWS V14.01,2013-09-09 18:40:00,
2013-09-09 14:41:00,85.5,75.9,26.89,ESE,104,11.0,11.0,73,0.00,,CLR,0.00,VWS V14.01,2013-09-09 18:41:00,
2013-09-09 14:42:00,85.3,75.7,26.89,East,96,5.0,11.0,73,0.00,,CLR,0.00,VWS V14.01,2013-09-09 18:42:00,
2013-09-09 14:43:00,85.3,76.1,26.89,East,94,6.0,7.0,74,0.00,,CLR,0.00,VWS V14.01,2013-09-09 18:43:00,
2013-09-09 14:44:00,85.1,75.5,26.89,East,88,10.0,10.0,73,0.00,,CLR,0.00,VWS V14.01,2013-09-09 18:44:00,
2013-09-09 14:45:00,85.3,75.2,26.89,ESE,121,11.0,11.0,72,0.00,,SCT090,0.00,VWS V14.01,2013-09-09 18:45:00,
2013-09-09 14:46:00,85.3,75.2,26.89,ESE,121,11.0,11.0,72,0.00,,CLR,0.00,VWS V14.01,2013-09-09 18:46:00,
2013-09-09 14:47:00,85.3,75.2,26.89,East,87,5.0,11.0,72,0.00,,CLR,0.00,VWS V14.01,2013-09-09 18:47:00,
2013-09-09 14:49:00,85.3,75.7,26.89,East,86,7.0,8.0,73,0.00,,CLR,0.00,VWS V14.01,2013-09-09 18:49:00,
2013-09-09 14:50:00,85.3,75.7,26.89,East,94,5.0,6.0,73,0.00,,SCT090,0.00,VWS V14.01,2013-09-09 18:50:00,
2013-09-09 14:51:00,85.3,75.7,26.89,East,94,5.0,6.0,73,0.00,,CLR,0.00,VWS V14.01,2013-09-09 18:51:00,
2013-09-09 14:52:00,85.3,74.8,26.89,NE,45,6.0,8.0,71,0.00,,CLR,0.00,VWS V14.01,2013-09-09 18:52:00,
2013-09-09 14:53:00,85.3,75.2,28.18,East,88,6.0,9.0,72,0.00,,CLR,0.00,VWS V14.01,2013-09-09 18:53:00,
2013-09-09 14:54:00,85.3,74.8,28.18,ESE,105,5.0,7.0,71,0.00,,CLR,0.00,VWS V14.01,2013-09-09 18:54:00,
2013-09-09 14:55:00,85.3,75.7,27.77,East,97,4.0,5.0,73,0.00,,SCT090,0.00,VWS V14.01,2013-09-09 18:55:00,
2013-09-09 14:56:00,85.3,75.7,27.77,East,97,4.0,5.0,73,0.00,,CLR,0.00,VWS V14.01,2013-09-09 18:56:00,
2013-09-09 14:57:00,85.5,75.4,27.77,East,86,4.0,5.0,72,0.00,,CLR,0.00,VWS V14.01,2013-09-09 18:57:00,
2013-09-09 14:58:00,85.7,75.6,27.77,East,82,5.0,6.0,72,0.00,,CLR,0.00,VWS V14.01,2013-09-09 18:58:00,
2013-09-09 14:59:00,85.9,75.4,27.77,East,101,6.0,6.0,71,0.00,,CLR,0.00,VWS V14.01,2013-09-09 18:59:00,
2013-09-09 15:00:00,85.9,75.4,27.77,East,90,6.0,6.0,71,0.00,,SCT090,0.00,VWS V14.01,2013-09-09 19:00:00,
2013-09-09 15:01:00,85.9,75.4,27.77,East,90,6.0,6.0,71,0.00,,CLR,0.00,VWS V14.01,2013-09-09 19:01:00,
2013-09-09 15:02:00,85.9,75.4,27.77,East,94,6.0,6.0,71,0.00,,CLR,0.00,VWS V14.01,2013-09-09 19:02:00,
2013-09-09 15:03:00,85.9,75.4,27.77,ESE,105,7.0,7.0,71,0.00,,CLR,0.00,VWS V14.01,2013-09-09 19:03:00,
2013-09-09 15:04:00,85.7,75.2,27.77,East,101,5.0,8.0,71,0.00,,CLR,0.00,VWS V14.01,2013-09-09 19:04:00,
2013-09-09 15:05:00,85.3,75.7,27.77,East,101,9.0,11.0,73,0.00,,SCT090,0.00,VWS V14.01,2013-09-09 19:05:00,
2013-09-09 15:06:00,85.5,75.9,27.77,ESE,111,11.0,11.0,73,0.00,,CLR,0.00,VWS V14.01,2013-09-09 19:06:00,
2013-09-09 15:09:00,85.1,75.5,27.77,ESE,105,7.0,10.0,73,0.00,,CLR,0.00,VWS V14.01,2013-09-09 19:09:00,
2013-09-09 15:10:00,85.1,75.9,27.77,East,101,5.0,6.0,74,0.00,,SCT090,0.00,VWS V14.01,2013-09-09 19:10:00,
2013-09-09 15:11:00,85.1,75.9,27.77,East,101,5.0,6.0,74,0.00,,CLR,0.00,VWS V14.01,2013-09-09 19:11:00,
2013-09-09 15:12:00,85.3,75.7,27.77,East,95,7.0,7.0,73,0.00,,CLR,0.00,VWS V14.01,2013-09-09 19:12:00,
2013-09-09 15:14:00,85.5,75.9,27.77,East,96,6.0,9.0,73,0.00,,CLR,0.00,VWS V14.01,2013-09-09 19:14:00,
2013-09-09 15:15:00,85.3,75.7,27.77,East,101,7.0,10.0,73,0.00,,SCT090,0.00,VWS V14.01,2013-09-09 19:15:00,
2013-09-09 15:16:00,85.3,75.7,27.77,East,101,7.0,10.0,73,0.00,,CLR,0.00,VWS V14.01,2013-09-09 19:16:00,
2013-09-09 15:17:00,85.1,75.5,27.77,ESE,105,4.0,7.0,73,0.00,,CLR,0.00,VWS V14.01,2013-09-09 19:17:00,
2013-09-09 15:18:00,85.1,75.5,27.77,ESE,102,6.0,8.0,73,0.00,,CLR,0.00,VWS V14.01,2013-09-09 19:18:00,
2013-09-09 15:19:00,85.1,74.6,27.77,ESE,104,5.0,6.0,71,0.00,,CLR,0.00,VWS V14.01,2013-09-09 19:19:00,
2013-09-09 15:20:00,85.1,75.9,27.73,East,91,5.0,7.0,74,0.00,,SCT090,0.00,VWS V14.01,2013-09-09 19:20:00,
2013-09-09 15:21:00,85.1,75.9,27.73,East,91,5.0,7.0,74,0.00,,CLR,0.00,VWS V14.01,2013-09-09 19:21:00,
2013-09-09 15:22:00,85.1,75.5,27.73,East,92,3.0,5.0,73,0.00,,CLR,0.00,VWS V14.01,2013-09-09 19:22:00,
2013-09-09 15:23:00,85.3,75.7,27.73,East,96,8.0,8.0,73,0.00,,CLR,0.00,VWS V14.01,2013-09-09 19:23:00,
2013-09-09 15:24:00,85.3,75.2,26.43,ESE,109,7.0,10.0,72,0.00,,CLR,0.00,VWS V14.01,2013-09-09 19:24:00,
2013-09-09 15:25:00,85.1,75.5,26.43,East,96,7.0,7.0,73,0.00,,SCT090,0.00,VWS V14.01,2013-09-09 19:25:00,
2013-09-09 15:26:00,85.1,75.5,26.43,East,96,7.0,7.0,73,0.00,,CLR,0.00,VWS V14.01,2013-09-09 19:26:00,
2013-09-09 15:27:00,85.1,75.5,26.43,ESE,111,9.0,10.0,73,0.00,,CLR,0.00,VWS V14.01,2013-09-09 19:27:00,
2013-09-09 15:28:00,84.9,75.3,26.43,East,100,6.0,10.0,73,0.00,,CLR,0.00,VWS V14.01,2013-09-09 19:28:00,
2013-09-09 15:29:00,84.9,75.7,26.43,East,101,4.0,7.0,74,0.00,,CLR,0.00,VWS V14.01,2013-09-09 19:29:00,
2013-09-09 15:30:00,85.1,75.5,26.43,East,90,4.0,5.0,73,0.00,,SCT090,0.00,VWS V14.01,2013-09-09 19:30:00,
2013-09-09 15:31:00,85.1,75.5,26.43,East,90,4.0,5.0,73,0.00,,CLR,0.00,VWS V14.01,2013-09-09 19:31:00,
2013-09-09 15:32:00,85.3,75.7,26.43,ENE,78,3.0,6.0,73,0.00,,CLR,0.00,VWS V14.01,2013-09-09 19:32:00,
2013-09-09 15:33:00,85.5,75.9,26.43,East,101,4.0,6.0,73,0.00,,CLR,0.00,VWS V14.01,2013-09-09 19:33:00,
2013-09-09 15:34:00,85.7,75.6,26.43,ESE,103,5.0,5.0,72,0.00,,CLR,0.00,VWS V14.01,2013-09-09 19:34:00,
2013-09-09 15:35:00,85.5,75.0,26.43,East,100,3.0,10.0,71,0.00,,BKN075,0.00,VWS V14.01,2013-09-09 19:35:00,
2013-09-09 15:36:00,85.5,75.0,26.43,East,100,3.0,10.0,71,0.00,,CLR,0.00,VWS V14.01,2013-09-09 19:36:00,
2013-09-09 15:37:00,85.5,75.0,26.43,ESE,107,6.0,6.0,71,0.00,,CLR,0.00,VWS V14.01,2013-09-09 19:37:00,
2013-09-09 15:38:00,85.5,75.9,26.43,East,95,7.0,7.0,73,0.00,,CLR,0.00,VWS V14.01,2013-09-09 19:38:00,
2013-09-09 15:39:00,85.3,75.2,26.43,ESE,103,6.0,7.0,72,0.00,,CLR,0.00,VWS V14.01,2013-09-09 19:39:00,
2013-09-09 15:40:00,85.3,74.8,26.43,East,91,6.0,6.0,71,0.00,,BKN075,0.00,VWS V14.01,2013-09-09 19:40:00,
2013-09-09 15:41:00,85.3,74.8,26.43,East,91,6.0,6.0,71,0.00,,CLR,0.00,VWS V14.01,2013-09-09 19:41:00,
2013-09-09 15:42:00,85.3,75.7,26.43,East,96,7.0,7.0,73,0.00,,CLR,0.00,VWS V14.01,2013-09-09 19:42:00,
2013-09-09 15:43:00,85.3,76.1,26.97,ESE,104,6.0,11.0,74,0.00,,CLR,0.00,VWS V14.01,2013-09-09 19:43:00,
2013-09-09 15:44:00,85.3,76.1,26.97,East,94,6.0,7.0,74,0.00,,CLR,0.00,VWS V14.01,2013-09-09 19:44:00,
2013-09-09 15:45:00,85.1,75.9,26.97,East,88,3.0,6.0,74,0.00,,BKN075,0.00,VWS V14.01,2013-09-09 19:45:00,
2013-09-09 15:46:00,85.1,75.9,26.97,East,88,3.0,6.0,74,0.00,,CLR,0.00,VWS V14.01,2013-09-09 19:46:00,
2013-09-09 15:47:00,85.1,75.9,26.97,ENE,78,6.0,7.0,74,0.00,,CLR,0.00,VWS V14.01,2013-09-09 19:47:00,
2013-09-09 15:48:00,85.1,75.9,26.97,East,98,5.0,7.0,74,0.00,,CLR,0.00,VWS V14.01,2013-09-09 19:48:00,
2013-09-09 15:49:00,85.1,75.9,26.97,East,94,9.0,10.0,74,0.00,,CLR,0.00,VWS V14.01,2013-09-09 19:49:00,
2013-09-09 15:50:00,84.9,75.7,26.97,ESE,105,7.0,10.0,74,0.00,,BKN075,0.00,VWS V14.01,2013-09-09 19:50:00,
2013-09-09 15:51:00,84.9,75.7,26.97,ESE,105,7.0,10.0,74,0.00,,CLR,0.00,VWS V14.01,2013-09-09 19:51:00,
2013-09-09 15:52:00,84.9,75.7,26.97,NE,55,4.0,7.0,74,0.00,,CLR,0.00,VWS V14.01,2013-09-09 19:52:00,
2013-09-09 15:53:00,84.9,75.7,26.97,ESE,111,6.0,6.0,74,0.00,,CLR,0.00,VWS V14.01,2013-09-09 19:53:00,
2013-09-09 15:54:00,84.9,76.1,26.97,ESE,107,5.0,9.0,75,0.00,,CLR,0.00,VWS V14.01,2013-09-09 19:54:00,
2013-09-09 15:55:00,85.1,76.3,26.97,East,93,6.0,7.0,75,0.00,,BKN075,0.00,VWS V14.01,2013-09-09 19:55:00,
2013-09-09 15:56:00,85.1,76.3,26.97,East,93,6.0,7.0,75,0.00,,CLR,0.00,VWS V14.01,2013-09-09 19:56:00,
2013-09-09 15:57:00,85.1,76.3,26.97,East,92,5.0,7.0,75,0.00,,CLR,0.00,VWS V14.01,2013-09-09 19:57:00,
2013-09-09 15:58:00,85.3,76.9,26.97,ESE,103,9.0,10.0,76,0.00,,CLR,0.00,VWS V14.01,2013-09-09 19:58:00,
2013-09-09 15:59:00,85.1,76.3,26.97,East,97,9.0,11.0,75,0.00,,CLR,0.00,VWS V14.01,2013-09-09 19:59:00,
2013-09-09 16:00:00,84.9,76.5,26.97,East,98,5.0,8.0,76,0.00,,BKN075,0.00,VWS V14.01,2013-09-09 20:00:00,
2013-09-09 16:01:00,84.9,76.5,26.97,East,98,5.0,8.0,76,0.00,,CLR,0.00,VWS V14.01,2013-09-09 20:01:00,
2013-09-09 16:02:00,84.9,76.5,25.79,ESE,103,5.0,6.0,76,0.00,,CLR,0.00,VWS V14.01,2013-09-09 20:02:00,
2013-09-09 16:03:00,84.9,76.5,25.79,East,96,4.0,7.0,76,0.00,,CLR,0.00,VWS V14.01,2013-09-09 20:03:00,
2013-09-09 16:04:00,84.9,76.5,25.79,East,80,4.0,7.0,76,0.00,,CLR,0.00,VWS V14.01,2013-09-09 20:04:00,
2013-09-09 16:05:00,85.1,76.3,25.79,East,96,5.0,5.0,75,0.00,,BKN075,0.00,VWS V14.01,2013-09-09 20:05:00,
2013-09-09 16:06:00,85.1,76.3,25.79,East,96,5.0,5.0,75,0.00,,CLR,0.00,VWS V14.01,2013-09-09 20:06:00,
2013-09-09 16:07:00,84.9,76.1,25.79,East,100,7.0,7.0,75,0.00,,CLR,0.00,VWS V14.01,2013-09-09 20:07:00,
2013-09-09 16:08:00,84.9,76.1,25.19,ESE,105,5.0,8.0,75,0.00,,CLR,0.00,VWS V14.01,2013-09-09 20:08:00,
2013-09-09 16:09:00,84.9,76.9,25.19,East,94,5.0,6.0,77,0.00,,CLR,0.00,VWS V14.01,2013-09-09 20:09:00,
2013-09-09 16:10:00,84.9,76.1,25.19,East,87,9.0,9.0,75,0.00,,BKN075,0.00,VWS V14.01,2013-09-09 20:10:00,
2013-09-09 16:11:00,84.9,76.1,25.19,East,87,9.0,9.0,75,0.00,,CLR,0.00,VWS V14.01,2013-09-09 20:11:00,
2013-09-09 16:12:00,84.7,75.9,25.19,East,101,7.0,9.0,75,0.00,,CLR,0.00,VWS V14.01,2013-09-09 20:12:00,
2013-09-09 16:13:00,84.7,75.5,25.19,ESE,110,9.0,9.0,74,0.00,,CLR,0.00,VWS V14.01,2013-09-09 20:13:00,
2013-09-09 16:14:00,84.7,75.9,25.19,East,101,11.0,11.0,75,0.00,,CLR,0.00,VWS V14.01,2013-09-09 20:14:00,
2013-09-09 16:15:00,84.5,75.7,25.19,East,101,10.0,10.0,75,0.00,,BKN075,0.00,VWS V14.01,2013-09-09 20:15:00,
2013-09-09 16:16:00,84.5,75.7,25.19,ESE,105,7.0,7.0,75,0.00,,CLR,0.00,VWS V14.01,2013-09-09 20:16:00,
2013-09-09 16:17:00,84.5,75.7,25.19,East,99,12.0,12.0,75,0.00,,CLR,0.00,VWS V14.01,2013-09-09 20:17:00,
2013-09-09 16:18:00,84.5,75.7,25.19,ESE,102,10.0,14.0,75,0.00,,CLR,0.00,VWS V14.01,2013-09-09 20:18:00,
2013-09-09 16:19:00,84.3,75.5,25.19,East,97,5.0,10.0,75,0.00,,CLR,0.00,VWS V14.01,2013-09-09 20:19:00,
2013-09-09 16:20:00,84.3,75.9,25.19,ESE,105,9.0,9.0,76,0.00,,BKN075,0.00,VWS V14.01,2013-09-09 20:20:00,
2013-09-09 16:21:00,84.3,75.9,25.19,ESE,105,9.0,9.0,76,0.00,,CLR,0.00,VWS V14.01,2013-09-09 20:21:00,
2013-09-09 16:22:00,84.3,75.9,25.19,East,82,8.0,11.0,76,0.00,,CLR,0.00,VWS V14.01,2013-09-09 20:22:00,
2013-09-09 16:23:00,84.1,74.9,25.19,East,101,7.0,9.0,74,0.00,,CLR,0.00,VWS V14.01,2013-09-09 20:23:00,
2013-09-09 16:24:00,84.1,74.9,25.19,East,98,4.0,10.0,74,0.00,,CLR,0.00,VWS V14.01,2013-09-09 20:24:00,
2013-09-09 16:25:00,84.3,75.1,25.19,East,96,6.0,8.0,74,0.00,,BKN075,0.00,VWS V14.01,2013-09-09 20:25:00,
2013-09-09 16:26:00,84.3,75.1,25.19,East,96,6.0,8.0,74,0.00,,CLR,0.00,VWS V14.01,2013-09-09 20:26:00,
2013-09-09 16:27:00,84.3,75.5,25.19,East,96,9.0,9.0,75,0.00,,CLR,0.00,VWS V14.01,2013-09-09 20:27:00,
2013-09-09 16:28:00,84.3,75.5,25.19,East,97,9.0,9.0,75,0.00,,CLR,0.00,VWS V14.01,2013-09-09 20:28:00,
2013-09-09 16:29:00,84.3,75.1,25.19,East,97,9.0,9.0,74,0.00,,CLR,0.00,VWS V14.01,2013-09-09 20:29:00,
2013-09-09 16:30:00,84.3,75.1,25.19,East,92,6.0,9.0,74,0.00,,BKN075,0.00,VWS V14.01,2013-09-09 20:30:00,
2013-09-09 16:31:00,84.3,75.1,25.19,East,92,6.0,9.0,74,0.00,,CLR,0.00,VWS V14.01,2013-09-09 20:31:00,
2013-09-09 16:32:00,84.3,75.1,25.19,East,87,9.0,9.0,74,0.00,,CLR,0.00,VWS V14.01,2013-09-09 20:32:00,
2013-09-09 16:33:00,84.1,74.9,25.19,ESE,103,12.0,12.0,74,0.00,,CLR,0.00,VWS V14.01,2013-09-09 20:33:00,
2013-09-09 16:34:00,84.1,74.9,25.19,East,96,10.0,13.0,74,0.00,,CLR,0.00,VWS V14.01,2013-09-09 20:34:00,
2013-09-09 16:35:00,84.0,74.4,25.19,ESE,104,12.0,12.0,73,0.00,,BKN070,0.00,VWS V14.01,2013-09-09 20:35:00,
2013-09-09 16:36:00,84.0,74.4,25.19,ESE,104,12.0,12.0,73,0.00,,CLR,0.00,VWS V14.01,2013-09-09 20:36:00,
2013-09-09 16:37:00,84.0,74.8,25.19,East,98,10.0,12.0,74,0.00,,CLR,0.00,VWS V14.01,2013-09-09 20:37:00,
2013-09-09 16:38:00,84.0,75.2,25.19,ESE,107,11.0,11.0,75,0.00,,CLR,0.00,VWS V14.01,2013-09-09 20:38:00,
2013-09-09 16:39:00,84.0,74.4,25.19,East,98,11.0,11.0,73,0.00,,CLR,0.00,VWS V14.01,2013-09-09 20:39:00,
2013-09-09 16:40:00,84.0,74.4,25.19,ESE,103,11.0,11.0,73,0.00,,BKN070,0.00,VWS V14.01,2013-09-09 20:40:00,
2013-09-09 16:41:00,84.0,74.4,25.19,ESE,103,11.0,11.0,73,0.00,,CLR,0.00,VWS V14.01,2013-09-09 20:41:00,
2013-09-09 16:42:00,84.0,75.2,25.19,ESE,107,14.0,14.0,75,0.00,,CLR,0.00,VWS V14.01,2013-09-09 20:42:00,
2013-09-09 16:43:00,84.0,74.4,25.19,ESE,115,12.0,14.0,73,0.00,,CLR,0.00,VWS V14.01,2013-09-09 20:43:00,
2013-09-09 16:44:00,84.0,74.8,25.19,East,101,7.0,12.0,74,0.00,,CLR,0.00,VWS V14.01,2013-09-09 20:44:00,
2013-09-09 16:45:00,84.0,74.4,25.19,East,87,8.0,9.0,73,0.00,,BKN070,0.00,VWS V14.01,2013-09-09 20:45:00,
2013-09-09 16:46:00,84.0,74.4,25.19,East,87,8.0,9.0,73,0.00,,CLR,0.00,VWS V14.01,2013-09-09 20:46:00,
2013-09-09 16:47:00,84.1,74.5,25.19,East,86,6.0,8.0,73,0.00,,CLR,0.00,VWS V14.01,2013-09-09 20:47:00,
2013-09-09 16:48:00,84.1,74.1,25.19,ESE,107,11.0,11.0,72,0.00,,CLR,0.00,VWS V14.01,2013-09-09 20:48:00,
2013-09-09 16:49:00,84.3,74.7,25.19,ESE,111,10.0,11.0,73,0.00,,CLR,0.00,VWS V14.01,2013-09-09 20:49:00,
2013-09-09 16:50:00,84.1,74.1,25.19,East,94,8.0,10.0,72,0.00,,BKN070,0.00,VWS V14.01,2013-09-09 20:50:00,
2013-09-09 16:51:00,84.1,74.1,25.19,East,94,8.0,10.0,72,0.00,,CLR,0.00,VWS V14.01,2013-09-09 20:51:00,
2013-09-09 16:52:00,84.3,74.3,25.19,East,88,5.0,8.0,72,0.00,,CLR,0.00,VWS V14.01,2013-09-09 20:52:00,
2013-09-09 16:53:00,84.3,74.3,25.19,East,82,7.0,11.0,72,0.00,,CLR,0.00,VWS V14.01,2013-09-09 20:53:00,
2013-09-09 16:54:00,84.1,73.7,25.19,East,101,7.0,12.0,71,0.00,,CLR,0.00,VWS V14.01,2013-09-09 20:54:00,
2013-09-09 16:55:00,84.3,73.5,25.19,East,94,12.0,12.0,70,0.00,,BKN070,0.00,VWS V14.01,2013-09-09 20:55:00,
2013-09-09 16:56:00,84.3,73.5,25.19,East,94,12.0,12.0,70,0.00,,CLR,0.00,VWS V14.01,2013-09-09 20:56:00,
2013-09-09 16:57:00,84.1,73.7,25.19,East,100,10.0,12.0,71,0.00,,CLR,0.00,VWS V14.01,2013-09-09 20:57:00,
2013-09-09 16:58:00,84.1,73.3,25.19,ESE,105,10.0,10.0,70,0.00,,CLR,0.00,VWS V14.01,2013-09-09 20:58:00,
2013-09-09 16:59:00,84.1,73.7,25.19,East,96,6.0,10.0,71,0.00,,CLR,0.00,VWS V14.01,2013-09-09 20:59:00,
2013-09-09 17:00:00,84.1,73.7,24.71,ESE,108,11.0,13.0,71,0.00,,BKN070,0.00,VWS V14.01,2013-09-09 21:00:00,
2013-09-09 17:01:00,84.1,73.7,24.71,ESE,108,11.0,13.0,71,0.00,,CLR,0.00,VWS V14.01,2013-09-09 21:01:00,
2013-09-09 17:02:00,84.1,74.1,24.71,East,94,11.0,11.0,72,0.00,,CLR,0.00,VWS V14.01,2013-09-09 21:02:00,
2013-09-09 17:03:00,84.1,74.5,24.71,East,98,9.0,11.0,73,0.00,,CLR,0.00,VWS V14.01,2013-09-09 21:03:00,
2013-09-09 17:04:00,84.1,74.5,24.71,East,92,8.0,11.0,73,0.00,,CLR,0.00,VWS V14.01,2013-09-09 21:04:00,
2013-09-09 17:05:00,84.0,74.0,24.71,East,98,11.0,11.0,72,0.00,,BKN070,0.00,VWS V14.01,2013-09-09 21:05:00,
2013-09-09 17:06:00,84.0,74.0,24.71,East,98,11.0,11.0,72,0.00,,CLR,0.00,VWS V14.01,2013-09-09 21:06:00,
2013-09-09 17:07:00,84.0,74.0,24.71,ESE,102,9.0,13.0,72,0.00,,CLR,0.00,VWS V14.01,2013-09-09 21:07:00,
2013-09-09 17:08:00,84.0,74.4,24.71,ESE,105,5.0,9.0,73,0.00,,CLR,0.00,VWS V14.01,2013-09-09 21:08:00,
2013-09-09 17:09:00,84.0,74.4,24.71,East,79,10.0,10.0,73,0.00,,CLR,0.00,VWS V14.01,2013-09-09 21:09:00,
2013-09-09 17:10:00,84.0,74.4,24.71,East,98,6.0,9.0,73,0.00,,BKN070,0.00,VWS V14.01,2013-09-09 21:10:00,
2013-09-09 17:11:00,84.0,74.4,24.71,East,98,6.0,9.0,73,0.00,,CLR,0.00,VWS V14.01,2013-09-09 21:11:00,
2013-09-09 17:12:00,84.0,74.0,24.71,East,94,9.0,9.0,72,0.00,,CLR,0.00,VWS V14.01,2013-09-09 21:12:00,
2013-09-09 17:13:00,84.0,73.6,24.71,ESE,106,6.0,9.0,71,0.00,,CLR,0.00,VWS V14.01,2013-09-09 21:13:00,
2013-09-09 17:14:00,84.0,74.0,24.71,East,96,10.0,11.0,72,0.00,,CLR,0.00,VWS V14.01,2013-09-09 21:14:00,
2013-09-09 17:15:00,84.0,74.0,24.78,East,88,8.0,10.0,72,0.00,,BKN070,0.00,VWS V14.01,2013-09-09 21:15:00,
2013-09-09 17:16:00,84.0,73.6,24.78,ESE,109,6.0,10.0,71,0.00,,CLR,0.00,VWS V14.01,2013-09-09 21:16:00,
2013-09-09 17:17:00,83.8,72.6,24.78,East,93,8.0,11.0,69,0.00,,CLR,0.00,VWS V14.01,2013-09-09 21:17:00,
2013-09-09 17:18:00,83.8,73.4,24.78,ESE,105,7.0,15.0,71,0.00,,CLR,0.00,VWS V14.01,2013-09-09 21:18:00,
2013-09-09 17:20:00,83.8,73.8,24.78,East,101,9.0,9.0,72,0.00,,BKN070,0.00,VWS V14.01,2013-09-09 21:20:00,
2013-09-09 17:21:00,83.8,73.8,24.78,East,101,9.0,9.0,72,0.00,,CLR,0.00,VWS V14.01,2013-09-09 21:21:00,
2013-09-09 17:22:00,83.8,73.8,24.78,East,90,9.0,11.0,72,0.00,,CLR,0.00,VWS V14.01,2013-09-09 21:22:00,
2013-09-09 17:23:00,83.8,73.4,24.78,East,98,7.0,9.0,71,0.00,,CLR,0.00,VWS V14.01,2013-09-09 21:23:00,
2013-09-09 17:24:00,83.8,73.4,24.78,East,89,6.0,9.0,71,0.00,,CLR,0.00,VWS V14.01,2013-09-09 21:24:00,
2013-09-09 17:25:00,83.8,73.8,24.78,East,100,6.0,11.0,72,0.00,,BKN070,0.00,VWS V14.01,2013-09-09 21:25:00,
2013-09-09 17:26:00,83.8,73.8,24.78,East,100,6.0,11.0,72,0.00,,CLR,0.00,VWS V14.01,2013-09-09 21:26:00,
2013-09-09 17:27:00,84.0,74.0,24.78,ESE,104,9.0,9.0,72,0.00,,CLR,0.00,VWS V14.01,2013-09-09 21:27:00,
2013-09-09 17:28:00,84.0,74.4,24.78,East,93,4.0,9.0,73,0.00,,CLR,0.00,VWS V14.01,2013-09-09 21:28:00,
2013-09-09 17:29:00,84.0,74.0,24.78,East,85,7.0,9.0,72,0.00,,CLR,0.00,VWS V14.01,2013-09-09 21:29:00,
2013-09-09 17:30:00,84.0,73.6,24.78,East,86,5.0,6.0,71,0.00,,BKN070,0.00,VWS V14.01,2013-09-09 21:30:00,
2013-09-09 17:31:00,84.0,73.6,24.78,East,86,5.0,6.0,71,0.00,,CLR,0.00,VWS V14.01,2013-09-09 21:31:00,
2013-09-09 17:32:00,84.0,74.0,24.78,East,92,7.0,9.0,72,0.00,,CLR,0.00,VWS V14.01,2013-09-09 21:32:00,
2013-09-09 17:33:00,83.8,73.4,24.78,East,94,5.0,9.0,71,0.00,,CLR,0.00,VWS V14.01,2013-09-09 21:33:00,
2013-09-09 17:34:00,83.8,73.8,24.78,East,100,6.0,7.0,72,0.00,,CLR,0.00,VWS V14.01,2013-09-09 21:34:00,
2013-09-09 17:35:00,83.8,74.6,24.78,ESE,103,9.0,11.0,74,0.00,,BKN080,0.00,VWS V14.01,2013-09-09 21:35:00,
2013-09-09 17:36:00,83.8,74.6,24.78,ESE,103,9.0,11.0,74,0.00,,CLR,0.00,VWS V14.01,2013-09-09 21:36:00,
2013-09-09 17:37:00,83.8,74.2,24.78,ESE,106,11.0,11.0,73,0.00,,CLR,0.00,VWS V14.01,2013-09-09 21:37:00,
2013-09-09 17:38:00,83.6,74.0,24.78,ESE,107,10.0,12.0,73,0.00,,CLR,0.00,VWS V14.01,2013-09-09 21:38:00,
2013-09-09 17:39:00,83.8,74.6,24.78,East,84,8.0,10.0,74,0.00,,CLR,0.00,VWS V14.01,2013-09-09 21:39:00,
2013-09-09 17:40:00,83.6,74.0,24.78,East,98,9.0,11.0,73,0.00,,BKN080,0.00,VWS V14.01,2013-09-09 21:40:00,
2013-09-09 17:41:00,83.6,74.0,24.78,ESE,115,5.0,11.0,73,0.00,,CLR,0.00,VWS V14.01,2013-09-09 21:41:00,
2013-09-09 17:42:00,83.6,74.4,24.78,East,89,5.0,10.0,74,0.00,,CLR,0.00,VWS V14.01,2013-09-09 21:42:00,
2013-09-09 17:43:00,83.4,73.8,24.78,East,94,8.0,8.0,73,0.00,,CLR,0.00,VWS V14.01,2013-09-09 21:43:00,
2013-09-09 17:44:00,83.4,73.8,24.78,East,86,6.0,8.0,73,0.00,,CLR,0.00,VWS V14.01,2013-09-09 21:44:00,
2013-09-09 17:45:00,83.6,74.4,24.78,ESE,103,12.0,12.0,74,0.00,,BKN080,0.00,VWS V14.01,2013-09-09 21:45:00,
2013-09-09 17:46:00,83.6,74.4,24.78,East,95,10.0,12.0,74,0.00,,CLR,0.00,VWS V14.01,2013-09-09 21:46:00,
2013-09-09 17:47:00,83.6,74.4,24.78,ESE,105,10.0,10.0,74,0.00,,CLR,0.00,VWS V14.01,2013-09-09 21:47:00,
2013-09-09 17:48:00,83.6,74.4,24.78,East,92,5.0,10.0,74,0.00,,CLR,0.00,VWS V14.01,2013-09-09 21:48:00,
2013-09-09 17:49:00,83.6,74.4,24.78,East,101,5.0,5.0,74,0.00,,CLR,0.00,VWS V14.01,2013-09-09 21:49:00,
2013-09-09 17:50:00,83.6,74.8,24.78,ESE,103,6.0,6.0,75,0.00,,BKN080,0.00,VWS V14.01,2013-09-09 21:50:00,
2013-09-09 17:51:00,83.6,74.8,24.78,SE,124,6.0,6.0,75,0.00,,CLR,0.00,VWS V14.01,2013-09-09 21:51:00,
2013-09-09 17:52:00,83.4,74.7,24.78,East,95,5.0,7.0,75,0.00,,CLR,0.00,VWS V14.01,2013-09-09 21:52:00,
2013-09-09 17:53:00,83.4,74.2,24.78,East,90,7.0,7.0,74,0.00,,CLR,0.00,VWS V14.01,2013-09-09 21:53:00,
2013-09-09 17:54:00,83.4,74.7,24.78,East,94,5.0,7.0,75,0.00,,CLR,0.00,VWS V14.01,2013-09-09 21:54:00,
2013-09-09 17:55:00,83.4,74.7,24.78,East,94,7.0,7.0,75,0.00,,BKN080,0.00,VWS V14.01,2013-09-09 21:55:00,
2013-09-09 17:56:00,83.4,74.7,24.78,East,91,6.0,7.0,75,0.00,,CLR,0.00,VWS V14.01,2013-09-09 21:56:00,
2013-09-09 17:58:00,83.4,74.7,24.78,East,93,7.0,9.0,75,0.00,,CLR,0.00,VWS V14.01,2013-09-09 21:58:00,
2013-09-09 17:59:00,83.6,75.2,24.78,East,86,6.0,7.0,76,0.00,,CLR,0.00,VWS V14.01,2013-09-09 21:59:00,
2013-09-09 18:00:00,83.6,75.2,24.78,East,101,9.0,9.0,76,0.00,,BKN080,0.00,VWS V14.01,2013-09-09 22:00:00,
2013-09-09 18:01:00,83.6,75.2,24.78,East,94,7.0,9.0,76,0.00,,CLR,0.00,VWS V14.01,2013-09-09 22:01:00,
2013-09-09 18:02:00,83.4,75.0,24.78,East,92,5.0,7.0,76,0.00,,CLR,0.00,VWS V14.01,2013-09-09 22:02:00,
2013-09-09 18:03:00,83.4,75.0,24.78,East,95,6.0,7.0,76,0.00,,CLR,0.00,VWS V14.01,2013-09-09 22:03:00,
2013-09-09 18:04:00,83.4,74.7,24.78,East,86,6.0,7.0,75,0.00,,CLR,0.00,VWS V14.01,2013-09-09 22:04:00,
2013-09-09 18:05:00,83.4,74.7,24.78,East,84,5.0,7.0,75,0.00,,BKN080,0.00,VWS V14.01,2013-09-09 22:05:00,
2013-09-09 18:06:00,83.4,74.7,24.78,East,84,5.0,7.0,75,0.00,,CLR,0.00,VWS V14.01,2013-09-09 22:06:00,
2013-09-09 18:07:00,83.4,75.0,24.78,ENE,71,5.0,9.0,76,0.00,,CLR,0.00,VWS V14.01,2013-09-09 22:07:00,
2013-09-09 18:09:00,83.2,74.5,24.78,East,100,7.0,10.0,75,0.00,,CLR,0.00,VWS V14.01,2013-09-09 22:09:00,
2013-09-09 18:10:00,83.0,74.3,24.78,East,96,7.0,10.0,75,0.00,,BKN080,0.00,VWS V14.01,2013-09-09 22:10:00,
2013-09-09 18:11:00,83.0,74.3,24.78,East,96,7.0,10.0,75,0.00,,CLR,0.00,VWS V14.01,2013-09-09 22:11:00,
2013-09-09 18:12:00,83.0,74.7,24.78,East,92,6.0,9.0,76,0.00,,CLR,0.00,VWS V14.01,2013-09-09 22:12:00,
2013-09-09 18:13:00,82.8,74.1,24.78,East,86,7.0,8.0,75,0.00,,CLR,0.00,VWS V14.01,2013-09-09 22:13:00,
2013-09-09 18:14:00,82.8,74.1,24.78,ESE,104,8.0,8.0,75,0.00,,CLR,0.00,VWS V14.01,2013-09-09 22:14:00,
2013-09-09 18:15:00,82.6,73.5,24.78,East,97,7.0,9.0,74,0.00,,BKN080,0.00,VWS V14.01,2013-09-09 22:15:00,
2013-09-09 18:16:00,82.6,73.5,24.78,East,97,7.0,9.0,74,0.00,,CLR,0.00,VWS V14.01,2013-09-09 22:16:00,
2013-09-09 18:17:00,82.6,73.5,24.78,ESE,107,10.0,10.0,74,0.00,,CLR,0.00,VWS V14.01,2013-09-09 22:17:00,
2013-09-09 18:18:00,82.6,73.9,24.78,East,93,7.0,10.0,75,0.00,,CLR,0.00,VWS V14.01,2013-09-09 22:18:00,
2013-09-09 18:20:00,82.4,72.9,24.80,East,80,6.0,7.0,73,0.00,,BKN080,0.00,VWS V14.01,2013-09-09 22:20:00,
2013-09-09 18:23:00,82.4,72.9,24.80,East,94,6.0,6.0,73,0.00,,CLR,0.00,VWS V14.01,2013-09-09 22:23:00,
2013-09-09 18:25:00,82.4,72.9,25.95,East,92,7.0,10.0,73,0.00,,BKN080,0.00,VWS V14.01,2013-09-09 22:25:00,
2013-09-09 18:26:00,82.4,72.9,25.95,East,81,5.0,10.0,73,0.00,,CLR,0.00,VWS V14.01,2013-09-09 22:26:00,
2013-09-09 18:27:00,82.4,72.5,25.95,ENE,68,10.0,10.0,72,0.00,,CLR,0.00,VWS V14.01,2013-09-09 22:27:00,
2013-09-09 18:28:00,82.4,72.5,25.95,East,101,6.0,10.0,72,0.00,,CLR,0.00,VWS V14.01,2013-09-09 22:28:00,
2013-09-09 18:29:00,82.4,72.9,25.95,East,99,10.0,10.0,73,0.00,,CLR,0.00,VWS V14.01,2013-09-09 22:29:00,
2013-09-09 18:30:00,82.4,72.9,25.95,East,95,4.0,7.0,73,0.00,,BKN080,0.00,VWS V14.01,2013-09-09 22:30:00,
2013-09-09 18:31:00,82.4,72.9,25.95,East,92,5.0,7.0,73,0.00,,CLR,0.00,VWS V14.01,2013-09-09 22:31:00,
2013-09-09 18:32:00,82.4,73.3,25.95,East,98,7.0,7.0,74,0.00,,CLR,0.00,VWS V14.01,2013-09-09 22:32:00,
2013-09-09 18:33:00,82.4,73.3,25.95,East,86,7.0,7.0,74,0.00,,CLR,0.00,VWS V14.01,2013-09-09 22:33:00,
2013-09-09 18:34:00,82.6,73.9,25.95,East,95,6.0,7.0,75,0.00,,CLR,0.00,VWS V14.01,2013-09-09 22:34:00,
2013-09-09 18:35:00,82.4,73.7,25.95,East,94,4.0,6.0,75,0.00,,BKN200,0.00,VWS V14.01,2013-09-09 22:35:00,
2013-09-09 18:36:00,82.4,73.7,25.95,East,88,6.0,6.0,75,0.00,,CLR,0.00,VWS V14.01,2013-09-09 22:36:00,
2013-09-09 18:37:00,82.4,73.3,25.95,ESE,104,6.0,6.0,74,0.00,,CLR,0.00,VWS V14.01,2013-09-09 22:37:00,
2013-09-09 18:38:00,82.4,74.1,27.54,ENE,76,7.0,7.0,76,0.00,,CLR,0.00,VWS V14.01,2013-09-09 22:38:00,
2013-09-09 18:39:00,82.4,74.1,27.54,East,93,6.0,9.0,76,0.00,,CLR,0.00,VWS V14.01,2013-09-09 22:39:00,
2013-09-09 18:40:00,82.2,72.7,27.54,East,93,6.0,7.0,73,0.00,,BKN200,0.00,VWS V14.01,2013-09-09 22:40:00,
2013-09-09 18:41:00,82.2,72.7,27.54,East,93,6.0,7.0,73,0.00,,CLR,0.00,VWS V14.01,2013-09-09 22:41:00,
2013-09-09 18:43:00,82.2,72.7,27.54,East,97,9.0,10.0,73,0.00,,CLR,0.00,VWS V14.01,2013-09-09 22:43:00,
2013-09-09 18:44:00,82.2,73.1,27.54,East,98,6.0,9.0,74,0.00,,CLR,0.00,VWS V14.01,2013-09-09 22:44:00,
2013-09-09 18:45:00,82.2,72.7,27.54,East,94,7.0,9.0,73,0.00,,BKN200,0.00,VWS V14.01,2013-09-09 22:45:00,
2013-09-09 18:47:00,82.2,72.7,27.54,East,97,6.0,8.0,73,0.00,,CLR,0.00,VWS V14.01,2013-09-09 22:47:00,
2013-09-09 18:48:00,82.2,72.7,27.54,East,97,7.0,7.0,73,0.00,,CLR,0.00,VWS V14.01,2013-09-09 22:48:00,
2013-09-09 18:49:00,82.2,72.7,27.54,East,98,7.0,7.0,73,0.00,,CLR,0.00,VWS V14.01,2013-09-09 22:49:00,
2013-09-09 18:50:00,82.2,72.7,27.54,East,95,9.0,9.0,73,0.00,,BKN200,0.00,VWS V14.01,2013-09-09 22:50:00,
2013-09-09 18:51:00,82.2,72.7,27.54,East,95,9.0,9.0,73,0.00,,CLR,0.00,VWS V14.01,2013-09-09 22:51:00,
2013-09-09 18:52:00,82.2,72.7,27.54,ENE,65,5.0,9.0,73,0.00,,CLR,0.00,VWS V14.01,2013-09-09 22:52:00,
2013-09-09 18:53:00,82.2,72.7,27.54,East,79,5.0,10.0,73,0.00,,CLR,0.00,VWS V14.01,2013-09-09 22:53:00,
2013-09-09 18:54:00,82.2,72.7,27.54,East,92,5.0,7.0,73,0.00,,CLR,0.00,VWS V14.01,2013-09-09 22:54:00,
2013-09-09 18:55:00,82.2,73.1,27.54,ESE,105,9.0,9.0,74,0.00,,BKN200,0.00,VWS V14.01,2013-09-09 22:55:00,
2013-09-09 18:56:00,82.2,73.1,27.54,East,84,8.0,9.0,74,0.00,,CLR,0.00,VWS V14.01,2013-09-09 22:56:00,
2013-09-09 18:57:00,82.2,72.7,27.54,East,101,6.0,10.0,73,0.00,,CLR,0.00,VWS V14.01,2013-09-09 22:57:00,
2013-09-09 18:58:00,82.2,73.1,27.54,East,95,6.0,7.0,74,0.00,,CLR,0.00,VWS V14.01,2013-09-09 22:58:00,
2013-09-09 18:59:00,82.2,73.5,27.54,East,97,9.0,9.0,75,0.00,,CLR,0.00,VWS V14.01,2013-09-09 22:59:00,
2013-09-09 19:00:00,82.2,73.1,27.54,ESE,105,7.0,7.0,74,0.00,,BKN200,0.00,VWS V14.01,2013-09-09 23:00:00,
2013-09-09 19:01:00,82.2,73.1,27.54,ESE,108,7.0,7.0,74,0.00,,CLR,0.00,VWS V14.01,2013-09-09 23:01:00,
2013-09-09 19:02:00,82.2,72.7,27.54,East,98,6.0,10.0,73,0.00,,CLR,0.00,VWS V14.01,2013-09-09 23:02:00,
2013-09-09 19:03:00,82.2,73.5,27.54,East,94,7.0,7.0,75,0.00,,CLR,0.00,VWS V14.01,2013-09-09 23:03:00,
2013-09-09 19:04:00,82.4,73.7,27.54,East,97,6.0,7.0,75,0.00,,CLR,0.00,VWS V14.01,2013-09-09 23:04:00,
2013-09-09 19:05:00,82.2,73.1,27.54,East,99,6.0,10.0,74,0.00,,BKN200,0.00,VWS V14.01,2013-09-09 23:05:00,
2013-09-09 19:06:00,82.2,73.1,27.54,East,94,8.0,10.0,74,0.00,,CLR,0.00,VWS V14.01,2013-09-09 23:06:00,
2013-09-09 19:07:00,82.2,73.5,27.54,East,88,8.0,10.0,75,0.00,,CLR,0.00,VWS V14.01,2013-09-09 23:07:00,
2013-09-09 19:09:00,82.2,73.1,29.07,East,86,7.0,11.0,74,0.00,,CLR,0.00,VWS V14.01,2013-09-09 23:09:00,
2013-09-09 19:10:00,82.2,73.5,29.07,East,82,3.0,5.0,75,0.00,,BKN200,0.00,VWS V14.01,2013-09-09 23:10:00,
2013-09-09 19:11:00,82.2,73.5,29.07,East,91,5.0,5.0,75,0.00,,CLR,0.00,VWS V14.01,2013-09-09 23:11:00,
2013-09-09 19:12:00,82.2,73.5,29.07,East,84,5.0,6.0,75,0.00,,CLR,0.00,VWS V14.01,2013-09-09 23:12:00,
2013-09-09 19:13:00,82.2,73.1,29.07,East,91,9.0,9.0,74,0.00,,CLR,0.00,VWS V14.01,2013-09-09 23:13:00,
2013-09-09 19:14:00,82.2,73.5,29.07,East,88,7.0,9.0,75,0.00,,CLR,0.00,VWS V14.01,2013-09-09 23:14:00,
2013-09-09 19:15:00,82.2,73.5,29.07,East,79,5.0,6.0,75,0.00,,BKN200,0.00,VWS V14.01,2013-09-09 23:15:00,
2013-09-09 19:16:00,82.2,73.5,29.07,East,86,7.0,7.0,75,0.00,,CLR,0.00,VWS V14.01,2013-09-09 23:16:00,
2013-09-09 19:17:00,82.0,72.9,29.07,ENE,76,7.0,7.0,74,0.00,,CLR,0.00,VWS V14.01,2013-09-09 23:17:00,
2013-09-09 19:18:00,82.2,73.1,29.07,East,93,4.0,7.0,74,0.00,,CLR,0.00,VWS V14.01,2013-09-09 23:18:00,
2013-09-09 19:19:00,82.2,73.5,29.07,East,97,9.0,9.0,75,0.00,,CLR,0.00,VWS V14.01,2013-09-09 23:19:00,
2013-09-09 19:20:00,82.0,73.3,29.07,ESE,103,10.0,10.0,75,0.00,,BKN200,0.00,VWS V14.01,2013-09-09 23:20:00,
2013-09-09 19:21:00,82.0,73.3,29.07,East,96,7.0,10.0,75,0.00,,CLR,0.00,VWS V14.01,2013-09-09 23:21:00,
2013-09-09 19:22:00,82.0,72.9,29.07,East,100,6.0,10.0,74,0.00,,CLR,0.00,VWS V14.01,2013-09-09 23:22:00,
2013-09-09 19:23:00,82.0,72.9,29.07,ESE,105,7.0,7.0,74,0.00,,CLR,0.00,VWS V14.01,2013-09-09 23:23:00,
2013-09-09 19:24:00,82.0,73.7,29.07,East,96,6.0,9.0,76,0.00,,CLR,0.00,VWS V14.01,2013-09-09 23:24:00,
2013-09-09 19:25:00,82.0,73.3,29.07,East,92,7.0,7.0,75,0.00,,BKN200,0.00,VWS V14.01,2013-09-09 23:25:00,
2013-09-09 19:26:00,82.0,73.3,29.07,East,92,7.0,7.0,75,0.00,,CLR,0.00,VWS V14.01,2013-09-09 23:26:00,
2013-09-09 19:28:00,82.0,73.7,28.68,East,90,10.0,10.0,76,0.00,,CLR,0.00,VWS V14.01,2013-09-09 23:28:00,
2013-09-09 19:29:00,82.0,73.7,28.68,East,85,7.0,10.0,76,0.00,,CLR,0.00,VWS V14.01,2013-09-09 23:29:00,
2013-09-09 19:30:00,82.0,74.1,28.59,ENE,78,7.0,10.0,77,0.00,,BKN200,0.00,VWS V14.01,2013-09-09 23:30:00,
2013-09-09 19:31:00,82.0,74.1,28.59,ENE,78,7.0,10.0,77,0.00,,CLR,0.00,VWS V14.01,2013-09-09 23:31:00,
2013-09-09 19:32:00,82.0,75.6,28.59,East,90,10.0,11.0,81,0.00,,CLR,0.00,VWS V14.01,2013-09-09 23:32:00,
2013-09-09 19:33:00,82.0,74.1,28.59,East,86,5.0,10.0,77,0.00,,CLR,0.00,VWS V14.01,2013-09-09 23:33:00,
2013-09-09 19:34:00,81.8,73.9,28.59,ENE,59,6.0,6.0,77,0.00,,CLR,0.00,VWS V14.01,2013-09-09 23:34:00,
2013-09-09 19:35:00,82.0,74.1,28.59,ESE,104,6.0,7.0,77,0.00,,BKN200,0.00,VWS V14.01,2013-09-09 23:35:00,
2013-09-09 19:36:00,82.0,74.1,28.59,East,85,6.0,7.0,77,0.00,,CLR,0.00,VWS V14.01,2013-09-09 23:36:00,
2013-09-09 19:37:00,82.0,74.5,28.59,East,90,8.0,11.0,78,0.00,,CLR,0.00,VWS V14.01,2013-09-09 23:37:00,
2013-09-09 19:38:00,81.8,73.9,28.59,ESE,105,10.0,11.0,77,0.00,,CLR,0.00,VWS V14.01,2013-09-09 23:38:00,
2013-09-09 19:39:00,81.8,73.9,28.59,East,90,6.0,10.0,77,0.00,,CLR,0.00,VWS V14.01,2013-09-09 23:39:00,
2013-09-09 19:40:00,81.6,73.7,28.59,East,90,5.0,6.0,77,0.00,,BKN200,0.00,VWS V14.01,2013-09-09 23:40:00,
2013-09-09 19:41:00,81.6,73.7,28.59,East,94,5.0,6.0,77,0.00,,CLR,0.00,VWS V14.01,2013-09-09 23:41:00,
2013-09-09 19:42:00,81.8,73.9,28.59,East,79,9.0,11.0,77,0.00,,CLR,0.00,VWS V14.01,2013-09-09 23:42:00,
2013-09-09 19:43:00,81.8,74.3,28.59,East,80,8.0,10.0,78,0.00,,CLR,0.00,VWS V14.01,2013-09-09 23:43:00,
2013-09-09 19:44:00,81.8,74.7,28.59,NE,49,7.0,8.0,79,0.00,,CLR,0.00,VWS V14.01,2013-09-09 23:44:00,
2013-09-09 19:45:00,81.8,75.0,28.59,East,85,6.0,8.0,80,0.00,,BKN200,0.00,VWS V14.01,2013-09-09 23:45:00,
2013-09-09 19:46:00,81.8,75.0,28.59,East,93,9.0,9.0,80,0.00,,CLR,0.00,VWS V14.01,2013-09-09 23:46:00,
2013-09-09 19:47:00,81.8,74.7,28.59,East,84,5.0,9.0,79,0.00,,CLR,0.00,VWS V14.01,2013-09-09 23:47:00,
2013-09-09 19:49:00,81.6,74.5,28.59,ESE,108,10.0,10.0,79,0.00,,CLR,0.00,VWS V14.01,2013-09-09 23:49:00,
2013-09-09 19:50:00,81.6,74.5,28.59,East,97,7.0,7.0,79,0.00,,BKN200,0.00,VWS V14.01,2013-09-09 23:50:00,
2013-09-09 19:51:00,81.6,74.5,28.59,East,92,9.0,9.0,79,0.00,,CLR,0.00,VWS V14.01,2013-09-09 23:51:00,
2013-09-09 19:52:00,81.6,74.5,28.59,ENE,74,10.0,11.0,79,0.00,,CLR,0.00,VWS V14.01,2013-09-09 23:52:00,
2013-09-09 19:53:00,81.6,74.5,28.59,East,89,6.0,10.0,79,0.00,,CLR,0.00,VWS V14.01,2013-09-09 23:53:00,
2013-09-09 19:54:00,81.6,74.5,28.59,East,100,7.0,8.0,79,0.00,,CLR,0.00,VWS V14.01,2013-09-09 23:54:00,
2013-09-09 19:55:00,81.6,74.8,28.59,East,101,7.0,9.0,80,0.00,,BKN200,0.00,VWS V14.01,2013-09-09 23:55:00,
2013-09-09 19:56:00,81.6,74.8,28.59,East,101,7.0,9.0,80,0.00,,CLR,0.00,VWS V14.01,2013-09-09 23:56:00,
2013-09-09 19:57:00,81.6,74.8,28.59,East,101,4.0,7.0,80,0.00,,CLR,0.00,VWS V14.01,2013-09-09 23:57:00,
2013-09-09 19:58:00,81.6,74.8,28.59,East,86,7.0,7.0,80,0.00,,CLR,0.00,VWS V14.01,2013-09-09 23:58:00,
2013-09-09 19:59:00,81.6,74.8,28.75,ENE,73,7.0,7.0,80,0.00,,CLR,0.00,VWS V14.01,2013-09-09 23:59:00,
2013-09-09 20:00:00,81.6,74.8,28.74,ESE,102,7.0,7.0,80,0.00,,BKN200,0.00,VWS V14.01,2013-09-10 00:00:00,
2013-09-09 20:01:00,81.6,74.8,28.74,ESE,102,7.0,7.0,80,0.00,,CLR,0.00,VWS V14.01,2013-09-10 00:01:00,
2013-09-09 20:02:00,81.6,74.8,28.74,East,84,4.0,7.0,80,0.00,,CLR,0.00,VWS V14.01,2013-09-10 00:02:00,
2013-09-09 20:03:00,81.4,74.6,28.74,East,96,6.0,6.0,80,0.00,,CLR,0.00,VWS V14.01,2013-09-10 00:03:00,
2013-09-09 20:04:00,81.4,74.6,28.74,East,94,4.0,6.0,80,0.00,,CLR,0.00,VWS V14.01,2013-09-10 00:04:00,
2013-09-09 20:05:00,81.4,74.6,28.74,East,91,10.0,10.0,80,0.00,,SCT200,0.00,VWS V14.01,2013-09-10 00:05:00,
2013-09-09 20:06:00,81.4,74.6,28.74,East,91,10.0,10.0,80,0.00,,CLR,0.00,VWS V14.01,2013-09-10 00:06:00,
2013-09-09 20:07:00,81.4,74.6,28.74,ESE,102,6.0,10.0,80,0.00,,CLR,0.00,VWS V14.01,2013-09-10 00:07:00,
2013-09-09 20:08:00,81.4,74.6,28.74,East,91,5.0,9.0,80,0.00,,CLR,0.00,VWS V14.01,2013-09-10 00:08:00,
2013-09-09 20:09:00,81.4,74.6,28.74,East,93,9.0,9.0,80,0.00,,CLR,0.00,VWS V14.01,2013-09-10 00:09:00,
2013-09-09 20:10:00,81.4,74.6,28.74,East,91,9.0,10.0,80,0.00,,SCT200,0.00,VWS V14.01,2013-09-10 00:10:00,
2013-09-09 20:11:00,81.4,74.6,28.74,East,91,9.0,10.0,80,0.00,,CLR,0.00,VWS V14.01,2013-09-10 00:11:00,
2013-09-09 20:12:00,81.4,74.6,28.70,East,98,5.0,10.0,80,0.00,,CLR,0.00,VWS V14.01,2013-09-10 00:12:00,
2013-09-09 20:13:00,81.4,74.6,28.70,East,96,7.0,9.0,80,0.00,,CLR,0.00,VWS V14.01,2013-09-10 00:13:00,
2013-09-09 20:14:00,81.4,75.0,28.70,East,88,6.0,9.0,81,0.00,,CLR,0.00,VWS V14.01,2013-09-10 00:14:00,
2013-09-09 20:15:00,81.2,74.4,28.70,East,86,6.0,6.0,80,0.00,,SCT200,0.00,VWS V14.01,2013-09-10 00:15:00,
2013-09-09 20:16:00,81.2,74.4,28.70,East,86,6.0,6.0,80,0.00,,CLR,0.00,VWS V14.01,2013-09-10 00:16:00,
2013-09-09 20:17:00,81.2,74.4,28.70,ENE,76,3.0,9.0,80,0.00,,CLR,0.00,VWS V14.01,2013-09-10 00:17:00,
2013-09-09 20:18:00,81.2,74.4,28.70,East,84,4.0,6.0,80,0.00,,CLR,0.00,VWS V14.01,2013-09-10 00:18:00,
2013-09-09 20:19:00,81.2,74.4,28.70,ENE,75,4.0,5.0,80,0.00,,CLR,0.00,VWS V14.01,2013-09-10 00:19:00,
2013-09-09 20:20:00,81.2,74.4,28.70,East,95,4.0,5.0,80,0.00,,SCT200,0.00,VWS V14.01,2013-09-10 00:20:00,
2013-09-09 20:21:00,81.2,74.4,28.70,East,95,4.0,5.0,80,0.00,,CLR,0.00,VWS V14.01,2013-09-10 00:21:00,
2013-09-09 20:22:00,81.2,74.8,28.70,East,94,7.0,7.0,81,0.00,,CLR,0.00,VWS V14.01,2013-09-10 00:22:00,
2013-09-09 20:23:00,81.2,74.4,28.70,East,95,7.0,9.0,80,0.00,,CLR,0.00,VWS V14.01,2013-09-10 00:23:00,
2013-09-09 20:24:00,81.2,74.4,28.70,ESE,105,5.0,7.0,80,0.00,,CLR,0.00,VWS V14.01,2013-09-10 00:24:00,
2013-09-09 20:25:00,81.4,75.0,28.72,East,100,6.0,9.0,81,0.00,,SCT200,0.00,VWS V14.01,2013-09-10 00:25:00,
2013-09-09 20:26:00,81.4,75.0,28.72,East,95,7.0,9.0,81,0.00,,CLR,0.00,VWS V14.01,2013-09-10 00:26:00,
2013-09-09 20:27:00,81.6,75.6,28.61,East,86,5.0,7.0,82,0.00,,CLR,0.00,VWS V14.01,2013-09-10 00:27:00,
2013-09-09 20:28:00,81.4,75.0,28.61,East,99,4.0,5.0,81,0.00,,CLR,0.00,VWS V14.01,2013-09-10 00:28:00,
2013-09-09 20:29:00,81.4,75.0,28.61,ESE,105,6.0,6.0,81,0.00,,CLR,0.00,VWS V14.01,2013-09-10 00:29:00,
2013-09-09 20:30:00,81.4,75.0,28.65,ENE,75,6.0,7.0,81,0.00,,SCT200,0.00,VWS V14.01,2013-09-10 00:30:00,
2013-09-09 20:31:00,81.4,75.0,28.65,ENE,75,6.0,7.0,81,0.00,,CLR,0.00,VWS V14.01,2013-09-10 00:31:00,
2013-09-09 20:32:00,81.4,74.6,28.65,ESE,116,5.0,7.0,80,0.00,,CLR,0.00,VWS V14.01,2013-09-10 00:32:00,
2013-09-09 20:33:00,81.4,75.0,28.65,SE,125,6.0,8.0,81,0.00,,CLR,0.00,VWS V14.01,2013-09-10 00:33:00,
2013-09-09 20:34:00,81.4,75.0,28.65,ESE,108,5.0,10.0,81,0.00,,CLR,0.00,VWS V14.01,2013-09-10 00:34:00,
2013-09-09 20:35:00,81.4,75.0,28.65,East,85,6.0,7.0,81,0.00,,SCT200,0.00,VWS V14.01,2013-09-10 00:35:00,
2013-09-09 20:36:00,81.4,75.0,28.65,East,85,6.0,7.0,81,0.00,,CLR,0.00,VWS V14.01,2013-09-10 00:36:00,
2013-09-09 20:37:00,81.2,74.4,28.64,East,93,5.0,6.0,80,0.00,,CLR,0.00,VWS V14.01,2013-09-10 00:37:00,
2013-09-09 20:38:00,81.4,75.0,28.64,East,94,4.0,5.0,81,0.00,,CLR,0.00,VWS V14.01,2013-09-10 00:38:00,
2013-09-09 20:39:00,81.2,74.8,28.64,ESE,105,8.0,9.0,81,0.00,,CLR,0.00,VWS V14.01,2013-09-10 00:39:00,
2013-09-09 20:40:00,81.4,75.0,28.64,ESE,110,5.0,6.0,81,0.00,,SCT200,0.00,VWS V14.01,2013-09-10 00:40:00,
2013-09-09 20:41:00,81.4,75.0,28.64,ESE,110,5.0,6.0,81,0.00,,CLR,0.00,VWS V14.01,2013-09-10 00:41:00,
2013-09-09 20:42:00,81.4,75.0,28.64,East,92,5.0,6.0,81,0.00,,CLR,0.00,VWS V14.01,2013-09-10 00:42:00,
2013-09-09 20:43:00,81.4,75.0,28.64,East,81,7.0,8.0,81,0.00,,CLR,0.00,VWS V14.01,2013-09-10 00:43:00,
2013-09-09 20:44:00,81.2,74.8,28.64,East,81,9.0,9.0,81,0.00,,CLR,0.00,VWS V14.01,2013-09-10 00:44:00,
2013-09-09 20:45:00,81.2,74.8,28.64,East,94,5.0,7.0,81,0.00,,SCT200,0.00,VWS V14.01,2013-09-10 00:45:00,
2013-09-09 20:46:00,81.2,74.8,28.64,East,94,5.0,7.0,81,0.00,,CLR,0.00,VWS V14.01,2013-09-10 00:46:00,
2013-09-09 20:47:00,81.2,74.8,28.64,East,97,7.0,7.0,81,0.00,,CLR,0.00,VWS V14.01,2013-09-10 00:47:00,
2013-09-09 20:48:00,81.2,74.8,28.60,East,98,7.0,9.0,81,0.00,,CLR,0.00,VWS V14.01,2013-09-10 00:48:00,
2013-09-09 20:49:00,81.2,74.8,28.58,East,90,5.0,7.0,81,0.00,,CLR,0.00,VWS V14.01,2013-09-10 00:49:00,
2013-09-09 20:50:00,81.2,74.4,28.58,ENE,69,6.0,7.0,80,0.00,,SCT200,0.00,VWS V14.01,2013-09-10 00:50:00,
2013-09-09 20:51:00,81.2,74.4,28.58,ENE,69,6.0,7.0,80,0.00,,CLR,0.00,VWS V14.01,2013-09-10 00:51:00,
2013-09-09 20:52:00,81.2,74.8,28.58,East,95,5.0,11.0,81,0.00,,CLR,0.00,VWS V14.01,2013-09-10 00:52:00,
2013-09-09 20:53:00,81.2,74.8,28.68,East,95,6.0,6.0,81,0.00,,CLR,0.00,VWS V14.01,2013-09-10 00:53:00,
2013-09-09 20:54:00,81.4,75.4,28.68,East,92,7.0,7.0,82,0.00,,CLR,0.00,VWS V14.01,2013-09-10 00:54:00,
2013-09-09 20:55:00,81.4,75.4,28.68,East,93,9.0,9.0,82,0.00,,SCT200,0.00,VWS V14.01,2013-09-10 00:55:00,
2013-09-09 20:56:00,81.4,75.4,28.68,ESE,105,6.0,9.0,82,0.00,,CLR,0.00,VWS V14.01,2013-09-10 00:56:00,
2013-09-09 20:57:00,81.4,75.4,28.68,East,94,7.0,7.0,82,0.00,,CLR,0.00,VWS V14.01,2013-09-10 00:57:00,
2013-09-09 20:58:00,81.4,75.4,28.68,ESE,106,5.0,7.0,82,0.00,,CLR,0.00,VWS V14.01,2013-09-10 00:58:00,
2013-09-09 20:59:00,81.4,75.4,28.68,ESE,120,6.0,10.0,82,0.00,,CLR,0.00,VWS V14.01,2013-09-10 00:59:00,
2013-09-09 21:00:00,81.2,74.8,28.68,East,96,6.0,6.0,81,0.00,,SCT200,0.00,VWS V14.01,2013-09-10 01:00:00,
2013-09-09 21:01:00,81.2,74.8,28.68,ESE,106,6.0,6.0,81,0.00,,CLR,0.00,VWS V14.01,2013-09-10 01:01:00,
2013-09-09 21:02:00,81.2,74.8,28.68,East,92,7.0,7.0,81,0.00,,CLR,0.00,VWS V14.01,2013-09-10 01:02:00,
2013-09-09 21:03:00,81.2,74.8,28.68,ESE,102,7.0,7.0,81,0.00,,CLR,0.00,VWS V14.01,2013-09-10 01:03:00,
2013-09-09 21:04:00,81.4,75.4,28.68,East,89,7.0,9.0,82,0.00,,CLR,0.00,VWS V14.01,2013-09-10 01:04:00,
2013-09-09 21:05:00,81.2,75.2,28.68,East,92,5.0,7.0,82,0.00,,SCT200,0.00,VWS V14.01,2013-09-10 01:05:00,
2013-09-09 21:06:00,81.2,75.2,28.68,East,92,5.0,7.0,82,0.00,,CLR,0.00,VWS V14.01,2013-09-10 01:06:00,
2013-09-09 21:07:00,81.2,74.8,28.68,East,97,7.0,7.0,81,0.00,,CLR,0.00,VWS V14.01,2013-09-10 01:07:00,
2013-09-09 21:08:00,81.4,75.4,28.68,East,97,6.0,9.0,82,0.00,,CLR,0.00,VWS V14.01,2013-09-10 01:08:00,
2013-09-09 21:09:00,81.2,75.2,28.68,East,98,6.0,6.0,82,0.00,,CLR,0.00,VWS V14.01,2013-09-10 01:09:00,
2013-09-09 21:10:00,81.2,75.2,28.68,East,98,5.0,6.0,82,0.00,,SCT200,0.00,VWS V14.01,2013-09-10 01:10:00,
2013-09-09 21:11:00,81.2,75.2,28.68,East,98,5.0,6.0,82,0.00,,CLR,0.00,VWS V14.01,2013-09-10 01:11:00,
2013-09-09 21:12:00,81.2,74.8,28.95,East,101,7.0,7.0,81,0.00,,CLR,0.00,VWS V14.01,2013-09-10 01:12:00,
2013-09-09 21:13:00,81.2,75.2,28.95,East,94,5.0,9.0,82,0.00,,CLR,0.00,VWS V14.01,2013-09-10 01:13:00,
2013-09-09 21:14:00,81.2,75.2,28.95,East,92,7.0,7.0,82,0.00,,CLR,0.00,VWS V14.01,2013-09-10 01:14:00,
2013-09-09 21:15:00,81.4,75.4,28.95,East,87,6.0,6.0,82,0.00,,SCT200,0.00,VWS V14.01,2013-09-10 01:15:00,
2013-09-09 21:16:00,81.4,75.4,28.95,East,87,6.0,6.0,82,0.00,,CLR,0.00,VWS V14.01,2013-09-10 01:16:00,
2013-09-09 21:17:00,81.4,75.4,28.95,ESE,104,4.0,7.0,82,0.00,,CLR,0.00,VWS V14.01,2013-09-10 01:17:00,
2013-09-09 21:18:00,81.4,75.7,28.95,East,93,3.0,5.0,83,0.00,,CLR,0.00,VWS V14.01,2013-09-10 01:18:00,
2013-09-09 21:19:00,81.4,75.4,28.95,East,97,6.0,7.0,82,0.00,,CLR,0.00,VWS V14.01,2013-09-10 01:19:00,
2013-09-09 21:20:00,81.4,75.4,28.95,East,90,5.0,9.0,82,0.00,,SCT200,0.00,VWS V14.01,2013-09-10 01:20:00,
2013-09-09 21:21:00,81.4,75.4,28.95,East,90,5.0,9.0,82,0.00,,CLR,0.00,VWS V14.01,2013-09-10 01:21:00,
2013-09-09 21:22:00,81.2,75.2,28.95,East,87,2.0,6.0,82,0.00,,CLR,0.00,VWS V14.01,2013-09-10 01:22:00,
2013-09-09 21:23:00,81.4,75.4,28.95,East,92,5.0,5.0,82,0.00,,CLR,0.00,VWS V14.01,2013-09-10 01:23:00,
2013-09-09 21:24:00,81.4,75.4,28.95,East,92,6.0,6.0,82,0.00,,CLR,0.00,VWS V14.01,2013-09-10 01:24:00,
2013-09-09 21:25:00,81.4,75.4,28.91,East,98,7.0,7.0,82,0.00,,SCT200,0.00,VWS V14.01,2013-09-10 01:25:00,
2013-09-09 21:26:00,81.4,75.4,28.91,East,97,5.0,7.0,82,0.00,,CLR,0.00,VWS V14.01,2013-09-10 01:26:00,
2013-09-09 21:28:00,81.4,75.4,28.91,East,88,6.0,9.0,82,0.00,,CLR,0.00,VWS V14.01,2013-09-10 01:28:00,
2013-09-09 21:29:00,81.2,75.2,28.91,East,90,5.0,6.0,82,0.00,,CLR,0.00,VWS V14.01,2013-09-10 01:29:00,
2013-09-09 21:30:00,81.2,75.2,28.91,ENE,66,4.0,7.0,82,0.00,,SCT200,0.00,VWS V14.01,2013-09-10 01:30:00,
2013-09-09 21:31:00,81.2,75.2,28.91,ENE,67,4.0,7.0,82,0.00,,CLR,0.00,VWS V14.01,2013-09-10 01:31:00,
2013-09-09 21:32:00,81.2,75.2,28.91,East,99,6.0,6.0,82,0.00,,CLR,0.00,VWS V14.01,2013-09-10 01:32:00,
2013-09-09 21:33:00,81.2,75.2,28.91,ENE,78,3.0,7.0,82,0.00,,CLR,0.00,VWS V14.01,2013-09-10 01:33:00,
2013-09-09 21:34:00,81.2,75.2,28.71,East,80,5.0,5.0,82,0.00,,CLR,0.00,VWS V14.01,2013-09-10 01:34:00,
2013-09-09 21:35:00,81.4,75.7,28.71,East,92,6.0,6.0,83,0.00,,SCT200,0.00,VWS V14.01,2013-09-10 01:35:00,
2013-09-09 21:36:00,81.4,75.7,28.71,East,93,5.0,6.0,83,0.00,,CLR,0.00,VWS V14.01,2013-09-10 01:36:00,
2013-09-09 21:37:00,81.4,75.7,28.71,East,97,6.0,6.0,83,0.00,,CLR,0.00,VWS V14.01,2013-09-10 01:37:00,
2013-09-09 21:38:00,81.4,75.7,28.71,East,79,5.0,6.0,83,0.00,,CLR,0.00,VWS V14.01,2013-09-10 01:38:00,
2013-09-09 21:39:00,81.4,75.7,28.71,ESE,102,6.0,6.0,83,0.00,,CLR,0.00,VWS V14.01,2013-09-10 01:39:00,
2013-09-09 21:40:00,81.4,75.4,28.71,East,92,7.0,7.0,82,0.00,,SCT200,0.00,VWS V14.01,2013-09-10 01:40:00,
2013-09-09 21:41:00,81.4,75.4,28.71,ESE,104,6.0,7.0,82,0.00,,CLR,0.00,VWS V14.01,2013-09-10 01:41:00,
2013-09-09 21:42:00,81.4,75.4,28.71,East,100,6.0,8.0,82,0.00,,CLR,0.00,VWS V14.01,2013-09-10 01:42:00,
2013-09-09 21:43:00,81.2,75.2,28.71,East,98,7.0,12.0,82,0.00,,CLR,0.00,VWS V14.01,2013-09-10 01:43:00,
2013-09-09 21:44:00,81.2,75.2,28.71,East,87,6.0,7.0,82,0.00,,CLR,0.00,VWS V14.01,2013-09-10 01:44:00,
2013-09-09 21:45:00,81.2,75.6,28.77,East,100,4.0,6.0,83,0.00,,SCT200,0.00,VWS V14.01,2013-09-10 01:45:00,
2013-09-09 21:46:00,81.2,75.6,28.77,East,100,4.0,6.0,83,0.00,,CLR,0.00,VWS V14.01,2013-09-10 01:46:00,
2013-09-09 21:47:00,81.4,75.7,28.77,East,99,7.0,7.0,83,0.00,,CLR,0.00,VWS V14.01,2013-09-10 01:47:00,
2013-09-09 21:48:00,81.4,75.7,28.77,East,95,9.0,10.0,83,0.00,,CLR,0.00,VWS V14.01,2013-09-10 01:48:00,
2013-09-09 21:49:00,81.4,75.7,28.77,East,98,7.0,9.0,83,0.00,,CLR,0.00,VWS V14.01,2013-09-10 01:49:00,
2013-09-09 21:50:00,81.4,75.7,28.77,East,91,4.0,7.0,83,0.00,,SCT200,0.00,VWS V14.01,2013-09-10 01:50:00,
2013-09-09 21:51:00,81.4,75.7,28.77,ESE,102,6.0,7.0,83,0.00,,CLR,0.00,VWS V14.01,2013-09-10 01:51:00,
2013-09-09 21:52:00,81.2,75.6,28.77,East,90,9.0,9.0,83,0.00,,CLR,0.00,VWS V14.01,2013-09-10 01:52:00,
2013-09-09 21:53:00,81.4,75.7,29.55,ESE,109,9.0,9.0,83,0.00,,CLR,0.00,VWS V14.01,2013-09-10 01:53:00,
2013-09-09 21:54:00,81.4,75.4,29.55,ESE,103,7.0,9.0,82,0.00,,CLR,0.00,VWS V14.01,2013-09-10 01:54:00,
2013-09-09 21:55:00,81.2,75.2,29.55,ESE,103,6.0,6.0,82,0.00,,SCT200,0.00,VWS V14.01,2013-09-10 01:55:00,
2013-09-09 21:56:00,81.2,75.2,29.55,ESE,106,6.0,6.0,82,0.00,,CLR,0.00,VWS V14.01,2013-09-10 01:56:00,
2013-09-09 21:57:00,81.1,75.1,29.46,East,100,5.0,6.0,82,0.00,,CLR,0.00,VWS V14.01,2013-09-10 01:57:00,
2013-09-09 21:58:00,81.1,75.4,29.46,East,86,6.0,7.0,83,0.00,,CLR,0.00,VWS V14.01,2013-09-10 01:58:00,
2013-09-09 21:59:00,81.2,75.6,29.46,East,98,4.0,6.0,83,0.00,,CLR,0.00,VWS V14.01,2013-09-10 01:59:00,
2013-09-09 22:00:00,81.2,75.6,29.46,East,92,5.0,9.0,83,0.00,,SCT200,0.00,VWS V14.01,2013-09-10 02:00:00,
2013-09-09 22:01:00,81.2,75.6,29.46,East,94,4.0,9.0,83,0.00,,CLR,0.00,VWS V14.01,2013-09-10 02:01:00,
2013-09-09 22:02:00,81.4,76.1,29.46,ESE,107,7.0,7.0,84,0.00,,CLR,0.00,VWS V14.01,2013-09-10 02:02:00,
2013-09-09 22:03:00,81.2,75.2,29.46,East,100,5.0,9.0,82,0.00,,CLR,0.00,VWS V14.01,2013-09-10 02:03:00,
2013-09-09 22:04:00,81.2,75.6,29.08,East,97,5.0,5.0,83,0.00,,CLR,0.00,VWS V14.01,2013-09-10 02:04:00,
2013-09-09 22:05:00,81.2,75.6,29.08,East,98,10.0,10.0,83,0.00,,SCT200,0.00,VWS V14.01,2013-09-10 02:05:00,
2013-09-09 22:06:00,81.2,75.6,29.08,East,92,8.0,10.0,83,0.00,,CLR,0.00,VWS V14.01,2013-09-10 02:06:00,
2013-09-09 22:07:00,81.2,75.6,29.08,East,90,8.0,9.0,83,0.00,,CLR,0.00,VWS V14.01,2013-09-10 02:07:00,
2013-09-09 22:08:00,81.2,75.6,29.08,East,98,7.0,8.0,83,0.00,,CLR,0.00,VWS V14.01,2013-09-10 02:08:00,
2013-09-09 22:09:00,81.2,75.6,29.54,East,98,6.0,7.0,83,0.00,,CLR,0.00,VWS V14.01,2013-09-10 02:09:00,
2013-09-09 22:10:00,81.2,75.6,29.54,ESE,102,5.0,9.0,83,0.00,,SCT200,0.00,VWS V14.01,2013-09-10 02:10:00,
2013-09-09 22:11:00,81.1,75.4,29.54,ESE,103,5.0,9.0,83,0.00,,CLR,0.00,VWS V14.01,2013-09-10 02:11:00,
2013-09-09 22:12:00,81.1,75.1,29.47,East,88,9.0,9.0,82,0.00,,CLR,0.00,VWS V14.01,2013-09-10 02:12:00,
2013-09-09 22:13:00,81.2,75.6,29.47,East,99,6.0,9.0,83,0.00,,CLR,0.00,VWS V14.01,2013-09-10 02:13:00,
2013-09-09 22:14:00,81.2,75.6,29.31,East,92,7.0,7.0,83,0.00,,CLR,0.00,VWS V14.01,2013-09-10 02:14:00,
2013-09-09 22:15:00,81.2,75.6,29.31,East,97,9.0,10.0,83,0.00,,SCT200,0.00,VWS V14.01,2013-09-10 02:15:00,
2013-09-09 22:16:00,81.2,75.6,29.31,East,94,8.0,10.0,83,0.00,,CLR,0.00,VWS V14.01,2013-09-10 02:16:00,
2013-09-09 22:17:00,81.2,75.6,29.31,East,91,6.0,8.0,83,0.00,,CLR,0.00,VWS V14.01,2013-09-10 02:17:00,
2013-09-09 22:18:00,81.2,75.6,29.28,ENE,77,9.0,9.0,83,0.00,,CLR,0.00,VWS V14.01,2013-09-10 02:18:00,
2013-09-09 22:19:00,81.2,75.6,29.28,ESE,103,7.0,9.0,83,0.00,,CLR,0.00,VWS V14.01,2013-09-10 02:19:00,
2013-09-09 22:20:00,81.2,75.2,29.28,East,91,5.0,6.0,82,0.00,,SCT200,0.00,VWS V14.01,2013-09-10 02:20:00,
2013-09-09 22:21:00,81.2,75.2,29.28,East,93,4.0,6.0,82,0.00,,CLR,0.00,VWS V14.01,2013-09-10 02:21:00,
2013-09-09 22:22:00,81.2,75.2,29.28,East,92,5.0,7.0,82,0.00,,CLR,0.00,VWS V14.01,2013-09-10 02:22:00,
2013-09-09 22:23:00,81.2,75.6,29.28,East,86,4.0,5.0,83,0.00,,CLR,0.00,VWS V14.01,2013-09-10 02:23:00,
2013-09-09 22:24:00,81.2,75.6,29.28,ESE,103,5.0,5.0,83,0.00,,CLR,0.00,VWS V14.01,2013-09-10 02:24:00,
2013-09-09 22:25:00,81.2,75.2,29.32,ESE,108,5.0,6.0,82,0.00,,SCT200,0.00,VWS V14.01,2013-09-10 02:25:00,
2013-09-09 22:26:00,81.2,75.2,29.32,ENE,70,6.0,6.0,82,0.00,,CLR,0.00,VWS V14.01,2013-09-10 02:26:00,
2013-09-09 22:27:00,81.2,75.6,29.32,East,94,7.0,7.0,83,0.00,,CLR,0.00,VWS V14.01,2013-09-10 02:27:00,
2013-09-09 22:28:00,81.2,75.2,29.32,East,94,3.0,7.0,82,0.00,,CLR,0.00,VWS V14.01,2013-09-10 02:28:00,
2013-09-09 22:29:00,81.2,75.6,29.32,East,93,7.0,7.0,83,0.00,,CLR,0.00,VWS V14.01,2013-09-10 02:29:00,
2013-09-09 22:30:00,81.2,75.6,29.32,East,94,6.0,7.0,83,0.00,,SCT200,0.00,VWS V14.01,2013-09-10 02:30:00,
2013-09-09 22:31:00,81.2,75.6,29.32,East,91,5.0,7.0,83,0.00,,CLR,0.00,VWS V14.01,2013-09-10 02:31:00,
2013-09-09 22:32:00,81.2,75.2,29.32,ESE,114,6.0,6.0,82,0.00,,CLR,0.00,VWS V14.01,2013-09-10 02:32:00,
2013-09-09 22:33:00,81.2,75.6,29.35,East,98,7.0,7.0,83,0.00,,CLR,0.00,VWS V14.01,2013-09-10 02:33:00,
2013-09-09 22:34:00,81.2,75.2,29.34,East,88,3.0,7.0,82,0.00,,CLR,0.00,VWS V14.01,2013-09-10 02:34:00,
2013-09-09 22:35:00,81.2,75.6,29.35,East,97,7.0,9.0,83,0.00,,SCT200,0.00,VWS V14.01,2013-09-10 02:35:00,
2013-09-09 22:36:00,81.2,75.6,29.35,East,99,5.0,9.0,83,0.00,,CLR,0.00,VWS V14.01,2013-09-10 02:36:00,
2013-09-09 22:37:00,81.2,75.2,29.35,East,98,4.0,7.0,82,0.00,,CLR,0.00,VWS V14.01,2013-09-10 02:37:00,
2013-09-09 22:38:00,81.1,75.1,29.35,East,92,4.0,7.0,82,0.00,,CLR,0.00,VWS V14.01,2013-09-10 02:38:00,
2013-09-09 22:39:00,81.2,75.2,29.35,ENE,76,2.0,5.0,82,0.00,,CLR,0.00,VWS V14.01,2013-09-10 02:39:00,
2013-09-09 22:40:00,81.2,75.2,29.35,East,97,3.0,5.0,82,0.00,,FEW200,0.00,VWS V14.01,2013-09-10 02:40:00,
2013-09-09 22:41:00,81.2,75.2,29.35,East,101,6.0,6.0,82,0.00,,CLR,0.00,VWS V14.01,2013-09-10 02:41:00,
2013-09-09 22:42:00,81.2,75.6,29.55,ESE,116,3.0,6.0,83,0.00,,CLR,0.00,VWS V14.01,2013-09-10 02:42:00,
2013-09-09 22:43:00,81.2,75.6,29.55,East,84,7.0,7.0,83,0.00,,CLR,0.00,VWS V14.01,2013-09-10 02:43:00,
2013-09-09 22:44:00,81.2,75.6,29.55,East,83,4.0,7.0,83,0.00,,CLR,0.00,VWS V14.01,2013-09-10 02:44:00,
2013-09-09 22:45:00,81.2,75.2,29.55,East,88,2.0,5.0,82,0.00,,FEW200,0.00,VWS V14.01,2013-09-10 02:45:00,
2013-09-09 22:46:00,81.2,75.2,29.55,East,88,4.0,5.0,82,0.00,,CLR,0.00,VWS V14.01,2013-09-10 02:46:00,
2013-09-09 22:47:00,81.1,75.1,29.55,East,94,4.0,4.0,82,0.00,,CLR,0.00,VWS V14.01,2013-09-10 02:47:00,
2013-09-09 22:48:00,81.1,75.1,29.55,East,101,4.0,5.0,82,0.00,,CLR,0.00,VWS V14.01,2013-09-10 02:48:00,
2013-09-09 22:49:00,81.1,75.1,29.55,East,98,5.0,5.0,82,0.00,,CLR,0.00,VWS V14.01,2013-09-10 02:49:00,
2013-09-09 22:50:00,81.1,75.1,29.36,ENE,76,8.0,8.0,82,0.00,,FEW200,0.00,VWS V14.01,2013-09-10 02:50:00,
2013-09-09 22:51:00,81.1,75.1,29.36,East,79,4.0,8.0,82,0.00,,CLR,0.00,VWS V14.01,2013-09-10 02:51:00,
2013-09-09 22:52:00,81.1,75.1,29.36,East,80,4.0,5.0,82,0.00,,CLR,0.00,VWS V14.01,2013-09-10 02:52:00,
2013-09-09 22:53:00,81.2,75.2,29.39,East,96,7.0,7.0,82,0.00,,CLR,0.00,VWS V14.01,2013-09-10 02:53:00,
2013-09-09 22:54:00,81.2,75.2,29.39,East,101,6.0,6.0,82,0.00,,FEW200,0.00,VWS V14.01,2013-09-10 02:54:00,
2013-09-09 22:55:00,81.2,75.2,29.39,East,92,6.0,8.0,82,0.00,,CLR,0.00,VWS V14.01,2013-09-10 02:55:00,
2013-09-09 22:56:00,81.2,75.2,29.39,East,97,6.0,6.0,82,0.00,,CLR,0.00,VWS V14.01,2013-09-10 02:56:00,
2013-09-09 22:57:00,81.2,75.2,29.39,East,99,5.0,8.0,82,0.00,,CLR,0.00,VWS V14.01,2013-09-10 02:57:00,
2013-09-09 22:58:00,81.2,75.2,29.39,East,96,5.0,6.0,82,0.00,,CLR,0.00,VWS V14.01,2013-09-10 02:58:00,
2013-09-09 22:59:00,81.4,75.4,29.39,East,88,4.0,6.0,82,0.00,,CLR,0.00,VWS V14.01,2013-09-10 02:59:00,
2013-09-09 23:00:00,81.2,75.2,29.47,East,94,6.0,7.0,82,0.00,,FEW200,0.00,VWS V14.01,2013-09-10 03:00:00,
2013-09-09 23:01:00,81.2,75.2,29.47,East,92,5.0,7.0,82,0.00,,CLR,0.00,VWS V14.01,2013-09-10 03:01:00,
2013-09-09 23:02:00,81.2,75.2,29.47,East,97,6.0,7.0,82,0.00,,CLR,0.00,VWS V14.01,2013-09-10 03:02:00,
2013-09-09 23:03:00,81.2,74.8,29.47,East,98,4.0,6.0,81,0.00,,CLR,0.00,VWS V14.01,2013-09-10 03:03:00,
2013-09-09 23:04:00,81.2,74.8,29.27,East,98,6.0,7.0,81,0.00,,CLR,0.00,VWS V14.01,2013-09-10 03:04:00,
2013-09-09 23:05:00,81.2,75.2,29.27,ESE,102,9.0,9.0,82,0.00,,FEW200,0.00,VWS V14.01,2013-09-10 03:05:00,
2013-09-09 23:06:00,81.2,75.2,29.27,East,101,9.0,9.0,82,0.00,,CLR,0.00,VWS V14.01,2013-09-10 03:06:00,
2013-09-09 23:07:00,81.4,75.4,29.27,East,96,5.0,9.0,82,0.00,,CLR,0.00,VWS V14.01,2013-09-10 03:07:00,
2013-09-09 23:08:00,81.4,75.4,29.27,East,96,4.0,5.0,82,0.00,,CLR,0.00,VWS V14.01,2013-09-10 03:08:00,
2013-09-09 23:09:00,81.4,75.4,29.34,East,98,5.0,5.0,82,0.00,,CLR,0.00,VWS V14.01,2013-09-10 03:09:00,
2013-09-09 23:10:00,81.2,75.2,29.34,ESE,108,6.0,9.0,82,0.00,,FEW200,0.00,VWS V14.01,2013-09-10 03:10:00,
2013-09-09 23:11:00,81.2,75.2,29.34,East,100,5.0,9.0,82,0.00,,CLR,0.00,VWS V14.01,2013-09-10 03:11:00,
2013-09-09 23:12:00,81.2,74.8,29.34,ESE,102,7.0,7.0,81,0.00,,CLR,0.00,VWS V14.01,2013-09-10 03:12:00,
2013-09-09 23:13:00,81.2,75.2,29.34,East,94,4.0,7.0,82,0.00,,CLR,0.00,VWS V14.01,2013-09-10 03:13:00,
2013-09-09 23:14:00,81.2,74.8,29.34,East,96,6.0,6.0,81,0.00,,CLR,0.00,VWS V14.01,2013-09-10 03:14:00,
2013-09-09 23:15:00,81.2,75.2,29.34,ESE,105,5.0,7.0,82,0.00,,FEW200,0.00,VWS V14.01,2013-09-10 03:15:00,
2013-09-09 23:16:00,81.2,75.2,29.34,ESE,105,4.0,7.0,82,0.00,,CLR,0.00,VWS V14.01,2013-09-10 03:16:00,
2013-09-09 23:17:00,81.2,75.2,29.34,East,101,4.0,5.0,82,0.00,,CLR,0.00,VWS V14.01,2013-09-10 03:17:00,
2013-09-09 23:19:00,81.2,74.8,29.34,ESE,102,4.0,10.0,81,0.00,,CLR,0.00,VWS V14.01,2013-09-10 03:19:00,
2013-09-09 23:20:00,81.2,74.8,29.34,East,93,4.0,7.0,81,0.00,,FEW200,0.00,VWS V14.01,2013-09-10 03:20:00,
2013-09-09 23:21:00,81.2,74.8,29.34,East,97,6.0,7.0,81,0.00,,CLR,0.00,VWS V14.01,2013-09-10 03:21:00,
2013-09-09 23:22:00,81.2,74.8,29.34,ESE,103,3.0,6.0,81,0.00,,CLR,0.00,VWS V14.01,2013-09-10 03:22:00,
2013-09-09 23:23:00,81.2,74.8,29.53,East,94,5.0,5.0,81,0.00,,CLR,0.00,VWS V14.01,2013-09-10 03:23:00,
2013-09-09 23:24:00,81.2,74.8,29.52,ENE,71,5.0,5.0,81,0.00,,CLR,0.00,VWS V14.01,2013-09-10 03:24:00,
2013-09-09 23:25:00,81.2,74.8,29.52,East,96,5.0,5.0,81,0.00,,FEW200,0.00,VWS V14.01,2013-09-10 03:25:00,
2013-09-09 23:26:00,81.2,74.8,29.52,East,93,2.0,5.0,81,0.00,,CLR,0.00,VWS V14.01,2013-09-10 03:26:00,
2013-09-09 23:27:00,81.2,75.2,29.54,ENE,66,5.0,5.0,82,0.00,,CLR,0.00,VWS V14.01,2013-09-10 03:27:00,
2013-09-09 23:28:00,81.2,74.8,29.54,East,90,3.0,5.0,81,0.00,,CLR,0.00,VWS V14.01,2013-09-10 03:28:00,
2013-09-09 23:29:00,81.2,74.8,29.54,ENE,74,2.0,5.0,81,0.00,,FEW200,0.00,VWS V14.01,2013-09-10 03:29:00,
2013-09-09 23:30:00,81.2,74.8,29.54,ENE,74,5.0,5.0,81,0.00,,CLR,0.00,VWS V14.01,2013-09-10 03:30:00,
2013-09-09 23:31:00,81.2,74.8,29.54,ESE,113,3.0,5.0,81,0.00,,CLR,0.00,VWS V14.01,2013-09-10 03:31:00,
2013-09-09 23:32:00,81.2,74.8,29.54,ENE,61,7.0,7.0,81,0.00,,CLR,0.00,VWS V14.01,2013-09-10 03:32:00,
2013-09-09 23:33:00,81.2,74.8,29.54,ENE,74,3.0,7.0,81,0.00,,CLR,0.00,VWS V14.01,2013-09-10 03:33:00,
2013-09-09 23:34:00,81.2,75.2,29.53,East,91,5.0,5.0,82,0.00,,FEW200,0.00,VWS V14.01,2013-09-10 03:34:00,
2013-09-09 23:35:00,81.2,75.2,29.51,ESE,109,4.0,5.0,82,0.00,,CLR,0.00,VWS V14.01,2013-09-10 03:35:00,
2013-09-09 23:36:00,81.2,74.8,29.53,East,91,4.0,5.0,81,0.00,,CLR,0.00,VWS V14.01,2013-09-10 03:36:00,
2013-09-09 23:37:00,81.2,75.2,29.52,East,95,3.0,5.0,82,0.00,,CLR,0.00,VWS V14.01,2013-09-10 03:37:00,
2013-09-09 23:38:00,81.2,75.2,29.52,East,91,5.0,5.0,82,0.00,,CLR,0.00,VWS V14.01,2013-09-10 03:38:00,
2013-09-09 23:39:00,81.2,74.8,29.52,East,97,4.0,5.0,81,0.00,,FEW200,0.00,VWS V14.01,2013-09-10 03:39:00,
2013-09-09 23:40:00,81.2,74.8,29.52,East,89,3.0,6.0,81,0.00,,CLR,0.00,VWS V14.01,2013-09-10 03:40:00,
2013-09-09 23:41:00,81.2,74.8,29.52,East,97,4.0,5.0,81,0.00,,CLR,0.00,VWS V14.01,2013-09-10 03:41:00,
2013-09-09 23:42:00,81.4,75.4,29.52,East,98,7.0,7.0,82,0.00,,CLR,0.00,VWS V14.01,2013-09-10 03:42:00,
2013-09-09 23:43:00,81.4,75.4,29.63,ENE,62,3.0,7.0,82,0.00,,CLR,0.00,VWS V14.01,2013-09-10 03:43:00,
2013-09-09 23:44:00,81.4,75.0,29.62,ENE,75,4.0,4.0,81,0.00,,FEW200,0.00,VWS V14.01,2013-09-10 03:44:00,
2013-09-09 23:45:00,81.4,75.0,29.62,ENE,74,1.0,5.0,81,0.00,,CLR,0.00,VWS V14.01,2013-09-10 03:45:00,
2013-09-09 23:46:00,81.4,75.0,29.62,East,88,3.0,4.0,81,0.00,,CLR,0.00,VWS V14.01,2013-09-10 03:46:00,
2013-09-09 23:47:00,81.4,75.4,29.61,East,88,4.0,5.0,82,0.00,,CLR,0.00,VWS V14.01,2013-09-10 03:47:00,
2013-09-09 23:49:00,81.4,75.0,29.61,ENE,68,3.0,4.0,81,0.00,,FEW200,0.00,VWS V14.01,2013-09-10 03:49:00,
2013-09-09 23:50:00,81.4,75.4,29.61,ESE,107,3.0,6.0,82,0.00,,CLR,0.00,VWS V14.01,2013-09-10 03:50:00,
2013-09-09 23:51:00,81.4,75.0,29.61,ENE,73,5.0,5.0,81,0.00,,CLR,0.00,VWS V14.01,2013-09-10 03:51:00,
2013-09-09 23:52:00,81.4,75.0,29.61,East,81,3.0,6.0,81,0.00,,CLR,0.00,VWS V14.01,2013-09-10 03:52:00,
2013-09-09 23:53:00,81.4,75.0,29.61,East,96,3.0,5.0,81,0.00,,CLR,0.00,VWS V14.01,2013-09-10 03:53:00,
2013-09-09 23:54:00,81.4,75.4,29.61,East,98,7.0,7.0,82,0.00,,FEW200,0.00,VWS V14.01,2013-09-10 03:54:00,
2013-09-09 23:55:00,81.4,75.4,29.61,ENE,77,7.0,7.0,82,0.00,,CLR,0.00,VWS V14.01,2013-09-10 03:55:00,
2013-09-09 23:56:00,81.4,75.4,29.61,East,96,6.0,7.0,82,0.00,,CLR,0.00,VWS V14.01,2013-09-10 03:56:00,
2013-09-09 23:57:00,81.4,75.4,29.51,ESE,107,5.0,7.0,82,0.00,,CLR,0.00,VWS V14.01,2013-09-10 03:57:00,
2013-09-09 23:58:00,81.4,75.0,29.51,East,98,5.0,6.0,81,0.00,,CLR,0.00,VWS V14.01,2013-09-10 03:58:00,
2013-09-09 23:59:00,81.2,74.8,29.51,East,92,4.0,6.0,81,0.00,,FEW200,0.00,VWS V14.01,2013-09-10 03:59:00,